<?xml version="1.0" encoding="UTF-8" standalone="no" ?>
<gpx xmlns="http://www.topografix.com/GPX/1/1" xmlns:xsi="http://www.w3.org/2001/XMLSchema-instance" xsi:schemaLocation="http://www.topografix.com/GPX/1/1 http://www.topografix.com/GPX/1/1/gpx.xsd" version="1.1" creator="VisuGPX - https://www.visugpx.com">
  <metadata>
    <name>sortie sud ouest toulouse</name>
    <desc><![CDATA[itinéraire plat. beaucoup de pistes cyclables dans le coin du touch au sud ouest de toulouse]]></desc>
  </metadata>
  <trk>
    <name><![CDATA[Frouzins plaisance]]></name>
    <trkseg>
      <trkpt lat="43.58955" lon="1.47708">
        <ele>198.17</ele>
        <time>2017-07-01T06:43:49Z</time>
      </trkpt>
      <trkpt lat="43.58954" lon="1.47708">
        <ele>198.17</ele>
        <time>2017-07-01T06:43:51Z</time>
      </trkpt>
      <trkpt lat="43.58954" lon="1.47702">
        <ele>198.17</ele>
        <time>2017-07-01T06:44:03Z</time>
      </trkpt>
      <trkpt lat="43.58957" lon="1.47696">
        <ele>198.17</ele>
        <time>2017-07-01T06:44:05Z</time>
      </trkpt>
      <trkpt lat="43.58984" lon="1.47641">
        <ele>197.21</ele>
        <time>2017-07-01T06:44:16Z</time>
      </trkpt>
      <trkpt lat="43.59011" lon="1.47554">
        <ele>192.88</ele>
        <time>2017-07-01T06:44:28Z</time>
      </trkpt>
      <trkpt lat="43.59013" lon="1.47549">
        <ele>192.88</ele>
        <time>2017-07-01T06:44:29Z</time>
      </trkpt>
      <trkpt lat="43.59014" lon="1.47546">
        <ele>192.88</ele>
        <time>2017-07-01T06:44:30Z</time>
      </trkpt>
      <trkpt lat="43.59018" lon="1.47542">
        <ele>191.92</ele>
        <time>2017-07-01T06:44:32Z</time>
      </trkpt>
      <trkpt lat="43.5902" lon="1.47543">
        <ele>191.92</ele>
        <time>2017-07-01T06:44:33Z</time>
      </trkpt>
      <trkpt lat="43.59022" lon="1.47545">
        <ele>191.92</ele>
        <time>2017-07-01T06:44:34Z</time>
      </trkpt>
      <trkpt lat="43.59024" lon="1.47547">
        <ele>191.92</ele>
        <time>2017-07-01T06:44:35Z</time>
      </trkpt>
      <trkpt lat="43.59026" lon="1.47549">
        <ele>191.92</ele>
        <time>2017-07-01T06:44:36Z</time>
      </trkpt>
      <trkpt lat="43.59065" lon="1.47583">
        <ele>192.88</ele>
        <time>2017-07-01T06:44:51Z</time>
      </trkpt>
      <trkpt lat="43.59072" lon="1.47585">
        <ele>192.88</ele>
        <time>2017-07-01T06:44:54Z</time>
      </trkpt>
      <trkpt lat="43.59073" lon="1.47582">
        <ele>192.88</ele>
        <time>2017-07-01T06:44:55Z</time>
      </trkpt>
      <trkpt lat="43.59075" lon="1.47578">
        <ele>192.88</ele>
        <time>2017-07-01T06:44:56Z</time>
      </trkpt>
      <trkpt lat="43.59099" lon="1.47507">
        <ele>193.84</ele>
        <time>2017-07-01T06:45:07Z</time>
      </trkpt>
      <trkpt lat="43.59132" lon="1.47409">
        <ele>190.96</ele>
        <time>2017-07-01T06:45:20Z</time>
      </trkpt>
      <trkpt lat="43.59153" lon="1.47349">
        <ele>189.04</ele>
        <time>2017-07-01T06:45:29Z</time>
      </trkpt>
      <trkpt lat="43.59156" lon="1.47348">
        <ele>189.04</ele>
        <time>2017-07-01T06:45:30Z</time>
      </trkpt>
      <trkpt lat="43.59159" lon="1.47348">
        <ele>189.04</ele>
        <time>2017-07-01T06:45:31Z</time>
      </trkpt>
      <trkpt lat="43.59162" lon="1.4735">
        <ele>189.04</ele>
        <time>2017-07-01T06:45:32Z</time>
      </trkpt>
      <trkpt lat="43.59165" lon="1.47353">
        <ele>189.04</ele>
        <time>2017-07-01T06:45:33Z</time>
      </trkpt>
      <trkpt lat="43.59169" lon="1.47355">
        <ele>189.04</ele>
        <time>2017-07-01T06:45:34Z</time>
      </trkpt>
      <trkpt lat="43.59219" lon="1.47385">
        <ele>189.04</ele>
        <time>2017-07-01T06:45:48Z</time>
      </trkpt>
      <trkpt lat="43.59243" lon="1.47402">
        <ele>190</ele>
        <time>2017-07-01T06:45:55Z</time>
      </trkpt>
      <trkpt lat="43.59253" lon="1.47412">
        <ele>190.96</ele>
        <time>2017-07-01T06:45:58Z</time>
      </trkpt>
      <trkpt lat="43.59258" lon="1.47413">
        <ele>190.96</ele>
        <time>2017-07-01T06:45:59Z</time>
      </trkpt>
      <trkpt lat="43.59262" lon="1.47416">
        <ele>190.96</ele>
        <time>2017-07-01T06:46:00Z</time>
      </trkpt>
      <trkpt lat="43.59269" lon="1.47422">
        <ele>191.92</ele>
        <time>2017-07-01T06:46:02Z</time>
      </trkpt>
      <trkpt lat="43.59298" lon="1.47442">
        <ele>192.88</ele>
        <time>2017-07-01T06:46:12Z</time>
      </trkpt>
      <trkpt lat="43.59303" lon="1.47446">
        <ele>193.84</ele>
        <time>2017-07-01T06:46:18Z</time>
      </trkpt>
      <trkpt lat="43.59309" lon="1.47447">
        <ele>193.84</ele>
        <time>2017-07-01T06:46:42Z</time>
      </trkpt>
      <trkpt lat="43.59311" lon="1.47445">
        <ele>193.84</ele>
        <time>2017-07-01T06:46:43Z</time>
      </trkpt>
      <trkpt lat="43.59312" lon="1.47442">
        <ele>193.84</ele>
        <time>2017-07-01T06:46:44Z</time>
      </trkpt>
      <trkpt lat="43.59313" lon="1.47439">
        <ele>193.84</ele>
        <time>2017-07-01T06:46:45Z</time>
      </trkpt>
      <trkpt lat="43.59315" lon="1.47435">
        <ele>193.84</ele>
        <time>2017-07-01T06:46:46Z</time>
      </trkpt>
      <trkpt lat="43.59316" lon="1.47431">
        <ele>193.84</ele>
        <time>2017-07-01T06:46:47Z</time>
      </trkpt>
      <trkpt lat="43.59341" lon="1.47344">
        <ele>192.88</ele>
        <time>2017-07-01T06:47:01Z</time>
      </trkpt>
      <trkpt lat="43.59351" lon="1.47303">
        <ele>191.92</ele>
        <time>2017-07-01T06:47:07Z</time>
      </trkpt>
      <trkpt lat="43.59357" lon="1.47277">
        <ele>190.96</ele>
        <time>2017-07-01T06:47:11Z</time>
      </trkpt>
      <trkpt lat="43.59359" lon="1.47271">
        <ele>190.96</ele>
        <time>2017-07-01T06:47:12Z</time>
      </trkpt>
      <trkpt lat="43.59362" lon="1.47267">
        <ele>190.96</ele>
        <time>2017-07-01T06:47:13Z</time>
      </trkpt>
      <trkpt lat="43.59365" lon="1.47263">
        <ele>190.96</ele>
        <time>2017-07-01T06:47:14Z</time>
      </trkpt>
      <trkpt lat="43.59368" lon="1.4726">
        <ele>190.96</ele>
        <time>2017-07-01T06:47:15Z</time>
      </trkpt>
      <trkpt lat="43.59372" lon="1.47257">
        <ele>190.96</ele>
        <time>2017-07-01T06:47:16Z</time>
      </trkpt>
      <trkpt lat="43.59399" lon="1.47243">
        <ele>190</ele>
        <time>2017-07-01T06:47:22Z</time>
      </trkpt>
      <trkpt lat="43.59408" lon="1.47238">
        <ele>190</ele>
        <time>2017-07-01T06:47:24Z</time>
      </trkpt>
      <trkpt lat="43.59464" lon="1.47211">
        <ele>190.96</ele>
        <time>2017-07-01T06:47:36Z</time>
      </trkpt>
      <trkpt lat="43.59468" lon="1.4721">
        <ele>190.96</ele>
        <time>2017-07-01T06:47:37Z</time>
      </trkpt>
      <trkpt lat="43.59472" lon="1.47209">
        <ele>190.96</ele>
        <time>2017-07-01T06:47:38Z</time>
      </trkpt>
      <trkpt lat="43.59521" lon="1.47205">
        <ele>191.92</ele>
        <time>2017-07-01T06:47:50Z</time>
      </trkpt>
      <trkpt lat="43.59539" lon="1.47201">
        <ele>191.92</ele>
        <time>2017-07-01T06:47:54Z</time>
      </trkpt>
      <trkpt lat="43.596" lon="1.47191">
        <ele>192.88</ele>
        <time>2017-07-01T06:48:09Z</time>
      </trkpt>
      <trkpt lat="43.59602" lon="1.47189">
        <ele>193.84</ele>
        <time>2017-07-01T06:48:10Z</time>
      </trkpt>
      <trkpt lat="43.59604" lon="1.47185">
        <ele>193.84</ele>
        <time>2017-07-01T06:48:11Z</time>
      </trkpt>
      <trkpt lat="43.59605" lon="1.47181">
        <ele>193.84</ele>
        <time>2017-07-01T06:48:12Z</time>
      </trkpt>
      <trkpt lat="43.59604" lon="1.47176">
        <ele>193.84</ele>
        <time>2017-07-01T06:48:13Z</time>
      </trkpt>
      <trkpt lat="43.59604" lon="1.4717">
        <ele>193.84</ele>
        <time>2017-07-01T06:48:14Z</time>
      </trkpt>
      <trkpt lat="43.59601" lon="1.4712">
        <ele>193.84</ele>
        <time>2017-07-01T06:48:22Z</time>
      </trkpt>
      <trkpt lat="43.59599" lon="1.47114">
        <ele>193.84</ele>
        <time>2017-07-01T06:48:23Z</time>
      </trkpt>
      <trkpt lat="43.59597" lon="1.47107">
        <ele>193.84</ele>
        <time>2017-07-01T06:48:24Z</time>
      </trkpt>
      <trkpt lat="43.59592" lon="1.47094">
        <ele>192.88</ele>
        <time>2017-07-01T06:48:26Z</time>
      </trkpt>
      <trkpt lat="43.59566" lon="1.46974">
        <ele>190</ele>
        <time>2017-07-01T06:48:40Z</time>
      </trkpt>
      <trkpt lat="43.59544" lon="1.46852">
        <ele>187.11</ele>
        <time>2017-07-01T06:48:54Z</time>
      </trkpt>
      <trkpt lat="43.59545" lon="1.46847">
        <ele>187.11</ele>
        <time>2017-07-01T06:48:55Z</time>
      </trkpt>
      <trkpt lat="43.59547" lon="1.46842">
        <ele>187.11</ele>
        <time>2017-07-01T06:48:56Z</time>
      </trkpt>
      <trkpt lat="43.5955" lon="1.46838">
        <ele>187.11</ele>
        <time>2017-07-01T06:48:57Z</time>
      </trkpt>
      <trkpt lat="43.59554" lon="1.46835">
        <ele>187.11</ele>
        <time>2017-07-01T06:48:58Z</time>
      </trkpt>
      <trkpt lat="43.59558" lon="1.46832">
        <ele>187.11</ele>
        <time>2017-07-01T06:48:59Z</time>
      </trkpt>
      <trkpt lat="43.59616" lon="1.4679">
        <ele>186.15</ele>
        <time>2017-07-01T06:49:12Z</time>
      </trkpt>
      <trkpt lat="43.59645" lon="1.46773">
        <ele>186.15</ele>
        <time>2017-07-01T06:49:18Z</time>
      </trkpt>
      <trkpt lat="43.59675" lon="1.46754">
        <ele>187.11</ele>
        <time>2017-07-01T06:49:25Z</time>
      </trkpt>
      <trkpt lat="43.59684" lon="1.4675">
        <ele>187.11</ele>
        <time>2017-07-01T06:49:27Z</time>
      </trkpt>
      <trkpt lat="43.59713" lon="1.46727">
        <ele>187.11</ele>
        <time>2017-07-01T06:49:33Z</time>
      </trkpt>
      <trkpt lat="43.59737" lon="1.46713">
        <ele>187.11</ele>
        <time>2017-07-01T06:49:42Z</time>
      </trkpt>
      <trkpt lat="43.59741" lon="1.46711">
        <ele>187.11</ele>
        <time>2017-07-01T06:49:43Z</time>
      </trkpt>
      <trkpt lat="43.59766" lon="1.46704">
        <ele>188.08</ele>
        <time>2017-07-01T06:49:49Z</time>
      </trkpt>
      <trkpt lat="43.59779" lon="1.46701">
        <ele>188.08</ele>
        <time>2017-07-01T06:49:52Z</time>
      </trkpt>
      <trkpt lat="43.5979" lon="1.46695">
        <ele>188.08</ele>
        <time>2017-07-01T06:49:54Z</time>
      </trkpt>
      <trkpt lat="43.598" lon="1.46696">
        <ele>188.08</ele>
        <time>2017-07-01T06:49:56Z</time>
      </trkpt>
      <trkpt lat="43.59853" lon="1.46678">
        <ele>189.04</ele>
        <time>2017-07-01T06:50:08Z</time>
      </trkpt>
      <trkpt lat="43.59924" lon="1.46654">
        <ele>189.04</ele>
        <time>2017-07-01T06:50:23Z</time>
      </trkpt>
      <trkpt lat="43.59934" lon="1.46645">
        <ele>189.04</ele>
        <time>2017-07-01T06:50:27Z</time>
      </trkpt>
      <trkpt lat="43.5994" lon="1.46634">
        <ele>189.04</ele>
        <time>2017-07-01T06:50:31Z</time>
      </trkpt>
      <trkpt lat="43.59941" lon="1.4663">
        <ele>189.04</ele>
        <time>2017-07-01T06:50:32Z</time>
      </trkpt>
      <trkpt lat="43.59942" lon="1.46624">
        <ele>189.04</ele>
        <time>2017-07-01T06:50:33Z</time>
      </trkpt>
      <trkpt lat="43.59953" lon="1.46584">
        <ele>188.08</ele>
        <time>2017-07-01T06:50:41Z</time>
      </trkpt>
      <trkpt lat="43.59951" lon="1.46581">
        <ele>188.08</ele>
        <time>2017-07-01T06:50:42Z</time>
      </trkpt>
      <trkpt lat="43.59949" lon="1.4658">
        <ele>188.08</ele>
        <time>2017-07-01T06:50:43Z</time>
      </trkpt>
      <trkpt lat="43.59939" lon="1.46583">
        <ele>188.08</ele>
        <time>2017-07-01T06:50:46Z</time>
      </trkpt>
      <trkpt lat="43.59934" lon="1.46584">
        <ele>187.11</ele>
        <time>2017-07-01T06:50:47Z</time>
      </trkpt>
      <trkpt lat="43.59917" lon="1.4659">
        <ele>187.11</ele>
        <time>2017-07-01T06:50:51Z</time>
      </trkpt>
      <trkpt lat="43.5985" lon="1.46607">
        <ele>188.08</ele>
        <time>2017-07-01T06:51:05Z</time>
      </trkpt>
      <trkpt lat="43.5978" lon="1.46624">
        <ele>188.08</ele>
        <time>2017-07-01T06:51:18Z</time>
      </trkpt>
      <trkpt lat="43.59709" lon="1.4664">
        <ele>187.11</ele>
        <time>2017-07-01T06:51:32Z</time>
      </trkpt>
      <trkpt lat="43.59702" lon="1.46642">
        <ele>187.11</ele>
        <time>2017-07-01T06:51:34Z</time>
      </trkpt>
      <trkpt lat="43.59659" lon="1.46666">
        <ele>186.15</ele>
        <time>2017-07-01T06:51:43Z</time>
      </trkpt>
      <trkpt lat="43.59584" lon="1.46725">
        <ele>186.15</ele>
        <time>2017-07-01T06:51:59Z</time>
      </trkpt>
      <trkpt lat="43.59523" lon="1.46776">
        <ele>185.19</ele>
        <time>2017-07-01T06:52:12Z</time>
      </trkpt>
      <trkpt lat="43.59518" lon="1.46777">
        <ele>185.19</ele>
        <time>2017-07-01T06:52:13Z</time>
      </trkpt>
      <trkpt lat="43.59515" lon="1.46776">
        <ele>185.19</ele>
        <time>2017-07-01T06:52:14Z</time>
      </trkpt>
      <trkpt lat="43.59511" lon="1.46774">
        <ele>185.19</ele>
        <time>2017-07-01T06:52:15Z</time>
      </trkpt>
      <trkpt lat="43.59508" lon="1.46771">
        <ele>185.19</ele>
        <time>2017-07-01T06:52:16Z</time>
      </trkpt>
      <trkpt lat="43.59506" lon="1.46766">
        <ele>185.19</ele>
        <time>2017-07-01T06:52:17Z</time>
      </trkpt>
      <trkpt lat="43.59503" lon="1.46761">
        <ele>185.19</ele>
        <time>2017-07-01T06:52:18Z</time>
      </trkpt>
      <trkpt lat="43.595" lon="1.46755">
        <ele>185.19</ele>
        <time>2017-07-01T06:52:19Z</time>
      </trkpt>
      <trkpt lat="43.59475" lon="1.46716">
        <ele>184.23</ele>
        <time>2017-07-01T06:52:26Z</time>
      </trkpt>
      <trkpt lat="43.59473" lon="1.46712">
        <ele>184.23</ele>
        <time>2017-07-01T06:52:27Z</time>
      </trkpt>
      <trkpt lat="43.59465" lon="1.46697">
        <ele>182.79</ele>
        <time>2017-07-01T06:52:31Z</time>
      </trkpt>
      <trkpt lat="43.59463" lon="1.46691">
        <ele>182.79</ele>
        <time>2017-07-01T06:52:32Z</time>
      </trkpt>
      <trkpt lat="43.59453" lon="1.46657">
        <ele>181.83</ele>
        <time>2017-07-01T06:52:37Z</time>
      </trkpt>
      <trkpt lat="43.5945" lon="1.4665">
        <ele>181.83</ele>
        <time>2017-07-01T06:52:38Z</time>
      </trkpt>
      <trkpt lat="43.59441" lon="1.4663">
        <ele>180.87</ele>
        <time>2017-07-01T06:52:41Z</time>
      </trkpt>
      <trkpt lat="43.59438" lon="1.46623">
        <ele>180.87</ele>
        <time>2017-07-01T06:52:42Z</time>
      </trkpt>
      <trkpt lat="43.59435" lon="1.46617">
        <ele>180.87</ele>
        <time>2017-07-01T06:52:43Z</time>
      </trkpt>
      <trkpt lat="43.5943" lon="1.46603">
        <ele>180.87</ele>
        <time>2017-07-01T06:52:45Z</time>
      </trkpt>
      <trkpt lat="43.59403" lon="1.46553">
        <ele>178.94</ele>
        <time>2017-07-01T06:52:56Z</time>
      </trkpt>
      <trkpt lat="43.59401" lon="1.46554">
        <ele>178.94</ele>
        <time>2017-07-01T06:52:57Z</time>
      </trkpt>
      <trkpt lat="43.59398" lon="1.46555">
        <ele>178.94</ele>
        <time>2017-07-01T06:52:58Z</time>
      </trkpt>
      <trkpt lat="43.59391" lon="1.46559">
        <ele>178.94</ele>
        <time>2017-07-01T06:53:00Z</time>
      </trkpt>
      <trkpt lat="43.59387" lon="1.46559">
        <ele>178.94</ele>
        <time>2017-07-01T06:53:01Z</time>
      </trkpt>
      <trkpt lat="43.59372" lon="1.46555">
        <ele>178.94</ele>
        <time>2017-07-01T06:53:04Z</time>
      </trkpt>
      <trkpt lat="43.59362" lon="1.4655">
        <ele>178.94</ele>
        <time>2017-07-01T06:53:06Z</time>
      </trkpt>
      <trkpt lat="43.5928" lon="1.46527">
        <ele>177.98</ele>
        <time>2017-07-01T06:53:20Z</time>
      </trkpt>
      <trkpt lat="43.59211" lon="1.46505">
        <ele>176.06</ele>
        <time>2017-07-01T06:53:31Z</time>
      </trkpt>
      <trkpt lat="43.5919" lon="1.46495">
        <ele>175.1</ele>
        <time>2017-07-01T06:53:35Z</time>
      </trkpt>
      <trkpt lat="43.59117" lon="1.46473">
        <ele>174.14</ele>
        <time>2017-07-01T06:53:47Z</time>
      </trkpt>
      <trkpt lat="43.59104" lon="1.46469">
        <ele>174.14</ele>
        <time>2017-07-01T06:53:49Z</time>
      </trkpt>
      <trkpt lat="43.59098" lon="1.46465">
        <ele>173.17</ele>
        <time>2017-07-01T06:53:50Z</time>
      </trkpt>
      <trkpt lat="43.59051" lon="1.46432">
        <ele>172.21</ele>
        <time>2017-07-01T06:53:58Z</time>
      </trkpt>
      <trkpt lat="43.59044" lon="1.46429">
        <ele>172.21</ele>
        <time>2017-07-01T06:53:59Z</time>
      </trkpt>
      <trkpt lat="43.5897" lon="1.46383">
        <ele>167.89</ele>
        <time>2017-07-01T06:54:10Z</time>
      </trkpt>
      <trkpt lat="43.58949" lon="1.4637">
        <ele>166.93</ele>
        <time>2017-07-01T06:54:13Z</time>
      </trkpt>
      <trkpt lat="43.58941" lon="1.46368">
        <ele>166.93</ele>
        <time>2017-07-01T06:54:14Z</time>
      </trkpt>
      <trkpt lat="43.58933" lon="1.46367">
        <ele>166.93</ele>
        <time>2017-07-01T06:54:15Z</time>
      </trkpt>
      <trkpt lat="43.58895" lon="1.46361">
        <ele>165</ele>
        <time>2017-07-01T06:54:20Z</time>
      </trkpt>
      <trkpt lat="43.58816" lon="1.46348">
        <ele>162.12</ele>
        <time>2017-07-01T06:54:31Z</time>
      </trkpt>
      <trkpt lat="43.58742" lon="1.46342">
        <ele>160.2</ele>
        <time>2017-07-01T06:54:43Z</time>
      </trkpt>
      <trkpt lat="43.58724" lon="1.46339">
        <ele>159.24</ele>
        <time>2017-07-01T06:54:46Z</time>
      </trkpt>
      <trkpt lat="43.58708" lon="1.46337">
        <ele>159.24</ele>
        <time>2017-07-01T06:54:49Z</time>
      </trkpt>
      <trkpt lat="43.58692" lon="1.46333">
        <ele>159.24</ele>
        <time>2017-07-01T06:54:52Z</time>
      </trkpt>
      <trkpt lat="43.58687" lon="1.46332">
        <ele>159.24</ele>
        <time>2017-07-01T06:54:53Z</time>
      </trkpt>
      <trkpt lat="43.58683" lon="1.46329">
        <ele>159.24</ele>
        <time>2017-07-01T06:54:54Z</time>
      </trkpt>
      <trkpt lat="43.58674" lon="1.4632">
        <ele>157.79</ele>
        <time>2017-07-01T06:54:58Z</time>
      </trkpt>
      <trkpt lat="43.58674" lon="1.46316">
        <ele>157.79</ele>
        <time>2017-07-01T06:54:59Z</time>
      </trkpt>
      <trkpt lat="43.58675" lon="1.46311">
        <ele>157.79</ele>
        <time>2017-07-01T06:55:00Z</time>
      </trkpt>
      <trkpt lat="43.58677" lon="1.46306">
        <ele>157.79</ele>
        <time>2017-07-01T06:55:01Z</time>
      </trkpt>
      <trkpt lat="43.58678" lon="1.46302">
        <ele>157.79</ele>
        <time>2017-07-01T06:55:02Z</time>
      </trkpt>
      <trkpt lat="43.5868" lon="1.46297">
        <ele>157.79</ele>
        <time>2017-07-01T06:55:03Z</time>
      </trkpt>
      <trkpt lat="43.58682" lon="1.46291">
        <ele>156.83</ele>
        <time>2017-07-01T06:55:04Z</time>
      </trkpt>
      <trkpt lat="43.58723" lon="1.46184">
        <ele>156.83</ele>
        <time>2017-07-01T06:55:21Z</time>
      </trkpt>
      <trkpt lat="43.58771" lon="1.46066">
        <ele>156.83</ele>
        <time>2017-07-01T06:55:39Z</time>
      </trkpt>
      <trkpt lat="43.58772" lon="1.46059">
        <ele>156.83</ele>
        <time>2017-07-01T06:55:40Z</time>
      </trkpt>
      <trkpt lat="43.58772" lon="1.46053">
        <ele>156.83</ele>
        <time>2017-07-01T06:55:41Z</time>
      </trkpt>
      <trkpt lat="43.5877" lon="1.46027">
        <ele>156.83</ele>
        <time>2017-07-01T06:55:45Z</time>
      </trkpt>
      <trkpt lat="43.58768" lon="1.46021">
        <ele>156.83</ele>
        <time>2017-07-01T06:55:46Z</time>
      </trkpt>
      <trkpt lat="43.58767" lon="1.46014">
        <ele>156.83</ele>
        <time>2017-07-01T06:55:47Z</time>
      </trkpt>
      <trkpt lat="43.58764" lon="1.46008">
        <ele>156.83</ele>
        <time>2017-07-01T06:55:48Z</time>
      </trkpt>
      <trkpt lat="43.58761" lon="1.46002">
        <ele>156.83</ele>
        <time>2017-07-01T06:55:49Z</time>
      </trkpt>
      <trkpt lat="43.58756" lon="1.45996">
        <ele>157.79</ele>
        <time>2017-07-01T06:55:50Z</time>
      </trkpt>
      <trkpt lat="43.58752" lon="1.4599">
        <ele>157.79</ele>
        <time>2017-07-01T06:55:51Z</time>
      </trkpt>
      <trkpt lat="43.58739" lon="1.4597">
        <ele>157.79</ele>
        <time>2017-07-01T06:55:54Z</time>
      </trkpt>
      <trkpt lat="43.58735" lon="1.45961">
        <ele>157.79</ele>
        <time>2017-07-01T06:55:55Z</time>
      </trkpt>
      <trkpt lat="43.58732" lon="1.45954">
        <ele>157.79</ele>
        <time>2017-07-01T06:55:56Z</time>
      </trkpt>
      <trkpt lat="43.58711" lon="1.45911">
        <ele>155.87</ele>
        <time>2017-07-01T06:56:02Z</time>
      </trkpt>
      <trkpt lat="43.58695" lon="1.45873">
        <ele>154.91</ele>
        <time>2017-07-01T06:56:07Z</time>
      </trkpt>
      <trkpt lat="43.58654" lon="1.45773">
        <ele>153.95</ele>
        <time>2017-07-01T06:56:20Z</time>
      </trkpt>
      <trkpt lat="43.58628" lon="1.45719">
        <ele>152.99</ele>
        <time>2017-07-01T06:56:28Z</time>
      </trkpt>
      <trkpt lat="43.58595" lon="1.45629">
        <ele>152.99</ele>
        <time>2017-07-01T06:56:39Z</time>
      </trkpt>
      <trkpt lat="43.58579" lon="1.45589">
        <ele>152.03</ele>
        <time>2017-07-01T06:56:44Z</time>
      </trkpt>
      <trkpt lat="43.58574" lon="1.4558">
        <ele>152.03</ele>
        <time>2017-07-01T06:56:45Z</time>
      </trkpt>
      <trkpt lat="43.5857" lon="1.45571">
        <ele>152.03</ele>
        <time>2017-07-01T06:56:46Z</time>
      </trkpt>
      <trkpt lat="43.58566" lon="1.45563">
        <ele>152.03</ele>
        <time>2017-07-01T06:56:47Z</time>
      </trkpt>
      <trkpt lat="43.58561" lon="1.45554">
        <ele>152.03</ele>
        <time>2017-07-01T06:56:48Z</time>
      </trkpt>
      <trkpt lat="43.58556" lon="1.45545">
        <ele>152.03</ele>
        <time>2017-07-01T06:56:49Z</time>
      </trkpt>
      <trkpt lat="43.58553" lon="1.45537">
        <ele>152.03</ele>
        <time>2017-07-01T06:56:50Z</time>
      </trkpt>
      <trkpt lat="43.58538" lon="1.45503">
        <ele>152.03</ele>
        <time>2017-07-01T06:56:55Z</time>
      </trkpt>
      <trkpt lat="43.58535" lon="1.45495">
        <ele>152.03</ele>
        <time>2017-07-01T06:56:56Z</time>
      </trkpt>
      <trkpt lat="43.58526" lon="1.45475">
        <ele>152.03</ele>
        <time>2017-07-01T06:56:59Z</time>
      </trkpt>
      <trkpt lat="43.58523" lon="1.45468">
        <ele>152.03</ele>
        <time>2017-07-01T06:57:00Z</time>
      </trkpt>
      <trkpt lat="43.58513" lon="1.45437">
        <ele>152.03</ele>
        <time>2017-07-01T06:57:04Z</time>
      </trkpt>
      <trkpt lat="43.5851" lon="1.45429">
        <ele>152.03</ele>
        <time>2017-07-01T06:57:05Z</time>
      </trkpt>
      <trkpt lat="43.58506" lon="1.45422">
        <ele>152.03</ele>
        <time>2017-07-01T06:57:06Z</time>
      </trkpt>
      <trkpt lat="43.58502" lon="1.45415">
        <ele>152.03</ele>
        <time>2017-07-01T06:57:07Z</time>
      </trkpt>
      <trkpt lat="43.58499" lon="1.45409">
        <ele>152.03</ele>
        <time>2017-07-01T06:57:08Z</time>
      </trkpt>
      <trkpt lat="43.58463" lon="1.45317">
        <ele>152.03</ele>
        <time>2017-07-01T06:57:21Z</time>
      </trkpt>
      <trkpt lat="43.58446" lon="1.4528">
        <ele>152.03</ele>
        <time>2017-07-01T06:57:27Z</time>
      </trkpt>
      <trkpt lat="43.58416" lon="1.452">
        <ele>152.03</ele>
        <time>2017-07-01T06:57:39Z</time>
      </trkpt>
      <trkpt lat="43.58407" lon="1.45173">
        <ele>152.03</ele>
        <time>2017-07-01T06:57:43Z</time>
      </trkpt>
      <trkpt lat="43.58396" lon="1.45153">
        <ele>152.03</ele>
        <time>2017-07-01T06:57:46Z</time>
      </trkpt>
      <trkpt lat="43.58389" lon="1.45142">
        <ele>152.99</ele>
        <time>2017-07-01T06:57:48Z</time>
      </trkpt>
      <trkpt lat="43.58385" lon="1.45136">
        <ele>152.99</ele>
        <time>2017-07-01T06:57:49Z</time>
      </trkpt>
      <trkpt lat="43.58378" lon="1.45118">
        <ele>152.99</ele>
        <time>2017-07-01T06:57:51Z</time>
      </trkpt>
      <trkpt lat="43.58368" lon="1.45058">
        <ele>152.99</ele>
        <time>2017-07-01T06:58:00Z</time>
      </trkpt>
      <trkpt lat="43.58369" lon="1.45051">
        <ele>152.99</ele>
        <time>2017-07-01T06:58:01Z</time>
      </trkpt>
      <trkpt lat="43.58373" lon="1.45039">
        <ele>152.99</ele>
        <time>2017-07-01T06:58:03Z</time>
      </trkpt>
      <trkpt lat="43.58375" lon="1.45033">
        <ele>152.99</ele>
        <time>2017-07-01T06:58:04Z</time>
      </trkpt>
      <trkpt lat="43.58376" lon="1.45027">
        <ele>152.99</ele>
        <time>2017-07-01T06:58:05Z</time>
      </trkpt>
      <trkpt lat="43.5838" lon="1.45012">
        <ele>152.03</ele>
        <time>2017-07-01T06:58:07Z</time>
      </trkpt>
      <trkpt lat="43.58381" lon="1.45004">
        <ele>152.03</ele>
        <time>2017-07-01T06:58:08Z</time>
      </trkpt>
      <trkpt lat="43.58384" lon="1.44989">
        <ele>152.03</ele>
        <time>2017-07-01T06:58:10Z</time>
      </trkpt>
      <trkpt lat="43.58387" lon="1.44983">
        <ele>152.03</ele>
        <time>2017-07-01T06:58:11Z</time>
      </trkpt>
      <trkpt lat="43.58412" lon="1.44887">
        <ele>152.03</ele>
        <time>2017-07-01T06:58:24Z</time>
      </trkpt>
      <trkpt lat="43.58424" lon="1.44853">
        <ele>152.03</ele>
        <time>2017-07-01T06:58:29Z</time>
      </trkpt>
      <trkpt lat="43.58427" lon="1.44847">
        <ele>152.03</ele>
        <time>2017-07-01T06:58:30Z</time>
      </trkpt>
      <trkpt lat="43.58435" lon="1.44823">
        <ele>152.03</ele>
        <time>2017-07-01T06:58:34Z</time>
      </trkpt>
      <trkpt lat="43.58439" lon="1.44799">
        <ele>152.03</ele>
        <time>2017-07-01T06:58:44Z</time>
      </trkpt>
      <trkpt lat="43.58439" lon="1.448">
        <ele>152.99</ele>
        <time>2017-07-01T06:58:45Z</time>
      </trkpt>
      <trkpt lat="43.58444" lon="1.44785">
        <ele>152.99</ele>
        <time>2017-07-01T06:59:00Z</time>
      </trkpt>
      <trkpt lat="43.58444" lon="1.44781">
        <ele>152.99</ele>
        <time>2017-07-01T06:59:01Z</time>
      </trkpt>
      <trkpt lat="43.58431" lon="1.4471">
        <ele>152.03</ele>
        <time>2017-07-01T06:59:13Z</time>
      </trkpt>
      <trkpt lat="43.58429" lon="1.44698">
        <ele>152.99</ele>
        <time>2017-07-01T06:59:15Z</time>
      </trkpt>
      <trkpt lat="43.58416" lon="1.44618">
        <ele>152.99</ele>
        <time>2017-07-01T06:59:27Z</time>
      </trkpt>
      <trkpt lat="43.58409" lon="1.44567">
        <ele>152.99</ele>
        <time>2017-07-01T06:59:34Z</time>
      </trkpt>
      <trkpt lat="43.58406" lon="1.44544">
        <ele>152.99</ele>
        <time>2017-07-01T06:59:37Z</time>
      </trkpt>
      <trkpt lat="43.58404" lon="1.44529">
        <ele>152.99</ele>
        <time>2017-07-01T06:59:39Z</time>
      </trkpt>
      <trkpt lat="43.58393" lon="1.44437">
        <ele>152.03</ele>
        <time>2017-07-01T06:59:50Z</time>
      </trkpt>
      <trkpt lat="43.58393" lon="1.44322">
        <ele>152.99</ele>
        <time>2017-07-01T07:00:04Z</time>
      </trkpt>
      <trkpt lat="43.58404" lon="1.4414">
        <ele>152.03</ele>
        <time>2017-07-01T07:00:27Z</time>
      </trkpt>
      <trkpt lat="43.58405" lon="1.441">
        <ele>152.03</ele>
        <time>2017-07-01T07:00:32Z</time>
      </trkpt>
      <trkpt lat="43.58408" lon="1.4407">
        <ele>152.03</ele>
        <time>2017-07-01T07:00:36Z</time>
      </trkpt>
      <trkpt lat="43.58413" lon="1.43941">
        <ele>152.03</ele>
        <time>2017-07-01T07:00:54Z</time>
      </trkpt>
      <trkpt lat="43.5842" lon="1.4381">
        <ele>152.99</ele>
        <time>2017-07-01T07:01:12Z</time>
      </trkpt>
      <trkpt lat="43.58425" lon="1.43726">
        <ele>152.99</ele>
        <time>2017-07-01T07:01:23Z</time>
      </trkpt>
      <trkpt lat="43.58426" lon="1.43711">
        <ele>152.99</ele>
        <time>2017-07-01T07:01:25Z</time>
      </trkpt>
      <trkpt lat="43.58425" lon="1.43703">
        <ele>152.99</ele>
        <time>2017-07-01T07:01:26Z</time>
      </trkpt>
      <trkpt lat="43.58425" lon="1.43696">
        <ele>152.99</ele>
        <time>2017-07-01T07:01:27Z</time>
      </trkpt>
      <trkpt lat="43.58433" lon="1.43527">
        <ele>152.03</ele>
        <time>2017-07-01T07:01:49Z</time>
      </trkpt>
      <trkpt lat="43.5844" lon="1.43366">
        <ele>152.03</ele>
        <time>2017-07-01T07:02:10Z</time>
      </trkpt>
      <trkpt lat="43.58452" lon="1.43168">
        <ele>152.03</ele>
        <time>2017-07-01T07:02:35Z</time>
      </trkpt>
      <trkpt lat="43.5847" lon="1.43028">
        <ele>152.03</ele>
        <time>2017-07-01T07:02:52Z</time>
      </trkpt>
      <trkpt lat="43.58494" lon="1.42899">
        <ele>151.06</ele>
        <time>2017-07-01T07:03:09Z</time>
      </trkpt>
      <trkpt lat="43.58496" lon="1.42892">
        <ele>151.06</ele>
        <time>2017-07-01T07:03:10Z</time>
      </trkpt>
      <trkpt lat="43.58499" lon="1.42886">
        <ele>151.06</ele>
        <time>2017-07-01T07:03:11Z</time>
      </trkpt>
      <trkpt lat="43.58516" lon="1.42851">
        <ele>150.1</ele>
        <time>2017-07-01T07:03:21Z</time>
      </trkpt>
      <trkpt lat="43.58515" lon="1.42851">
        <ele>149.14</ele>
        <time>2017-07-01T07:03:23Z</time>
      </trkpt>
      <trkpt lat="43.58519" lon="1.42843">
        <ele>149.14</ele>
        <time>2017-07-01T07:03:32Z</time>
      </trkpt>
      <trkpt lat="43.58521" lon="1.42842">
        <ele>149.14</ele>
        <time>2017-07-01T07:03:33Z</time>
      </trkpt>
      <trkpt lat="43.58522" lon="1.42841">
        <ele>149.14</ele>
        <time>2017-07-01T07:03:34Z</time>
      </trkpt>
      <trkpt lat="43.58523" lon="1.42839">
        <ele>149.14</ele>
        <time>2017-07-01T07:03:35Z</time>
      </trkpt>
      <trkpt lat="43.58526" lon="1.42833">
        <ele>149.14</ele>
        <time>2017-07-01T07:03:40Z</time>
      </trkpt>
      <trkpt lat="43.58526" lon="1.4283">
        <ele>149.14</ele>
        <time>2017-07-01T07:03:41Z</time>
      </trkpt>
      <trkpt lat="43.58525" lon="1.42827">
        <ele>149.14</ele>
        <time>2017-07-01T07:03:42Z</time>
      </trkpt>
      <trkpt lat="43.58524" lon="1.42824">
        <ele>149.14</ele>
        <time>2017-07-01T07:03:43Z</time>
      </trkpt>
      <trkpt lat="43.58523" lon="1.42821">
        <ele>149.14</ele>
        <time>2017-07-01T07:03:44Z</time>
      </trkpt>
      <trkpt lat="43.58521" lon="1.42817">
        <ele>149.14</ele>
        <time>2017-07-01T07:03:45Z</time>
      </trkpt>
      <trkpt lat="43.58518" lon="1.42814">
        <ele>149.14</ele>
        <time>2017-07-01T07:03:46Z</time>
      </trkpt>
      <trkpt lat="43.58515" lon="1.42812">
        <ele>149.14</ele>
        <time>2017-07-01T07:03:47Z</time>
      </trkpt>
      <trkpt lat="43.58512" lon="1.4281">
        <ele>149.14</ele>
        <time>2017-07-01T07:03:48Z</time>
      </trkpt>
      <trkpt lat="43.58508" lon="1.42809">
        <ele>149.14</ele>
        <time>2017-07-01T07:03:49Z</time>
      </trkpt>
      <trkpt lat="43.58503" lon="1.42809">
        <ele>149.14</ele>
        <time>2017-07-01T07:03:50Z</time>
      </trkpt>
      <trkpt lat="43.58463" lon="1.42791">
        <ele>149.14</ele>
        <time>2017-07-01T07:03:58Z</time>
      </trkpt>
      <trkpt lat="43.58432" lon="1.42769">
        <ele>148.18</ele>
        <time>2017-07-01T07:04:06Z</time>
      </trkpt>
      <trkpt lat="43.5843" lon="1.42765">
        <ele>148.18</ele>
        <time>2017-07-01T07:04:07Z</time>
      </trkpt>
      <trkpt lat="43.58426" lon="1.42763">
        <ele>148.18</ele>
        <time>2017-07-01T07:04:08Z</time>
      </trkpt>
      <trkpt lat="43.58419" lon="1.42758">
        <ele>148.18</ele>
        <time>2017-07-01T07:04:10Z</time>
      </trkpt>
      <trkpt lat="43.58371" lon="1.42722">
        <ele>148.18</ele>
        <time>2017-07-01T07:04:22Z</time>
      </trkpt>
      <trkpt lat="43.58338" lon="1.42698">
        <ele>148.18</ele>
        <time>2017-07-01T07:04:30Z</time>
      </trkpt>
      <trkpt lat="43.58334" lon="1.42695">
        <ele>148.18</ele>
        <time>2017-07-01T07:04:31Z</time>
      </trkpt>
      <trkpt lat="43.5833" lon="1.42692">
        <ele>148.18</ele>
        <time>2017-07-01T07:04:32Z</time>
      </trkpt>
      <trkpt lat="43.58326" lon="1.42689">
        <ele>148.18</ele>
        <time>2017-07-01T07:04:33Z</time>
      </trkpt>
      <trkpt lat="43.58322" lon="1.42687">
        <ele>148.18</ele>
        <time>2017-07-01T07:04:34Z</time>
      </trkpt>
      <trkpt lat="43.58314" lon="1.42681">
        <ele>148.18</ele>
        <time>2017-07-01T07:04:36Z</time>
      </trkpt>
      <trkpt lat="43.58307" lon="1.42676">
        <ele>148.18</ele>
        <time>2017-07-01T07:04:38Z</time>
      </trkpt>
      <trkpt lat="43.58294" lon="1.42669">
        <ele>148.18</ele>
        <time>2017-07-01T07:04:41Z</time>
      </trkpt>
      <trkpt lat="43.5829" lon="1.42668">
        <ele>148.18</ele>
        <time>2017-07-01T07:04:42Z</time>
      </trkpt>
      <trkpt lat="43.58285" lon="1.42665">
        <ele>148.18</ele>
        <time>2017-07-01T07:04:43Z</time>
      </trkpt>
      <trkpt lat="43.58259" lon="1.42632">
        <ele>148.18</ele>
        <time>2017-07-01T07:04:51Z</time>
      </trkpt>
      <trkpt lat="43.58255" lon="1.42629">
        <ele>148.18</ele>
        <time>2017-07-01T07:04:52Z</time>
      </trkpt>
      <trkpt lat="43.58213" lon="1.4259">
        <ele>148.18</ele>
        <time>2017-07-01T07:05:04Z</time>
      </trkpt>
      <trkpt lat="43.58209" lon="1.42587">
        <ele>148.18</ele>
        <time>2017-07-01T07:05:05Z</time>
      </trkpt>
      <trkpt lat="43.58205" lon="1.42585">
        <ele>148.18</ele>
        <time>2017-07-01T07:05:06Z</time>
      </trkpt>
      <trkpt lat="43.58175" lon="1.42568">
        <ele>148.18</ele>
        <time>2017-07-01T07:05:14Z</time>
      </trkpt>
      <trkpt lat="43.58172" lon="1.42563">
        <ele>148.18</ele>
        <time>2017-07-01T07:05:15Z</time>
      </trkpt>
      <trkpt lat="43.58169" lon="1.42559">
        <ele>148.18</ele>
        <time>2017-07-01T07:05:16Z</time>
      </trkpt>
      <trkpt lat="43.58165" lon="1.42556">
        <ele>148.18</ele>
        <time>2017-07-01T07:05:17Z</time>
      </trkpt>
      <trkpt lat="43.58161" lon="1.42553">
        <ele>148.18</ele>
        <time>2017-07-01T07:05:18Z</time>
      </trkpt>
      <trkpt lat="43.58157" lon="1.4255">
        <ele>148.18</ele>
        <time>2017-07-01T07:05:19Z</time>
      </trkpt>
      <trkpt lat="43.58153" lon="1.42547">
        <ele>148.18</ele>
        <time>2017-07-01T07:05:20Z</time>
      </trkpt>
      <trkpt lat="43.58149" lon="1.42543">
        <ele>148.18</ele>
        <time>2017-07-01T07:05:21Z</time>
      </trkpt>
      <trkpt lat="43.58144" lon="1.42539">
        <ele>148.18</ele>
        <time>2017-07-01T07:05:22Z</time>
      </trkpt>
      <trkpt lat="43.5814" lon="1.42536">
        <ele>148.18</ele>
        <time>2017-07-01T07:05:23Z</time>
      </trkpt>
      <trkpt lat="43.58137" lon="1.42533">
        <ele>148.18</ele>
        <time>2017-07-01T07:05:24Z</time>
      </trkpt>
      <trkpt lat="43.58133" lon="1.42531">
        <ele>148.18</ele>
        <time>2017-07-01T07:05:25Z</time>
      </trkpt>
      <trkpt lat="43.58129" lon="1.42527">
        <ele>148.18</ele>
        <time>2017-07-01T07:05:26Z</time>
      </trkpt>
      <trkpt lat="43.58102" lon="1.42494">
        <ele>149.14</ele>
        <time>2017-07-01T07:05:36Z</time>
      </trkpt>
      <trkpt lat="43.58059" lon="1.42457">
        <ele>149.14</ele>
        <time>2017-07-01T07:05:47Z</time>
      </trkpt>
      <trkpt lat="43.58026" lon="1.42438">
        <ele>149.14</ele>
        <time>2017-07-01T07:05:57Z</time>
      </trkpt>
      <trkpt lat="43.58023" lon="1.42435">
        <ele>149.14</ele>
        <time>2017-07-01T07:05:58Z</time>
      </trkpt>
      <trkpt lat="43.58019" lon="1.42431">
        <ele>149.14</ele>
        <time>2017-07-01T07:05:59Z</time>
      </trkpt>
      <trkpt lat="43.58015" lon="1.4243">
        <ele>149.14</ele>
        <time>2017-07-01T07:06:00Z</time>
      </trkpt>
      <trkpt lat="43.58011" lon="1.42426">
        <ele>149.14</ele>
        <time>2017-07-01T07:06:01Z</time>
      </trkpt>
      <trkpt lat="43.57992" lon="1.42408">
        <ele>149.14</ele>
        <time>2017-07-01T07:06:06Z</time>
      </trkpt>
      <trkpt lat="43.57989" lon="1.42406">
        <ele>149.14</ele>
        <time>2017-07-01T07:06:07Z</time>
      </trkpt>
      <trkpt lat="43.57985" lon="1.42406">
        <ele>149.14</ele>
        <time>2017-07-01T07:06:08Z</time>
      </trkpt>
      <trkpt lat="43.57982" lon="1.42405">
        <ele>149.14</ele>
        <time>2017-07-01T07:06:09Z</time>
      </trkpt>
      <trkpt lat="43.57978" lon="1.42403">
        <ele>149.14</ele>
        <time>2017-07-01T07:06:10Z</time>
      </trkpt>
      <trkpt lat="43.5794" lon="1.42372">
        <ele>149.14</ele>
        <time>2017-07-01T07:06:20Z</time>
      </trkpt>
      <trkpt lat="43.57936" lon="1.42369">
        <ele>149.14</ele>
        <time>2017-07-01T07:06:21Z</time>
      </trkpt>
      <trkpt lat="43.57846" lon="1.42309">
        <ele>149.14</ele>
        <time>2017-07-01T07:06:39Z</time>
      </trkpt>
      <trkpt lat="43.57796" lon="1.42271">
        <ele>149.14</ele>
        <time>2017-07-01T07:06:49Z</time>
      </trkpt>
      <trkpt lat="43.57708" lon="1.42214">
        <ele>148.18</ele>
        <time>2017-07-01T07:07:07Z</time>
      </trkpt>
      <trkpt lat="43.57593" lon="1.42131">
        <ele>149.14</ele>
        <time>2017-07-01T07:07:31Z</time>
      </trkpt>
      <trkpt lat="43.575" lon="1.42057">
        <ele>149.14</ele>
        <time>2017-07-01T07:07:50Z</time>
      </trkpt>
      <trkpt lat="43.57395" lon="1.41966">
        <ele>149.14</ele>
        <time>2017-07-01T07:08:11Z</time>
      </trkpt>
      <trkpt lat="43.57365" lon="1.41941">
        <ele>149.14</ele>
        <time>2017-07-01T07:08:17Z</time>
      </trkpt>
      <trkpt lat="43.57361" lon="1.41937">
        <ele>149.14</ele>
        <time>2017-07-01T07:08:18Z</time>
      </trkpt>
      <trkpt lat="43.57351" lon="1.4193">
        <ele>149.14</ele>
        <time>2017-07-01T07:08:20Z</time>
      </trkpt>
      <trkpt lat="43.57263" lon="1.41859">
        <ele>150.1</ele>
        <time>2017-07-01T07:08:37Z</time>
      </trkpt>
      <trkpt lat="43.57215" lon="1.41824">
        <ele>149.14</ele>
        <time>2017-07-01T07:08:46Z</time>
      </trkpt>
      <trkpt lat="43.5721" lon="1.41821">
        <ele>149.14</ele>
        <time>2017-07-01T07:08:47Z</time>
      </trkpt>
      <trkpt lat="43.57113" lon="1.41735">
        <ele>150.1</ele>
        <time>2017-07-01T07:09:07Z</time>
      </trkpt>
      <trkpt lat="43.57104" lon="1.41725">
        <ele>150.1</ele>
        <time>2017-07-01T07:09:09Z</time>
      </trkpt>
      <trkpt lat="43.571" lon="1.4172">
        <ele>150.1</ele>
        <time>2017-07-01T07:09:10Z</time>
      </trkpt>
      <trkpt lat="43.57089" lon="1.41703">
        <ele>150.1</ele>
        <time>2017-07-01T07:09:13Z</time>
      </trkpt>
      <trkpt lat="43.57085" lon="1.41698">
        <ele>150.1</ele>
        <time>2017-07-01T07:09:14Z</time>
      </trkpt>
      <trkpt lat="43.57025" lon="1.41626">
        <ele>150.1</ele>
        <time>2017-07-01T07:09:28Z</time>
      </trkpt>
      <trkpt lat="43.56976" lon="1.41569">
        <ele>150.1</ele>
        <time>2017-07-01T07:09:41Z</time>
      </trkpt>
      <trkpt lat="43.56942" lon="1.41515">
        <ele>152.99</ele>
        <time>2017-07-01T07:09:55Z</time>
      </trkpt>
      <trkpt lat="43.5694" lon="1.41511">
        <ele>153.95</ele>
        <time>2017-07-01T07:09:56Z</time>
      </trkpt>
      <trkpt lat="43.56902" lon="1.41441">
        <ele>156.83</ele>
        <time>2017-07-01T07:10:11Z</time>
      </trkpt>
      <trkpt lat="43.56847" lon="1.41367">
        <ele>155.87</ele>
        <time>2017-07-01T07:10:23Z</time>
      </trkpt>
      <trkpt lat="43.56804" lon="1.41307">
        <ele>152.99</ele>
        <time>2017-07-01T07:10:31Z</time>
      </trkpt>
      <trkpt lat="43.56783" lon="1.41274">
        <ele>151.06</ele>
        <time>2017-07-01T07:10:36Z</time>
      </trkpt>
      <trkpt lat="43.56775" lon="1.41263">
        <ele>150.1</ele>
        <time>2017-07-01T07:10:38Z</time>
      </trkpt>
      <trkpt lat="43.56715" lon="1.41202">
        <ele>150.1</ele>
        <time>2017-07-01T07:10:51Z</time>
      </trkpt>
      <trkpt lat="43.56635" lon="1.41141">
        <ele>151.06</ele>
        <time>2017-07-01T07:11:07Z</time>
      </trkpt>
      <trkpt lat="43.56543" lon="1.41062">
        <ele>151.06</ele>
        <time>2017-07-01T07:11:27Z</time>
      </trkpt>
      <trkpt lat="43.56467" lon="1.40992">
        <ele>152.03</ele>
        <time>2017-07-01T07:11:43Z</time>
      </trkpt>
      <trkpt lat="43.56375" lon="1.40882">
        <ele>152.03</ele>
        <time>2017-07-01T07:12:04Z</time>
      </trkpt>
      <trkpt lat="43.56291" lon="1.40779">
        <ele>152.03</ele>
        <time>2017-07-01T07:12:24Z</time>
      </trkpt>
      <trkpt lat="43.56254" lon="1.40734">
        <ele>152.03</ele>
        <time>2017-07-01T07:12:36Z</time>
      </trkpt>
      <trkpt lat="43.56211" lon="1.40675">
        <ele>152.03</ele>
        <time>2017-07-01T07:12:50Z</time>
      </trkpt>
      <trkpt lat="43.56165" lon="1.40621">
        <ele>152.99</ele>
        <time>2017-07-01T07:13:01Z</time>
      </trkpt>
      <trkpt lat="43.56086" lon="1.40514">
        <ele>152.99</ele>
        <time>2017-07-01T07:13:19Z</time>
      </trkpt>
      <trkpt lat="43.56009" lon="1.40419">
        <ele>152.99</ele>
        <time>2017-07-01T07:13:36Z</time>
      </trkpt>
      <trkpt lat="43.55926" lon="1.40336">
        <ele>152.99</ele>
        <time>2017-07-01T07:13:54Z</time>
      </trkpt>
      <trkpt lat="43.55839" lon="1.40246">
        <ele>153.95</ele>
        <time>2017-07-01T07:14:15Z</time>
      </trkpt>
      <trkpt lat="43.55825" lon="1.40226">
        <ele>153.95</ele>
        <time>2017-07-01T07:14:23Z</time>
      </trkpt>
      <trkpt lat="43.558" lon="1.40196">
        <ele>153.95</ele>
        <time>2017-07-01T07:14:30Z</time>
      </trkpt>
      <trkpt lat="43.55796" lon="1.40192">
        <ele>153.95</ele>
        <time>2017-07-01T07:14:31Z</time>
      </trkpt>
      <trkpt lat="43.55714" lon="1.40119">
        <ele>153.95</ele>
        <time>2017-07-01T07:14:48Z</time>
      </trkpt>
      <trkpt lat="43.5562" lon="1.40034">
        <ele>153.95</ele>
        <time>2017-07-01T07:15:07Z</time>
      </trkpt>
      <trkpt lat="43.55584" lon="1.40005">
        <ele>153.95</ele>
        <time>2017-07-01T07:15:14Z</time>
      </trkpt>
      <trkpt lat="43.55477" lon="1.39912">
        <ele>153.95</ele>
        <time>2017-07-01T07:15:35Z</time>
      </trkpt>
      <trkpt lat="43.55386" lon="1.3982">
        <ele>153.95</ele>
        <time>2017-07-01T07:15:54Z</time>
      </trkpt>
      <trkpt lat="43.55295" lon="1.39699">
        <ele>154.91</ele>
        <time>2017-07-01T07:16:15Z</time>
      </trkpt>
      <trkpt lat="43.55221" lon="1.39585">
        <ele>154.91</ele>
        <time>2017-07-01T07:16:34Z</time>
      </trkpt>
      <trkpt lat="43.55169" lon="1.39506">
        <ele>154.91</ele>
        <time>2017-07-01T07:16:48Z</time>
      </trkpt>
      <trkpt lat="43.55141" lon="1.3947">
        <ele>155.87</ele>
        <time>2017-07-01T07:16:56Z</time>
      </trkpt>
      <trkpt lat="43.55138" lon="1.39466">
        <ele>155.87</ele>
        <time>2017-07-01T07:16:57Z</time>
      </trkpt>
      <trkpt lat="43.55109" lon="1.39428">
        <ele>157.79</ele>
        <time>2017-07-01T07:17:07Z</time>
      </trkpt>
      <trkpt lat="43.55109" lon="1.39426">
        <ele>159.24</ele>
        <time>2017-07-01T07:17:13Z</time>
      </trkpt>
      <trkpt lat="43.55103" lon="1.39418">
        <ele>160.2</ele>
        <time>2017-07-01T07:17:24Z</time>
      </trkpt>
      <trkpt lat="43.55102" lon="1.39417">
        <ele>160.2</ele>
        <time>2017-07-01T07:17:25Z</time>
      </trkpt>
      <trkpt lat="43.55099" lon="1.39415">
        <ele>160.2</ele>
        <time>2017-07-01T07:17:26Z</time>
      </trkpt>
      <trkpt lat="43.55097" lon="1.39412">
        <ele>160.2</ele>
        <time>2017-07-01T07:17:27Z</time>
      </trkpt>
      <trkpt lat="43.55094" lon="1.39409">
        <ele>160.2</ele>
        <time>2017-07-01T07:17:28Z</time>
      </trkpt>
      <trkpt lat="43.55092" lon="1.39406">
        <ele>160.2</ele>
        <time>2017-07-01T07:17:29Z</time>
      </trkpt>
      <trkpt lat="43.55037" lon="1.39341">
        <ele>161.16</ele>
        <time>2017-07-01T07:17:45Z</time>
      </trkpt>
      <trkpt lat="43.5496" lon="1.39245">
        <ele>162.12</ele>
        <time>2017-07-01T07:18:03Z</time>
      </trkpt>
      <trkpt lat="43.54895" lon="1.39163">
        <ele>162.12</ele>
        <time>2017-07-01T07:18:18Z</time>
      </trkpt>
      <trkpt lat="43.54845" lon="1.3909">
        <ele>163.08</ele>
        <time>2017-07-01T07:18:31Z</time>
      </trkpt>
      <trkpt lat="43.54844" lon="1.39083">
        <ele>163.08</ele>
        <time>2017-07-01T07:18:32Z</time>
      </trkpt>
      <trkpt lat="43.54842" lon="1.39077">
        <ele>163.08</ele>
        <time>2017-07-01T07:18:33Z</time>
      </trkpt>
      <trkpt lat="43.54839" lon="1.39071">
        <ele>163.08</ele>
        <time>2017-07-01T07:18:34Z</time>
      </trkpt>
      <trkpt lat="43.54835" lon="1.39067">
        <ele>163.08</ele>
        <time>2017-07-01T07:18:35Z</time>
      </trkpt>
      <trkpt lat="43.54831" lon="1.39065">
        <ele>163.08</ele>
        <time>2017-07-01T07:18:36Z</time>
      </trkpt>
      <trkpt lat="43.54826" lon="1.39063">
        <ele>163.08</ele>
        <time>2017-07-01T07:18:37Z</time>
      </trkpt>
      <trkpt lat="43.5482" lon="1.39061">
        <ele>163.08</ele>
        <time>2017-07-01T07:18:38Z</time>
      </trkpt>
      <trkpt lat="43.54815" lon="1.39057">
        <ele>163.08</ele>
        <time>2017-07-01T07:18:39Z</time>
      </trkpt>
      <trkpt lat="43.5481" lon="1.39053">
        <ele>163.08</ele>
        <time>2017-07-01T07:18:40Z</time>
      </trkpt>
      <trkpt lat="43.54738" lon="1.38961">
        <ele>163.08</ele>
        <time>2017-07-01T07:18:58Z</time>
      </trkpt>
      <trkpt lat="43.54694" lon="1.3889">
        <ele>164.04</ele>
        <time>2017-07-01T07:19:12Z</time>
      </trkpt>
      <trkpt lat="43.54692" lon="1.38885">
        <ele>164.04</ele>
        <time>2017-07-01T07:19:13Z</time>
      </trkpt>
      <trkpt lat="43.54689" lon="1.38879">
        <ele>164.04</ele>
        <time>2017-07-01T07:19:14Z</time>
      </trkpt>
      <trkpt lat="43.54686" lon="1.38874">
        <ele>164.04</ele>
        <time>2017-07-01T07:19:15Z</time>
      </trkpt>
      <trkpt lat="43.54683" lon="1.38869">
        <ele>164.04</ele>
        <time>2017-07-01T07:19:16Z</time>
      </trkpt>
      <trkpt lat="43.54638" lon="1.38772">
        <ele>165.96</ele>
        <time>2017-07-01T07:19:33Z</time>
      </trkpt>
      <trkpt lat="43.54587" lon="1.38702">
        <ele>165.96</ele>
        <time>2017-07-01T07:19:48Z</time>
      </trkpt>
      <trkpt lat="43.54584" lon="1.38696">
        <ele>165.96</ele>
        <time>2017-07-01T07:19:49Z</time>
      </trkpt>
      <trkpt lat="43.54581" lon="1.38691">
        <ele>165.96</ele>
        <time>2017-07-01T07:19:50Z</time>
      </trkpt>
      <trkpt lat="43.54579" lon="1.38685">
        <ele>165.96</ele>
        <time>2017-07-01T07:19:51Z</time>
      </trkpt>
      <trkpt lat="43.54577" lon="1.38679">
        <ele>165.96</ele>
        <time>2017-07-01T07:19:52Z</time>
      </trkpt>
      <trkpt lat="43.5457" lon="1.38662">
        <ele>165.96</ele>
        <time>2017-07-01T07:19:55Z</time>
      </trkpt>
      <trkpt lat="43.54567" lon="1.38657">
        <ele>165.96</ele>
        <time>2017-07-01T07:19:56Z</time>
      </trkpt>
      <trkpt lat="43.54564" lon="1.38652">
        <ele>165.96</ele>
        <time>2017-07-01T07:19:57Z</time>
      </trkpt>
      <trkpt lat="43.5456" lon="1.38649">
        <ele>166.93</ele>
        <time>2017-07-01T07:19:58Z</time>
      </trkpt>
      <trkpt lat="43.54556" lon="1.38646">
        <ele>166.93</ele>
        <time>2017-07-01T07:19:59Z</time>
      </trkpt>
      <trkpt lat="43.54552" lon="1.38642">
        <ele>166.93</ele>
        <time>2017-07-01T07:20:00Z</time>
      </trkpt>
      <trkpt lat="43.54548" lon="1.38638">
        <ele>166.93</ele>
        <time>2017-07-01T07:20:01Z</time>
      </trkpt>
      <trkpt lat="43.54545" lon="1.38632">
        <ele>166.93</ele>
        <time>2017-07-01T07:20:02Z</time>
      </trkpt>
      <trkpt lat="43.54543" lon="1.38626">
        <ele>166.93</ele>
        <time>2017-07-01T07:20:03Z</time>
      </trkpt>
      <trkpt lat="43.54541" lon="1.3862">
        <ele>166.93</ele>
        <time>2017-07-01T07:20:04Z</time>
      </trkpt>
      <trkpt lat="43.54492" lon="1.38509">
        <ele>166.93</ele>
        <time>2017-07-01T07:20:22Z</time>
      </trkpt>
      <trkpt lat="43.54482" lon="1.38485">
        <ele>166.93</ele>
        <time>2017-07-01T07:20:26Z</time>
      </trkpt>
      <trkpt lat="43.5448" lon="1.38479">
        <ele>166.93</ele>
        <time>2017-07-01T07:20:27Z</time>
      </trkpt>
      <trkpt lat="43.54431" lon="1.38385">
        <ele>166.93</ele>
        <time>2017-07-01T07:20:43Z</time>
      </trkpt>
      <trkpt lat="43.54331" lon="1.38293">
        <ele>166.93</ele>
        <time>2017-07-01T07:21:03Z</time>
      </trkpt>
      <trkpt lat="43.5424" lon="1.38191">
        <ele>165.96</ele>
        <time>2017-07-01T07:21:21Z</time>
      </trkpt>
      <trkpt lat="43.54185" lon="1.38077">
        <ele>163.08</ele>
        <time>2017-07-01T07:21:35Z</time>
      </trkpt>
      <trkpt lat="43.5413" lon="1.37943">
        <ele>160.2</ele>
        <time>2017-07-01T07:21:52Z</time>
      </trkpt>
      <trkpt lat="43.54071" lon="1.37787">
        <ele>160.2</ele>
        <time>2017-07-01T07:22:13Z</time>
      </trkpt>
      <trkpt lat="43.54044" lon="1.37716">
        <ele>160.2</ele>
        <time>2017-07-01T07:22:24Z</time>
      </trkpt>
      <trkpt lat="43.54009" lon="1.37622">
        <ele>163.08</ele>
        <time>2017-07-01T07:22:42Z</time>
      </trkpt>
      <trkpt lat="43.54003" lon="1.376">
        <ele>163.08</ele>
        <time>2017-07-01T07:22:46Z</time>
      </trkpt>
      <trkpt lat="43.53996" lon="1.37553">
        <ele>165</ele>
        <time>2017-07-01T07:22:54Z</time>
      </trkpt>
      <trkpt lat="43.53996" lon="1.37547">
        <ele>165</ele>
        <time>2017-07-01T07:22:55Z</time>
      </trkpt>
      <trkpt lat="43.53999" lon="1.3744">
        <ele>166.93</ele>
        <time>2017-07-01T07:23:13Z</time>
      </trkpt>
      <trkpt lat="43.53996" lon="1.37345">
        <ele>167.89</ele>
        <time>2017-07-01T07:23:28Z</time>
      </trkpt>
      <trkpt lat="43.53995" lon="1.37339">
        <ele>167.89</ele>
        <time>2017-07-01T07:23:29Z</time>
      </trkpt>
      <trkpt lat="43.53994" lon="1.37332">
        <ele>167.89</ele>
        <time>2017-07-01T07:23:30Z</time>
      </trkpt>
      <trkpt lat="43.53993" lon="1.37326">
        <ele>167.89</ele>
        <time>2017-07-01T07:23:31Z</time>
      </trkpt>
      <trkpt lat="43.53991" lon="1.37319">
        <ele>167.89</ele>
        <time>2017-07-01T07:23:32Z</time>
      </trkpt>
      <trkpt lat="43.53956" lon="1.37223">
        <ele>168.85</ele>
        <time>2017-07-01T07:23:47Z</time>
      </trkpt>
      <trkpt lat="43.53884" lon="1.37087">
        <ele>168.85</ele>
        <time>2017-07-01T07:24:09Z</time>
      </trkpt>
      <trkpt lat="43.53816" lon="1.36969">
        <ele>168.85</ele>
        <time>2017-07-01T07:24:29Z</time>
      </trkpt>
      <trkpt lat="43.53809" lon="1.36958">
        <ele>168.85</ele>
        <time>2017-07-01T07:24:31Z</time>
      </trkpt>
      <trkpt lat="43.53761" lon="1.36871">
        <ele>169.81</ele>
        <time>2017-07-01T07:24:46Z</time>
      </trkpt>
      <trkpt lat="43.53757" lon="1.36865">
        <ele>169.81</ele>
        <time>2017-07-01T07:24:47Z</time>
      </trkpt>
      <trkpt lat="43.53704" lon="1.36755">
        <ele>169.81</ele>
        <time>2017-07-01T07:25:04Z</time>
      </trkpt>
      <trkpt lat="43.53663" lon="1.36668">
        <ele>169.81</ele>
        <time>2017-07-01T07:25:18Z</time>
      </trkpt>
      <trkpt lat="43.53654" lon="1.36649">
        <ele>169.81</ele>
        <time>2017-07-01T07:25:21Z</time>
      </trkpt>
      <trkpt lat="43.53647" lon="1.36629">
        <ele>169.81</ele>
        <time>2017-07-01T07:25:24Z</time>
      </trkpt>
      <trkpt lat="43.53646" lon="1.36621">
        <ele>169.81</ele>
        <time>2017-07-01T07:25:25Z</time>
      </trkpt>
      <trkpt lat="43.53646" lon="1.36614">
        <ele>169.81</ele>
        <time>2017-07-01T07:25:26Z</time>
      </trkpt>
      <trkpt lat="43.5365" lon="1.36493">
        <ele>169.81</ele>
        <time>2017-07-01T07:25:44Z</time>
      </trkpt>
      <trkpt lat="43.53649" lon="1.36491">
        <ele>169.81</ele>
        <time>2017-07-01T07:25:45Z</time>
      </trkpt>
      <trkpt lat="43.53647" lon="1.36489">
        <ele>169.81</ele>
        <time>2017-07-01T07:25:46Z</time>
      </trkpt>
      <trkpt lat="43.53613" lon="1.36477">
        <ele>170.77</ele>
        <time>2017-07-01T07:25:56Z</time>
      </trkpt>
      <trkpt lat="43.53609" lon="1.36478">
        <ele>170.77</ele>
        <time>2017-07-01T07:25:57Z</time>
      </trkpt>
      <trkpt lat="43.53604" lon="1.36479">
        <ele>170.77</ele>
        <time>2017-07-01T07:25:58Z</time>
      </trkpt>
      <trkpt lat="43.53596" lon="1.36483">
        <ele>170.77</ele>
        <time>2017-07-01T07:26:00Z</time>
      </trkpt>
      <trkpt lat="43.53591" lon="1.36483">
        <ele>170.77</ele>
        <time>2017-07-01T07:26:01Z</time>
      </trkpt>
      <trkpt lat="43.53587" lon="1.36483">
        <ele>170.77</ele>
        <time>2017-07-01T07:26:02Z</time>
      </trkpt>
      <trkpt lat="43.53583" lon="1.3648">
        <ele>170.77</ele>
        <time>2017-07-01T07:26:03Z</time>
      </trkpt>
      <trkpt lat="43.5358" lon="1.36476">
        <ele>170.77</ele>
        <time>2017-07-01T07:26:04Z</time>
      </trkpt>
      <trkpt lat="43.53577" lon="1.36471">
        <ele>170.77</ele>
        <time>2017-07-01T07:26:05Z</time>
      </trkpt>
      <trkpt lat="43.53575" lon="1.36464">
        <ele>170.77</ele>
        <time>2017-07-01T07:26:06Z</time>
      </trkpt>
      <trkpt lat="43.53529" lon="1.3636">
        <ele>169.81</ele>
        <time>2017-07-01T07:26:22Z</time>
      </trkpt>
      <trkpt lat="43.53505" lon="1.3631">
        <ele>169.81</ele>
        <time>2017-07-01T07:26:30Z</time>
      </trkpt>
      <trkpt lat="43.53502" lon="1.36305">
        <ele>168.85</ele>
        <time>2017-07-01T07:26:31Z</time>
      </trkpt>
      <trkpt lat="43.53462" lon="1.36201">
        <ele>168.85</ele>
        <time>2017-07-01T07:26:47Z</time>
      </trkpt>
      <trkpt lat="43.53457" lon="1.36188">
        <ele>168.85</ele>
        <time>2017-07-01T07:26:49Z</time>
      </trkpt>
      <trkpt lat="43.53442" lon="1.3615">
        <ele>168.85</ele>
        <time>2017-07-01T07:26:55Z</time>
      </trkpt>
      <trkpt lat="43.53441" lon="1.36144">
        <ele>168.85</ele>
        <time>2017-07-01T07:26:56Z</time>
      </trkpt>
      <trkpt lat="43.53441" lon="1.36138">
        <ele>168.85</ele>
        <time>2017-07-01T07:26:57Z</time>
      </trkpt>
      <trkpt lat="43.53441" lon="1.36127">
        <ele>168.85</ele>
        <time>2017-07-01T07:26:59Z</time>
      </trkpt>
      <trkpt lat="43.53439" lon="1.36123">
        <ele>168.85</ele>
        <time>2017-07-01T07:27:00Z</time>
      </trkpt>
      <trkpt lat="43.53437" lon="1.36119">
        <ele>168.85</ele>
        <time>2017-07-01T07:27:01Z</time>
      </trkpt>
      <trkpt lat="43.53435" lon="1.36114">
        <ele>168.85</ele>
        <time>2017-07-01T07:27:02Z</time>
      </trkpt>
      <trkpt lat="43.53433" lon="1.36109">
        <ele>168.85</ele>
        <time>2017-07-01T07:27:03Z</time>
      </trkpt>
      <trkpt lat="43.53428" lon="1.36099">
        <ele>168.85</ele>
        <time>2017-07-01T07:27:05Z</time>
      </trkpt>
      <trkpt lat="43.53423" lon="1.36089">
        <ele>169.81</ele>
        <time>2017-07-01T07:27:07Z</time>
      </trkpt>
      <trkpt lat="43.53408" lon="1.36054">
        <ele>170.77</ele>
        <time>2017-07-01T07:27:13Z</time>
      </trkpt>
      <trkpt lat="43.53396" lon="1.36023">
        <ele>170.77</ele>
        <time>2017-07-01T07:27:18Z</time>
      </trkpt>
      <trkpt lat="43.53384" lon="1.35983">
        <ele>170.77</ele>
        <time>2017-07-01T07:27:24Z</time>
      </trkpt>
      <trkpt lat="43.53383" lon="1.35976">
        <ele>170.77</ele>
        <time>2017-07-01T07:27:25Z</time>
      </trkpt>
      <trkpt lat="43.53383" lon="1.35969">
        <ele>170.77</ele>
        <time>2017-07-01T07:27:26Z</time>
      </trkpt>
      <trkpt lat="43.53382" lon="1.35944">
        <ele>170.77</ele>
        <time>2017-07-01T07:27:30Z</time>
      </trkpt>
      <trkpt lat="43.5338" lon="1.35941">
        <ele>170.77</ele>
        <time>2017-07-01T07:27:31Z</time>
      </trkpt>
      <trkpt lat="43.53376" lon="1.35938">
        <ele>170.77</ele>
        <time>2017-07-01T07:27:32Z</time>
      </trkpt>
      <trkpt lat="43.53373" lon="1.35936">
        <ele>170.77</ele>
        <time>2017-07-01T07:27:33Z</time>
      </trkpt>
      <trkpt lat="43.53369" lon="1.35933">
        <ele>170.77</ele>
        <time>2017-07-01T07:27:34Z</time>
      </trkpt>
      <trkpt lat="43.53367" lon="1.35929">
        <ele>170.77</ele>
        <time>2017-07-01T07:27:35Z</time>
      </trkpt>
      <trkpt lat="43.53364" lon="1.35924">
        <ele>170.77</ele>
        <time>2017-07-01T07:27:36Z</time>
      </trkpt>
      <trkpt lat="43.53362" lon="1.35918">
        <ele>170.77</ele>
        <time>2017-07-01T07:27:37Z</time>
      </trkpt>
      <trkpt lat="43.53359" lon="1.35913">
        <ele>170.77</ele>
        <time>2017-07-01T07:27:38Z</time>
      </trkpt>
      <trkpt lat="43.53356" lon="1.35908">
        <ele>170.77</ele>
        <time>2017-07-01T07:27:39Z</time>
      </trkpt>
      <trkpt lat="43.53292" lon="1.3579">
        <ele>170.77</ele>
        <time>2017-07-01T07:27:59Z</time>
      </trkpt>
      <trkpt lat="43.53236" lon="1.35699">
        <ele>172.21</ele>
        <time>2017-07-01T07:28:15Z</time>
      </trkpt>
      <trkpt lat="43.53222" lon="1.35678">
        <ele>172.21</ele>
        <time>2017-07-01T07:28:19Z</time>
      </trkpt>
      <trkpt lat="43.53221" lon="1.35672">
        <ele>172.21</ele>
        <time>2017-07-01T07:28:20Z</time>
      </trkpt>
      <trkpt lat="43.53219" lon="1.35666">
        <ele>172.21</ele>
        <time>2017-07-01T07:28:21Z</time>
      </trkpt>
      <trkpt lat="43.53217" lon="1.35662">
        <ele>172.21</ele>
        <time>2017-07-01T07:28:22Z</time>
      </trkpt>
      <trkpt lat="43.53214" lon="1.35659">
        <ele>172.21</ele>
        <time>2017-07-01T07:28:23Z</time>
      </trkpt>
      <trkpt lat="43.5321" lon="1.35656">
        <ele>172.21</ele>
        <time>2017-07-01T07:28:24Z</time>
      </trkpt>
      <trkpt lat="43.53206" lon="1.35654">
        <ele>172.21</ele>
        <time>2017-07-01T07:28:25Z</time>
      </trkpt>
      <trkpt lat="43.53201" lon="1.35652">
        <ele>172.21</ele>
        <time>2017-07-01T07:28:26Z</time>
      </trkpt>
      <trkpt lat="43.53197" lon="1.35649">
        <ele>172.21</ele>
        <time>2017-07-01T07:28:27Z</time>
      </trkpt>
      <trkpt lat="43.53193" lon="1.35644">
        <ele>172.21</ele>
        <time>2017-07-01T07:28:28Z</time>
      </trkpt>
      <trkpt lat="43.5319" lon="1.35639">
        <ele>172.21</ele>
        <time>2017-07-01T07:28:29Z</time>
      </trkpt>
      <trkpt lat="43.53122" lon="1.35563">
        <ele>170.77</ele>
        <time>2017-07-01T07:28:44Z</time>
      </trkpt>
      <trkpt lat="43.53087" lon="1.35516">
        <ele>169.81</ele>
        <time>2017-07-01T07:28:53Z</time>
      </trkpt>
      <trkpt lat="43.53085" lon="1.35511">
        <ele>169.81</ele>
        <time>2017-07-01T07:28:54Z</time>
      </trkpt>
      <trkpt lat="43.53083" lon="1.35505">
        <ele>169.81</ele>
        <time>2017-07-01T07:28:55Z</time>
      </trkpt>
      <trkpt lat="43.53082" lon="1.35498">
        <ele>169.81</ele>
        <time>2017-07-01T07:28:56Z</time>
      </trkpt>
      <trkpt lat="43.53081" lon="1.35492">
        <ele>169.81</ele>
        <time>2017-07-01T07:28:57Z</time>
      </trkpt>
      <trkpt lat="43.53083" lon="1.35486">
        <ele>170.77</ele>
        <time>2017-07-01T07:28:58Z</time>
      </trkpt>
      <trkpt lat="43.53086" lon="1.35482">
        <ele>170.77</ele>
        <time>2017-07-01T07:28:59Z</time>
      </trkpt>
      <trkpt lat="43.5309" lon="1.35478">
        <ele>170.77</ele>
        <time>2017-07-01T07:29:00Z</time>
      </trkpt>
      <trkpt lat="43.53094" lon="1.35477">
        <ele>170.77</ele>
        <time>2017-07-01T07:29:01Z</time>
      </trkpt>
      <trkpt lat="43.53098" lon="1.35475">
        <ele>170.77</ele>
        <time>2017-07-01T07:29:02Z</time>
      </trkpt>
      <trkpt lat="43.53104" lon="1.35471">
        <ele>170.77</ele>
        <time>2017-07-01T07:29:04Z</time>
      </trkpt>
      <trkpt lat="43.53105" lon="1.35467">
        <ele>170.77</ele>
        <time>2017-07-01T07:29:05Z</time>
      </trkpt>
      <trkpt lat="43.53104" lon="1.35463">
        <ele>172.21</ele>
        <time>2017-07-01T07:29:06Z</time>
      </trkpt>
      <trkpt lat="43.53103" lon="1.35459">
        <ele>172.21</ele>
        <time>2017-07-01T07:29:07Z</time>
      </trkpt>
      <trkpt lat="43.53101" lon="1.35455">
        <ele>172.21</ele>
        <time>2017-07-01T07:29:08Z</time>
      </trkpt>
      <trkpt lat="43.531" lon="1.35451">
        <ele>172.21</ele>
        <time>2017-07-01T07:29:09Z</time>
      </trkpt>
      <trkpt lat="43.531" lon="1.35446">
        <ele>172.21</ele>
        <time>2017-07-01T07:29:10Z</time>
      </trkpt>
      <trkpt lat="43.53098" lon="1.35441">
        <ele>172.21</ele>
        <time>2017-07-01T07:29:11Z</time>
      </trkpt>
      <trkpt lat="43.53096" lon="1.35436">
        <ele>172.21</ele>
        <time>2017-07-01T07:29:12Z</time>
      </trkpt>
      <trkpt lat="43.53093" lon="1.35431">
        <ele>172.21</ele>
        <time>2017-07-01T07:29:13Z</time>
      </trkpt>
      <trkpt lat="43.5309" lon="1.35427">
        <ele>172.21</ele>
        <time>2017-07-01T07:29:14Z</time>
      </trkpt>
      <trkpt lat="43.53073" lon="1.35405">
        <ele>172.21</ele>
        <time>2017-07-01T07:29:20Z</time>
      </trkpt>
      <trkpt lat="43.53071" lon="1.35406">
        <ele>172.21</ele>
        <time>2017-07-01T07:29:21Z</time>
      </trkpt>
      <trkpt lat="43.5307" lon="1.35409">
        <ele>172.21</ele>
        <time>2017-07-01T07:29:22Z</time>
      </trkpt>
      <trkpt lat="43.53069" lon="1.35412">
        <ele>172.21</ele>
        <time>2017-07-01T07:29:23Z</time>
      </trkpt>
      <trkpt lat="43.53067" lon="1.35415">
        <ele>172.21</ele>
        <time>2017-07-01T07:29:24Z</time>
      </trkpt>
      <trkpt lat="43.53066" lon="1.35418">
        <ele>172.21</ele>
        <time>2017-07-01T07:29:25Z</time>
      </trkpt>
      <trkpt lat="43.53054" lon="1.35433">
        <ele>173.17</ele>
        <time>2017-07-01T07:29:30Z</time>
      </trkpt>
      <trkpt lat="43.53051" lon="1.35432">
        <ele>173.17</ele>
        <time>2017-07-01T07:29:31Z</time>
      </trkpt>
      <trkpt lat="43.53048" lon="1.35429">
        <ele>173.17</ele>
        <time>2017-07-01T07:29:32Z</time>
      </trkpt>
      <trkpt lat="43.53045" lon="1.35426">
        <ele>173.17</ele>
        <time>2017-07-01T07:29:33Z</time>
      </trkpt>
      <trkpt lat="43.53042" lon="1.35421">
        <ele>172.21</ele>
        <time>2017-07-01T07:29:34Z</time>
      </trkpt>
      <trkpt lat="43.53039" lon="1.35416">
        <ele>172.21</ele>
        <time>2017-07-01T07:29:35Z</time>
      </trkpt>
      <trkpt lat="43.53036" lon="1.35411">
        <ele>172.21</ele>
        <time>2017-07-01T07:29:36Z</time>
      </trkpt>
      <trkpt lat="43.53034" lon="1.35405">
        <ele>172.21</ele>
        <time>2017-07-01T07:29:37Z</time>
      </trkpt>
      <trkpt lat="43.52998" lon="1.35305">
        <ele>172.21</ele>
        <time>2017-07-01T07:29:52Z</time>
      </trkpt>
      <trkpt lat="43.52951" lon="1.35197">
        <ele>172.21</ele>
        <time>2017-07-01T07:30:08Z</time>
      </trkpt>
      <trkpt lat="43.52913" lon="1.35109">
        <ele>172.21</ele>
        <time>2017-07-01T07:30:21Z</time>
      </trkpt>
      <trkpt lat="43.52912" lon="1.35103">
        <ele>172.21</ele>
        <time>2017-07-01T07:30:22Z</time>
      </trkpt>
      <trkpt lat="43.52913" lon="1.35096">
        <ele>172.21</ele>
        <time>2017-07-01T07:30:23Z</time>
      </trkpt>
      <trkpt lat="43.52915" lon="1.35091">
        <ele>172.21</ele>
        <time>2017-07-01T07:30:24Z</time>
      </trkpt>
      <trkpt lat="43.52917" lon="1.35086">
        <ele>172.21</ele>
        <time>2017-07-01T07:30:25Z</time>
      </trkpt>
      <trkpt lat="43.5292" lon="1.35082">
        <ele>172.21</ele>
        <time>2017-07-01T07:30:26Z</time>
      </trkpt>
      <trkpt lat="43.52922" lon="1.35078">
        <ele>172.21</ele>
        <time>2017-07-01T07:30:27Z</time>
      </trkpt>
      <trkpt lat="43.52923" lon="1.35073">
        <ele>172.21</ele>
        <time>2017-07-01T07:30:28Z</time>
      </trkpt>
      <trkpt lat="43.52923" lon="1.35068">
        <ele>172.21</ele>
        <time>2017-07-01T07:30:29Z</time>
      </trkpt>
      <trkpt lat="43.52923" lon="1.35063">
        <ele>172.21</ele>
        <time>2017-07-01T07:30:30Z</time>
      </trkpt>
      <trkpt lat="43.5292" lon="1.35059">
        <ele>172.21</ele>
        <time>2017-07-01T07:30:31Z</time>
      </trkpt>
      <trkpt lat="43.52918" lon="1.35055">
        <ele>172.21</ele>
        <time>2017-07-01T07:30:32Z</time>
      </trkpt>
      <trkpt lat="43.52914" lon="1.35051">
        <ele>172.21</ele>
        <time>2017-07-01T07:30:33Z</time>
      </trkpt>
      <trkpt lat="43.52911" lon="1.35048">
        <ele>173.17</ele>
        <time>2017-07-01T07:30:34Z</time>
      </trkpt>
      <trkpt lat="43.52906" lon="1.35045">
        <ele>173.17</ele>
        <time>2017-07-01T07:30:35Z</time>
      </trkpt>
      <trkpt lat="43.52902" lon="1.35044">
        <ele>173.17</ele>
        <time>2017-07-01T07:30:36Z</time>
      </trkpt>
      <trkpt lat="43.52897" lon="1.35043">
        <ele>173.17</ele>
        <time>2017-07-01T07:30:37Z</time>
      </trkpt>
      <trkpt lat="43.52892" lon="1.35042">
        <ele>173.17</ele>
        <time>2017-07-01T07:30:38Z</time>
      </trkpt>
      <trkpt lat="43.52887" lon="1.35041">
        <ele>173.17</ele>
        <time>2017-07-01T07:30:39Z</time>
      </trkpt>
      <trkpt lat="43.52882" lon="1.35038">
        <ele>173.17</ele>
        <time>2017-07-01T07:30:40Z</time>
      </trkpt>
      <trkpt lat="43.52878" lon="1.35033">
        <ele>173.17</ele>
        <time>2017-07-01T07:30:41Z</time>
      </trkpt>
      <trkpt lat="43.52875" lon="1.35027">
        <ele>173.17</ele>
        <time>2017-07-01T07:30:42Z</time>
      </trkpt>
      <trkpt lat="43.52873" lon="1.35021">
        <ele>173.17</ele>
        <time>2017-07-01T07:30:43Z</time>
      </trkpt>
      <trkpt lat="43.52871" lon="1.35014">
        <ele>173.17</ele>
        <time>2017-07-01T07:30:44Z</time>
      </trkpt>
      <trkpt lat="43.52834" lon="1.34909">
        <ele>172.21</ele>
        <time>2017-07-01T07:30:59Z</time>
      </trkpt>
      <trkpt lat="43.52774" lon="1.34796">
        <ele>173.17</ele>
        <time>2017-07-01T07:31:17Z</time>
      </trkpt>
      <trkpt lat="43.52679" lon="1.34645">
        <ele>174.14</ele>
        <time>2017-07-01T07:31:43Z</time>
      </trkpt>
      <trkpt lat="43.52596" lon="1.34531">
        <ele>174.14</ele>
        <time>2017-07-01T07:32:03Z</time>
      </trkpt>
      <trkpt lat="43.52501" lon="1.34439">
        <ele>174.14</ele>
        <time>2017-07-01T07:32:23Z</time>
      </trkpt>
      <trkpt lat="43.52459" lon="1.34394">
        <ele>175.1</ele>
        <time>2017-07-01T07:32:32Z</time>
      </trkpt>
      <trkpt lat="43.52373" lon="1.34278">
        <ele>174.14</ele>
        <time>2017-07-01T07:32:52Z</time>
      </trkpt>
      <trkpt lat="43.52365" lon="1.34267">
        <ele>174.14</ele>
        <time>2017-07-01T07:32:54Z</time>
      </trkpt>
      <trkpt lat="43.5236" lon="1.34263">
        <ele>174.14</ele>
        <time>2017-07-01T07:32:55Z</time>
      </trkpt>
      <trkpt lat="43.52326" lon="1.34235">
        <ele>174.14</ele>
        <time>2017-07-01T07:33:02Z</time>
      </trkpt>
      <trkpt lat="43.52282" lon="1.34195">
        <ele>173.17</ele>
        <time>2017-07-01T07:33:11Z</time>
      </trkpt>
      <trkpt lat="43.52277" lon="1.34189">
        <ele>173.17</ele>
        <time>2017-07-01T07:33:12Z</time>
      </trkpt>
      <trkpt lat="43.52273" lon="1.34182">
        <ele>173.17</ele>
        <time>2017-07-01T07:33:13Z</time>
      </trkpt>
      <trkpt lat="43.52253" lon="1.34147">
        <ele>172.21</ele>
        <time>2017-07-01T07:33:19Z</time>
      </trkpt>
      <trkpt lat="43.52251" lon="1.34141">
        <ele>172.21</ele>
        <time>2017-07-01T07:33:20Z</time>
      </trkpt>
      <trkpt lat="43.5225" lon="1.34136">
        <ele>172.21</ele>
        <time>2017-07-01T07:33:21Z</time>
      </trkpt>
      <trkpt lat="43.52249" lon="1.34131">
        <ele>172.21</ele>
        <time>2017-07-01T07:33:22Z</time>
      </trkpt>
      <trkpt lat="43.52247" lon="1.34126">
        <ele>172.21</ele>
        <time>2017-07-01T07:33:23Z</time>
      </trkpt>
      <trkpt lat="43.52245" lon="1.34121">
        <ele>172.21</ele>
        <time>2017-07-01T07:33:24Z</time>
      </trkpt>
      <trkpt lat="43.52233" lon="1.34098">
        <ele>172.21</ele>
        <time>2017-07-01T07:33:28Z</time>
      </trkpt>
      <trkpt lat="43.52201" lon="1.3402">
        <ele>174.14</ele>
        <time>2017-07-01T07:33:40Z</time>
      </trkpt>
      <trkpt lat="43.52177" lon="1.33975">
        <ele>174.14</ele>
        <time>2017-07-01T07:33:47Z</time>
      </trkpt>
      <trkpt lat="43.52172" lon="1.33969">
        <ele>174.14</ele>
        <time>2017-07-01T07:33:48Z</time>
      </trkpt>
      <trkpt lat="43.5212" lon="1.33899">
        <ele>174.14</ele>
        <time>2017-07-01T07:34:00Z</time>
      </trkpt>
      <trkpt lat="43.52117" lon="1.33892">
        <ele>174.14</ele>
        <time>2017-07-01T07:34:01Z</time>
      </trkpt>
      <trkpt lat="43.52115" lon="1.33885">
        <ele>174.14</ele>
        <time>2017-07-01T07:34:02Z</time>
      </trkpt>
      <trkpt lat="43.52113" lon="1.33878">
        <ele>174.14</ele>
        <time>2017-07-01T07:34:03Z</time>
      </trkpt>
      <trkpt lat="43.52111" lon="1.3387">
        <ele>174.14</ele>
        <time>2017-07-01T07:34:04Z</time>
      </trkpt>
      <trkpt lat="43.52107" lon="1.33864">
        <ele>174.14</ele>
        <time>2017-07-01T07:34:05Z</time>
      </trkpt>
      <trkpt lat="43.52103" lon="1.33858">
        <ele>174.14</ele>
        <time>2017-07-01T07:34:06Z</time>
      </trkpt>
      <trkpt lat="43.52099" lon="1.33853">
        <ele>174.14</ele>
        <time>2017-07-01T07:34:07Z</time>
      </trkpt>
      <trkpt lat="43.52094" lon="1.33847">
        <ele>174.14</ele>
        <time>2017-07-01T07:34:08Z</time>
      </trkpt>
      <trkpt lat="43.52091" lon="1.3384">
        <ele>174.14</ele>
        <time>2017-07-01T07:34:09Z</time>
      </trkpt>
      <trkpt lat="43.52031" lon="1.33749">
        <ele>174.14</ele>
        <time>2017-07-01T07:34:24Z</time>
      </trkpt>
      <trkpt lat="43.51961" lon="1.3366">
        <ele>174.14</ele>
        <time>2017-07-01T07:34:40Z</time>
      </trkpt>
      <trkpt lat="43.5187" lon="1.33554">
        <ele>174.14</ele>
        <time>2017-07-01T07:35:00Z</time>
      </trkpt>
      <trkpt lat="43.51802" lon="1.33471">
        <ele>174.14</ele>
        <time>2017-07-01T07:35:15Z</time>
      </trkpt>
      <trkpt lat="43.51799" lon="1.33465">
        <ele>174.14</ele>
        <time>2017-07-01T07:35:16Z</time>
      </trkpt>
      <trkpt lat="43.51797" lon="1.33458">
        <ele>174.14</ele>
        <time>2017-07-01T07:35:17Z</time>
      </trkpt>
      <trkpt lat="43.51796" lon="1.33451">
        <ele>174.14</ele>
        <time>2017-07-01T07:35:18Z</time>
      </trkpt>
      <trkpt lat="43.51796" lon="1.33444">
        <ele>174.14</ele>
        <time>2017-07-01T07:35:19Z</time>
      </trkpt>
      <trkpt lat="43.51796" lon="1.33438">
        <ele>174.14</ele>
        <time>2017-07-01T07:35:20Z</time>
      </trkpt>
      <trkpt lat="43.51794" lon="1.33432">
        <ele>174.14</ele>
        <time>2017-07-01T07:35:21Z</time>
      </trkpt>
      <trkpt lat="43.51791" lon="1.33427">
        <ele>174.14</ele>
        <time>2017-07-01T07:35:22Z</time>
      </trkpt>
      <trkpt lat="43.51787" lon="1.33424">
        <ele>174.14</ele>
        <time>2017-07-01T07:35:23Z</time>
      </trkpt>
      <trkpt lat="43.51782" lon="1.33423">
        <ele>174.14</ele>
        <time>2017-07-01T07:35:24Z</time>
      </trkpt>
      <trkpt lat="43.51777" lon="1.33425">
        <ele>174.14</ele>
        <time>2017-07-01T07:35:25Z</time>
      </trkpt>
      <trkpt lat="43.51772" lon="1.33428">
        <ele>174.14</ele>
        <time>2017-07-01T07:35:26Z</time>
      </trkpt>
      <trkpt lat="43.51767" lon="1.33431">
        <ele>174.14</ele>
        <time>2017-07-01T07:35:27Z</time>
      </trkpt>
      <trkpt lat="43.51761" lon="1.33432">
        <ele>174.14</ele>
        <time>2017-07-01T07:35:28Z</time>
      </trkpt>
      <trkpt lat="43.51755" lon="1.33431">
        <ele>174.14</ele>
        <time>2017-07-01T07:35:29Z</time>
      </trkpt>
      <trkpt lat="43.5175" lon="1.33428">
        <ele>174.14</ele>
        <time>2017-07-01T07:35:30Z</time>
      </trkpt>
      <trkpt lat="43.51745" lon="1.33424">
        <ele>174.14</ele>
        <time>2017-07-01T07:35:31Z</time>
      </trkpt>
      <trkpt lat="43.5174" lon="1.33419">
        <ele>174.14</ele>
        <time>2017-07-01T07:35:32Z</time>
      </trkpt>
      <trkpt lat="43.51663" lon="1.33346">
        <ele>174.14</ele>
        <time>2017-07-01T07:35:48Z</time>
      </trkpt>
      <trkpt lat="43.51566" lon="1.33249">
        <ele>175.1</ele>
        <time>2017-07-01T07:36:08Z</time>
      </trkpt>
      <trkpt lat="43.51494" lon="1.33151">
        <ele>175.1</ele>
        <time>2017-07-01T07:36:26Z</time>
      </trkpt>
      <trkpt lat="43.51422" lon="1.3304">
        <ele>175.1</ele>
        <time>2017-07-01T07:36:44Z</time>
      </trkpt>
      <trkpt lat="43.5142" lon="1.33032">
        <ele>175.1</ele>
        <time>2017-07-01T07:36:45Z</time>
      </trkpt>
      <trkpt lat="43.51419" lon="1.33025">
        <ele>175.1</ele>
        <time>2017-07-01T07:36:46Z</time>
      </trkpt>
      <trkpt lat="43.5142" lon="1.33017">
        <ele>174.14</ele>
        <time>2017-07-01T07:36:47Z</time>
      </trkpt>
      <trkpt lat="43.51423" lon="1.3301">
        <ele>174.14</ele>
        <time>2017-07-01T07:36:48Z</time>
      </trkpt>
      <trkpt lat="43.51425" lon="1.33004">
        <ele>174.14</ele>
        <time>2017-07-01T07:36:49Z</time>
      </trkpt>
      <trkpt lat="43.5146" lon="1.32926">
        <ele>174.14</ele>
        <time>2017-07-01T07:37:02Z</time>
      </trkpt>
      <trkpt lat="43.51508" lon="1.32824">
        <ele>176.06</ele>
        <time>2017-07-01T07:37:18Z</time>
      </trkpt>
      <trkpt lat="43.51554" lon="1.32726">
        <ele>177.02</ele>
        <time>2017-07-01T07:37:33Z</time>
      </trkpt>
      <trkpt lat="43.51596" lon="1.32647">
        <ele>177.02</ele>
        <time>2017-07-01T07:37:46Z</time>
      </trkpt>
      <trkpt lat="43.51632" lon="1.32591">
        <ele>177.02</ele>
        <time>2017-07-01T07:37:55Z</time>
      </trkpt>
      <trkpt lat="43.51643" lon="1.32582">
        <ele>177.98</ele>
        <time>2017-07-01T07:38:01Z</time>
      </trkpt>
      <trkpt lat="43.51657" lon="1.3256">
        <ele>177.02</ele>
        <time>2017-07-01T07:38:08Z</time>
      </trkpt>
      <trkpt lat="43.51663" lon="1.32549">
        <ele>177.02</ele>
        <time>2017-07-01T07:38:10Z</time>
      </trkpt>
      <trkpt lat="43.51666" lon="1.32544">
        <ele>177.02</ele>
        <time>2017-07-01T07:38:11Z</time>
      </trkpt>
      <trkpt lat="43.51669" lon="1.32539">
        <ele>177.02</ele>
        <time>2017-07-01T07:38:12Z</time>
      </trkpt>
      <trkpt lat="43.51673" lon="1.32533">
        <ele>177.02</ele>
        <time>2017-07-01T07:38:13Z</time>
      </trkpt>
      <trkpt lat="43.51677" lon="1.32527">
        <ele>177.02</ele>
        <time>2017-07-01T07:38:14Z</time>
      </trkpt>
      <trkpt lat="43.51681" lon="1.32522">
        <ele>177.02</ele>
        <time>2017-07-01T07:38:15Z</time>
      </trkpt>
      <trkpt lat="43.51732" lon="1.32444">
        <ele>176.06</ele>
        <time>2017-07-01T07:38:28Z</time>
      </trkpt>
      <trkpt lat="43.51748" lon="1.32419">
        <ele>176.06</ele>
        <time>2017-07-01T07:38:32Z</time>
      </trkpt>
      <trkpt lat="43.5177" lon="1.3239">
        <ele>176.06</ele>
        <time>2017-07-01T07:38:37Z</time>
      </trkpt>
      <trkpt lat="43.51774" lon="1.32384">
        <ele>176.06</ele>
        <time>2017-07-01T07:38:38Z</time>
      </trkpt>
      <trkpt lat="43.51795" lon="1.32343">
        <ele>176.06</ele>
        <time>2017-07-01T07:38:44Z</time>
      </trkpt>
      <trkpt lat="43.51797" lon="1.32336">
        <ele>176.06</ele>
        <time>2017-07-01T07:38:45Z</time>
      </trkpt>
      <trkpt lat="43.51837" lon="1.32197">
        <ele>176.06</ele>
        <time>2017-07-01T07:39:04Z</time>
      </trkpt>
      <trkpt lat="43.51872" lon="1.32067">
        <ele>176.06</ele>
        <time>2017-07-01T07:39:21Z</time>
      </trkpt>
      <trkpt lat="43.51886" lon="1.32016">
        <ele>175.1</ele>
        <time>2017-07-01T07:39:28Z</time>
      </trkpt>
      <trkpt lat="43.51889" lon="1.32009">
        <ele>175.1</ele>
        <time>2017-07-01T07:39:29Z</time>
      </trkpt>
      <trkpt lat="43.51896" lon="1.31997">
        <ele>175.1</ele>
        <time>2017-07-01T07:39:31Z</time>
      </trkpt>
      <trkpt lat="43.51898" lon="1.3199">
        <ele>175.1</ele>
        <time>2017-07-01T07:39:32Z</time>
      </trkpt>
      <trkpt lat="43.519" lon="1.31982">
        <ele>175.1</ele>
        <time>2017-07-01T07:39:33Z</time>
      </trkpt>
      <trkpt lat="43.51904" lon="1.31967">
        <ele>175.1</ele>
        <time>2017-07-01T07:39:35Z</time>
      </trkpt>
      <trkpt lat="43.51907" lon="1.3196">
        <ele>175.1</ele>
        <time>2017-07-01T07:39:36Z</time>
      </trkpt>
      <trkpt lat="43.51911" lon="1.31953">
        <ele>175.1</ele>
        <time>2017-07-01T07:39:37Z</time>
      </trkpt>
      <trkpt lat="43.51972" lon="1.3184">
        <ele>175.1</ele>
        <time>2017-07-01T07:39:54Z</time>
      </trkpt>
      <trkpt lat="43.52052" lon="1.3167">
        <ele>175.1</ele>
        <time>2017-07-01T07:40:19Z</time>
      </trkpt>
      <trkpt lat="43.52119" lon="1.31558">
        <ele>175.1</ele>
        <time>2017-07-01T07:40:37Z</time>
      </trkpt>
      <trkpt lat="43.52154" lon="1.31517">
        <ele>176.06</ele>
        <time>2017-07-01T07:40:45Z</time>
      </trkpt>
      <trkpt lat="43.52225" lon="1.3145">
        <ele>176.06</ele>
        <time>2017-07-01T07:41:00Z</time>
      </trkpt>
      <trkpt lat="43.5235" lon="1.31318">
        <ele>175.1</ele>
        <time>2017-07-01T07:41:26Z</time>
      </trkpt>
      <trkpt lat="43.52355" lon="1.31313">
        <ele>175.1</ele>
        <time>2017-07-01T07:41:27Z</time>
      </trkpt>
      <trkpt lat="43.52444" lon="1.31239">
        <ele>175.1</ele>
        <time>2017-07-01T07:41:44Z</time>
      </trkpt>
      <trkpt lat="43.52527" lon="1.31196">
        <ele>175.1</ele>
        <time>2017-07-01T07:41:58Z</time>
      </trkpt>
      <trkpt lat="43.52564" lon="1.31172">
        <ele>175.1</ele>
        <time>2017-07-01T07:42:05Z</time>
      </trkpt>
      <trkpt lat="43.52582" lon="1.31167">
        <ele>175.1</ele>
        <time>2017-07-01T07:42:08Z</time>
      </trkpt>
      <trkpt lat="43.52588" lon="1.31163">
        <ele>175.1</ele>
        <time>2017-07-01T07:42:09Z</time>
      </trkpt>
      <trkpt lat="43.52593" lon="1.31159">
        <ele>175.1</ele>
        <time>2017-07-01T07:42:10Z</time>
      </trkpt>
      <trkpt lat="43.52603" lon="1.3115">
        <ele>174.14</ele>
        <time>2017-07-01T07:42:12Z</time>
      </trkpt>
      <trkpt lat="43.52609" lon="1.31146">
        <ele>174.14</ele>
        <time>2017-07-01T07:42:13Z</time>
      </trkpt>
      <trkpt lat="43.52653" lon="1.31126">
        <ele>175.1</ele>
        <time>2017-07-01T07:42:20Z</time>
      </trkpt>
      <trkpt lat="43.52658" lon="1.31123">
        <ele>175.1</ele>
        <time>2017-07-01T07:42:21Z</time>
      </trkpt>
      <trkpt lat="43.52761" lon="1.31043">
        <ele>174.14</ele>
        <time>2017-07-01T07:42:40Z</time>
      </trkpt>
      <trkpt lat="43.529" lon="1.30936">
        <ele>174.14</ele>
        <time>2017-07-01T07:43:05Z</time>
      </trkpt>
      <trkpt lat="43.53051" lon="1.30821">
        <ele>174.14</ele>
        <time>2017-07-01T07:43:32Z</time>
      </trkpt>
      <trkpt lat="43.53188" lon="1.30739">
        <ele>174.14</ele>
        <time>2017-07-01T07:43:55Z</time>
      </trkpt>
      <trkpt lat="43.53222" lon="1.30716">
        <ele>174.14</ele>
        <time>2017-07-01T07:44:01Z</time>
      </trkpt>
      <trkpt lat="43.53227" lon="1.30711">
        <ele>174.14</ele>
        <time>2017-07-01T07:44:02Z</time>
      </trkpt>
      <trkpt lat="43.53326" lon="1.30659">
        <ele>173.17</ele>
        <time>2017-07-01T07:44:19Z</time>
      </trkpt>
      <trkpt lat="43.53462" lon="1.30578">
        <ele>173.17</ele>
        <time>2017-07-01T07:44:43Z</time>
      </trkpt>
      <trkpt lat="43.53608" lon="1.30471">
        <ele>173.17</ele>
        <time>2017-07-01T07:45:11Z</time>
      </trkpt>
      <trkpt lat="43.53678" lon="1.30364">
        <ele>174.14</ele>
        <time>2017-07-01T07:45:28Z</time>
      </trkpt>
      <trkpt lat="43.53771" lon="1.30227">
        <ele>173.17</ele>
        <time>2017-07-01T07:45:50Z</time>
      </trkpt>
      <trkpt lat="43.53897" lon="1.30137">
        <ele>173.17</ele>
        <time>2017-07-01T07:46:13Z</time>
      </trkpt>
      <trkpt lat="43.5399" lon="1.30048">
        <ele>174.14</ele>
        <time>2017-07-01T07:46:31Z</time>
      </trkpt>
      <trkpt lat="43.5401" lon="1.30025">
        <ele>174.14</ele>
        <time>2017-07-01T07:46:35Z</time>
      </trkpt>
      <trkpt lat="43.54016" lon="1.30021">
        <ele>174.14</ele>
        <time>2017-07-01T07:46:36Z</time>
      </trkpt>
      <trkpt lat="43.54023" lon="1.30018">
        <ele>174.14</ele>
        <time>2017-07-01T07:46:37Z</time>
      </trkpt>
      <trkpt lat="43.54029" lon="1.30016">
        <ele>174.14</ele>
        <time>2017-07-01T07:46:38Z</time>
      </trkpt>
      <trkpt lat="43.54036" lon="1.30015">
        <ele>174.14</ele>
        <time>2017-07-01T07:46:39Z</time>
      </trkpt>
      <trkpt lat="43.54042" lon="1.30014">
        <ele>174.14</ele>
        <time>2017-07-01T07:46:40Z</time>
      </trkpt>
      <trkpt lat="43.5417" lon="1.29998">
        <ele>173.17</ele>
        <time>2017-07-01T07:47:00Z</time>
      </trkpt>
      <trkpt lat="43.54315" lon="1.29977">
        <ele>173.17</ele>
        <time>2017-07-01T07:47:22Z</time>
      </trkpt>
      <trkpt lat="43.54456" lon="1.29943">
        <ele>172.21</ele>
        <time>2017-07-01T07:47:44Z</time>
      </trkpt>
      <trkpt lat="43.54548" lon="1.29943">
        <ele>172.21</ele>
        <time>2017-07-01T07:47:58Z</time>
      </trkpt>
      <trkpt lat="43.54681" lon="1.29956">
        <ele>172.21</ele>
        <time>2017-07-01T07:48:19Z</time>
      </trkpt>
      <trkpt lat="43.54785" lon="1.29967">
        <ele>172.21</ele>
        <time>2017-07-01T07:48:35Z</time>
      </trkpt>
      <trkpt lat="43.54924" lon="1.30014">
        <ele>172.21</ele>
        <time>2017-07-01T07:48:57Z</time>
      </trkpt>
      <trkpt lat="43.55064" lon="1.30014">
        <ele>170.77</ele>
        <time>2017-07-01T07:49:18Z</time>
      </trkpt>
      <trkpt lat="43.55174" lon="1.29993">
        <ele>170.77</ele>
        <time>2017-07-01T07:49:35Z</time>
      </trkpt>
      <trkpt lat="43.55179" lon="1.2999">
        <ele>170.77</ele>
        <time>2017-07-01T07:49:36Z</time>
      </trkpt>
      <trkpt lat="43.55184" lon="1.29987">
        <ele>170.77</ele>
        <time>2017-07-01T07:49:37Z</time>
      </trkpt>
      <trkpt lat="43.55213" lon="1.29963">
        <ele>170.77</ele>
        <time>2017-07-01T07:49:43Z</time>
      </trkpt>
      <trkpt lat="43.55217" lon="1.29959">
        <ele>170.77</ele>
        <time>2017-07-01T07:49:44Z</time>
      </trkpt>
      <trkpt lat="43.55246" lon="1.29931">
        <ele>172.21</ele>
        <time>2017-07-01T07:49:54Z</time>
      </trkpt>
      <trkpt lat="43.55246" lon="1.29932">
        <ele>172.21</ele>
        <time>2017-07-01T07:49:57Z</time>
      </trkpt>
      <trkpt lat="43.55246" lon="1.29924">
        <ele>172.21</ele>
        <time>2017-07-01T07:50:03Z</time>
      </trkpt>
      <trkpt lat="43.55246" lon="1.29921">
        <ele>172.21</ele>
        <time>2017-07-01T07:50:04Z</time>
      </trkpt>
      <trkpt lat="43.55248" lon="1.29918">
        <ele>172.21</ele>
        <time>2017-07-01T07:50:05Z</time>
      </trkpt>
      <trkpt lat="43.5525" lon="1.29916">
        <ele>172.21</ele>
        <time>2017-07-01T07:50:06Z</time>
      </trkpt>
      <trkpt lat="43.55288" lon="1.29878">
        <ele>172.21</ele>
        <time>2017-07-01T07:50:17Z</time>
      </trkpt>
      <trkpt lat="43.55292" lon="1.29873">
        <ele>172.21</ele>
        <time>2017-07-01T07:50:18Z</time>
      </trkpt>
      <trkpt lat="43.55294" lon="1.29867">
        <ele>172.21</ele>
        <time>2017-07-01T07:50:19Z</time>
      </trkpt>
      <trkpt lat="43.55296" lon="1.29861">
        <ele>170.77</ele>
        <time>2017-07-01T07:50:20Z</time>
      </trkpt>
      <trkpt lat="43.55303" lon="1.29841">
        <ele>170.77</ele>
        <time>2017-07-01T07:50:24Z</time>
      </trkpt>
      <trkpt lat="43.55307" lon="1.2984">
        <ele>170.77</ele>
        <time>2017-07-01T07:50:25Z</time>
      </trkpt>
      <trkpt lat="43.5531" lon="1.29841">
        <ele>170.77</ele>
        <time>2017-07-01T07:50:26Z</time>
      </trkpt>
      <trkpt lat="43.55313" lon="1.29844">
        <ele>170.77</ele>
        <time>2017-07-01T07:50:27Z</time>
      </trkpt>
      <trkpt lat="43.55316" lon="1.29848">
        <ele>170.77</ele>
        <time>2017-07-01T07:50:28Z</time>
      </trkpt>
      <trkpt lat="43.55328" lon="1.2986">
        <ele>172.21</ele>
        <time>2017-07-01T07:50:31Z</time>
      </trkpt>
      <trkpt lat="43.55333" lon="1.29864">
        <ele>172.21</ele>
        <time>2017-07-01T07:50:32Z</time>
      </trkpt>
      <trkpt lat="43.55338" lon="1.29867">
        <ele>172.21</ele>
        <time>2017-07-01T07:50:33Z</time>
      </trkpt>
      <trkpt lat="43.55343" lon="1.29869">
        <ele>172.21</ele>
        <time>2017-07-01T07:50:34Z</time>
      </trkpt>
      <trkpt lat="43.55349" lon="1.29871">
        <ele>172.21</ele>
        <time>2017-07-01T07:50:35Z</time>
      </trkpt>
      <trkpt lat="43.55355" lon="1.29872">
        <ele>172.21</ele>
        <time>2017-07-01T07:50:36Z</time>
      </trkpt>
      <trkpt lat="43.55361" lon="1.29872">
        <ele>172.21</ele>
        <time>2017-07-01T07:50:37Z</time>
      </trkpt>
      <trkpt lat="43.5543" lon="1.29871">
        <ele>170.77</ele>
        <time>2017-07-01T07:50:49Z</time>
      </trkpt>
      <trkpt lat="43.55431" lon="1.29874">
        <ele>170.77</ele>
        <time>2017-07-01T07:50:50Z</time>
      </trkpt>
      <trkpt lat="43.55433" lon="1.29877">
        <ele>170.77</ele>
        <time>2017-07-01T07:50:51Z</time>
      </trkpt>
      <trkpt lat="43.55435" lon="1.29878">
        <ele>170.77</ele>
        <time>2017-07-01T07:50:52Z</time>
      </trkpt>
      <trkpt lat="43.55438" lon="1.29879">
        <ele>170.77</ele>
        <time>2017-07-01T07:50:53Z</time>
      </trkpt>
      <trkpt lat="43.55442" lon="1.29879">
        <ele>170.77</ele>
        <time>2017-07-01T07:50:54Z</time>
      </trkpt>
      <trkpt lat="43.55446" lon="1.29878">
        <ele>170.77</ele>
        <time>2017-07-01T07:50:55Z</time>
      </trkpt>
      <trkpt lat="43.55451" lon="1.29877">
        <ele>170.77</ele>
        <time>2017-07-01T07:50:56Z</time>
      </trkpt>
      <trkpt lat="43.55456" lon="1.29877">
        <ele>170.77</ele>
        <time>2017-07-01T07:50:57Z</time>
      </trkpt>
      <trkpt lat="43.55525" lon="1.2987">
        <ele>169.81</ele>
        <time>2017-07-01T07:51:10Z</time>
      </trkpt>
      <trkpt lat="43.55614" lon="1.2986">
        <ele>169.81</ele>
        <time>2017-07-01T07:51:25Z</time>
      </trkpt>
      <trkpt lat="43.55716" lon="1.29851">
        <ele>169.81</ele>
        <time>2017-07-01T07:51:41Z</time>
      </trkpt>
      <trkpt lat="43.55722" lon="1.29852">
        <ele>169.81</ele>
        <time>2017-07-01T07:51:42Z</time>
      </trkpt>
      <trkpt lat="43.55767" lon="1.29867">
        <ele>169.81</ele>
        <time>2017-07-01T07:51:50Z</time>
      </trkpt>
      <trkpt lat="43.55771" lon="1.29868">
        <ele>169.81</ele>
        <time>2017-07-01T07:51:51Z</time>
      </trkpt>
      <trkpt lat="43.55775" lon="1.29869">
        <ele>169.81</ele>
        <time>2017-07-01T07:51:52Z</time>
      </trkpt>
      <trkpt lat="43.55779" lon="1.29869">
        <ele>169.81</ele>
        <time>2017-07-01T07:51:53Z</time>
      </trkpt>
      <trkpt lat="43.55783" lon="1.29869">
        <ele>169.81</ele>
        <time>2017-07-01T07:51:54Z</time>
      </trkpt>
      <trkpt lat="43.55787" lon="1.29869">
        <ele>169.81</ele>
        <time>2017-07-01T07:51:55Z</time>
      </trkpt>
      <trkpt lat="43.55814" lon="1.29892">
        <ele>169.81</ele>
        <time>2017-07-01T07:52:04Z</time>
      </trkpt>
      <trkpt lat="43.55875" lon="1.29968">
        <ele>168.85</ele>
        <time>2017-07-01T07:52:18Z</time>
      </trkpt>
      <trkpt lat="43.55886" lon="1.29979">
        <ele>168.85</ele>
        <time>2017-07-01T07:52:20Z</time>
      </trkpt>
      <trkpt lat="43.55958" lon="1.30074">
        <ele>168.85</ele>
        <time>2017-07-01T07:52:35Z</time>
      </trkpt>
      <trkpt lat="43.55989" lon="1.30121">
        <ele>168.85</ele>
        <time>2017-07-01T07:52:43Z</time>
      </trkpt>
      <trkpt lat="43.55992" lon="1.30125">
        <ele>168.85</ele>
        <time>2017-07-01T07:52:44Z</time>
      </trkpt>
      <trkpt lat="43.55995" lon="1.30134">
        <ele>169.81</ele>
        <time>2017-07-01T07:52:51Z</time>
      </trkpt>
      <trkpt lat="43.56001" lon="1.30137">
        <ele>169.81</ele>
        <time>2017-07-01T07:52:59Z</time>
      </trkpt>
      <trkpt lat="43.56035" lon="1.30105">
        <ele>169.81</ele>
        <time>2017-07-01T07:53:10Z</time>
      </trkpt>
      <trkpt lat="43.56044" lon="1.30101">
        <ele>168.85</ele>
        <time>2017-07-01T07:53:13Z</time>
      </trkpt>
      <trkpt lat="43.56047" lon="1.30102">
        <ele>168.85</ele>
        <time>2017-07-01T07:53:14Z</time>
      </trkpt>
      <trkpt lat="43.56049" lon="1.30106">
        <ele>168.85</ele>
        <time>2017-07-01T07:53:15Z</time>
      </trkpt>
      <trkpt lat="43.5605" lon="1.3011">
        <ele>168.85</ele>
        <time>2017-07-01T07:53:16Z</time>
      </trkpt>
      <trkpt lat="43.5605" lon="1.30116">
        <ele>168.85</ele>
        <time>2017-07-01T07:53:17Z</time>
      </trkpt>
      <trkpt lat="43.56051" lon="1.30122">
        <ele>168.85</ele>
        <time>2017-07-01T07:53:18Z</time>
      </trkpt>
      <trkpt lat="43.56051" lon="1.30128">
        <ele>168.85</ele>
        <time>2017-07-01T07:53:19Z</time>
      </trkpt>
      <trkpt lat="43.56052" lon="1.30135">
        <ele>168.85</ele>
        <time>2017-07-01T07:53:20Z</time>
      </trkpt>
      <trkpt lat="43.56054" lon="1.30142">
        <ele>168.85</ele>
        <time>2017-07-01T07:53:21Z</time>
      </trkpt>
      <trkpt lat="43.56055" lon="1.30156">
        <ele>168.85</ele>
        <time>2017-07-01T07:53:23Z</time>
      </trkpt>
      <trkpt lat="43.56057" lon="1.30178">
        <ele>167.89</ele>
        <time>2017-07-01T07:53:26Z</time>
      </trkpt>
      <trkpt lat="43.56058" lon="1.30191">
        <ele>167.89</ele>
        <time>2017-07-01T07:53:28Z</time>
      </trkpt>
      <trkpt lat="43.56058" lon="1.30196">
        <ele>167.89</ele>
        <time>2017-07-01T07:53:29Z</time>
      </trkpt>
      <trkpt lat="43.56058" lon="1.30202">
        <ele>167.89</ele>
        <time>2017-07-01T07:53:30Z</time>
      </trkpt>
      <trkpt lat="43.56058" lon="1.30208">
        <ele>167.89</ele>
        <time>2017-07-01T07:53:31Z</time>
      </trkpt>
      <trkpt lat="43.56058" lon="1.30214">
        <ele>168.85</ele>
        <time>2017-07-01T07:53:32Z</time>
      </trkpt>
      <trkpt lat="43.56059" lon="1.3022">
        <ele>168.85</ele>
        <time>2017-07-01T07:53:33Z</time>
      </trkpt>
      <trkpt lat="43.56069" lon="1.30323">
        <ele>168.85</ele>
        <time>2017-07-01T07:53:47Z</time>
      </trkpt>
      <trkpt lat="43.56099" lon="1.30469">
        <ele>168.85</ele>
        <time>2017-07-01T07:54:04Z</time>
      </trkpt>
      <trkpt lat="43.56106" lon="1.30498">
        <ele>168.85</ele>
        <time>2017-07-01T07:54:08Z</time>
      </trkpt>
      <trkpt lat="43.56108" lon="1.30503">
        <ele>168.85</ele>
        <time>2017-07-01T07:54:09Z</time>
      </trkpt>
      <trkpt lat="43.56111" lon="1.30506">
        <ele>168.85</ele>
        <time>2017-07-01T07:54:10Z</time>
      </trkpt>
      <trkpt lat="43.56113" lon="1.30508">
        <ele>168.85</ele>
        <time>2017-07-01T07:54:11Z</time>
      </trkpt>
      <trkpt lat="43.56116" lon="1.3051">
        <ele>168.85</ele>
        <time>2017-07-01T07:54:12Z</time>
      </trkpt>
      <trkpt lat="43.56119" lon="1.30511">
        <ele>168.85</ele>
        <time>2017-07-01T07:54:13Z</time>
      </trkpt>
      <trkpt lat="43.56121" lon="1.30511">
        <ele>168.85</ele>
        <time>2017-07-01T07:54:14Z</time>
      </trkpt>
      <trkpt lat="43.56123" lon="1.30511">
        <ele>168.85</ele>
        <time>2017-07-01T07:54:15Z</time>
      </trkpt>
      <trkpt lat="43.56126" lon="1.3051">
        <ele>168.85</ele>
        <time>2017-07-01T07:54:16Z</time>
      </trkpt>
      <trkpt lat="43.56128" lon="1.30509">
        <ele>168.85</ele>
        <time>2017-07-01T07:54:17Z</time>
      </trkpt>
      <trkpt lat="43.56129" lon="1.3051">
        <ele>168.85</ele>
        <time>2017-07-01T07:54:18Z</time>
      </trkpt>
      <trkpt lat="43.5613" lon="1.30512">
        <ele>168.85</ele>
        <time>2017-07-01T07:54:19Z</time>
      </trkpt>
      <trkpt lat="43.5613" lon="1.3052">
        <ele>168.85</ele>
        <time>2017-07-01T07:54:22Z</time>
      </trkpt>
      <trkpt lat="43.56129" lon="1.30524">
        <ele>168.85</ele>
        <time>2017-07-01T07:54:23Z</time>
      </trkpt>
      <trkpt lat="43.56126" lon="1.30527">
        <ele>168.85</ele>
        <time>2017-07-01T07:54:24Z</time>
      </trkpt>
      <trkpt lat="43.56122" lon="1.30534">
        <ele>168.85</ele>
        <time>2017-07-01T07:54:26Z</time>
      </trkpt>
      <trkpt lat="43.5612" lon="1.30539">
        <ele>168.85</ele>
        <time>2017-07-01T07:54:27Z</time>
      </trkpt>
      <trkpt lat="43.56119" lon="1.30545">
        <ele>168.85</ele>
        <time>2017-07-01T07:54:28Z</time>
      </trkpt>
      <trkpt lat="43.56119" lon="1.3055">
        <ele>168.85</ele>
        <time>2017-07-01T07:54:29Z</time>
      </trkpt>
      <trkpt lat="43.56119" lon="1.30555">
        <ele>168.85</ele>
        <time>2017-07-01T07:54:30Z</time>
      </trkpt>
      <trkpt lat="43.56118" lon="1.3056">
        <ele>168.85</ele>
        <time>2017-07-01T07:54:31Z</time>
      </trkpt>
      <trkpt lat="43.56116" lon="1.30563">
        <ele>168.85</ele>
        <time>2017-07-01T07:54:32Z</time>
      </trkpt>
      <trkpt lat="43.5611" lon="1.30574">
        <ele>168.85</ele>
        <time>2017-07-01T07:54:38Z</time>
      </trkpt>
      <trkpt lat="43.56111" lon="1.30578">
        <ele>168.85</ele>
        <time>2017-07-01T07:54:39Z</time>
      </trkpt>
      <trkpt lat="43.56112" lon="1.30584">
        <ele>168.85</ele>
        <time>2017-07-01T07:54:40Z</time>
      </trkpt>
      <trkpt lat="43.56113" lon="1.3059">
        <ele>168.85</ele>
        <time>2017-07-01T07:54:41Z</time>
      </trkpt>
      <trkpt lat="43.56131" lon="1.30691">
        <ele>167.89</ele>
        <time>2017-07-01T07:54:54Z</time>
      </trkpt>
      <trkpt lat="43.56133" lon="1.30723">
        <ele>167.89</ele>
        <time>2017-07-01T07:54:58Z</time>
      </trkpt>
      <trkpt lat="43.56134" lon="1.30748">
        <ele>167.89</ele>
        <time>2017-07-01T07:55:02Z</time>
      </trkpt>
      <trkpt lat="43.56133" lon="1.30754">
        <ele>167.89</ele>
        <time>2017-07-01T07:55:03Z</time>
      </trkpt>
      <trkpt lat="43.56131" lon="1.30759">
        <ele>167.89</ele>
        <time>2017-07-01T07:55:04Z</time>
      </trkpt>
      <trkpt lat="43.56127" lon="1.30769">
        <ele>167.89</ele>
        <time>2017-07-01T07:55:06Z</time>
      </trkpt>
      <trkpt lat="43.56126" lon="1.30774">
        <ele>167.89</ele>
        <time>2017-07-01T07:55:07Z</time>
      </trkpt>
      <trkpt lat="43.56125" lon="1.30779">
        <ele>167.89</ele>
        <time>2017-07-01T07:55:08Z</time>
      </trkpt>
      <trkpt lat="43.56125" lon="1.30783">
        <ele>167.89</ele>
        <time>2017-07-01T07:55:09Z</time>
      </trkpt>
      <trkpt lat="43.56127" lon="1.30787">
        <ele>167.89</ele>
        <time>2017-07-01T07:55:10Z</time>
      </trkpt>
      <trkpt lat="43.56129" lon="1.30789">
        <ele>167.89</ele>
        <time>2017-07-01T07:55:11Z</time>
      </trkpt>
      <trkpt lat="43.56132" lon="1.30791">
        <ele>167.89</ele>
        <time>2017-07-01T07:55:12Z</time>
      </trkpt>
      <trkpt lat="43.56134" lon="1.30795">
        <ele>167.89</ele>
        <time>2017-07-01T07:55:13Z</time>
      </trkpt>
      <trkpt lat="43.56137" lon="1.308">
        <ele>167.89</ele>
        <time>2017-07-01T07:55:14Z</time>
      </trkpt>
      <trkpt lat="43.56138" lon="1.30806">
        <ele>167.89</ele>
        <time>2017-07-01T07:55:15Z</time>
      </trkpt>
      <trkpt lat="43.56173" lon="1.30912">
        <ele>167.89</ele>
        <time>2017-07-01T07:55:30Z</time>
      </trkpt>
      <trkpt lat="43.56192" lon="1.30962">
        <ele>167.89</ele>
        <time>2017-07-01T07:55:37Z</time>
      </trkpt>
      <trkpt lat="43.56193" lon="1.30969">
        <ele>167.89</ele>
        <time>2017-07-01T07:55:38Z</time>
      </trkpt>
      <trkpt lat="43.56194" lon="1.30976">
        <ele>167.89</ele>
        <time>2017-07-01T07:55:39Z</time>
      </trkpt>
      <trkpt lat="43.56195" lon="1.30983">
        <ele>167.89</ele>
        <time>2017-07-01T07:55:40Z</time>
      </trkpt>
      <trkpt lat="43.56197" lon="1.3099">
        <ele>167.89</ele>
        <time>2017-07-01T07:55:41Z</time>
      </trkpt>
      <trkpt lat="43.56201" lon="1.30995">
        <ele>167.89</ele>
        <time>2017-07-01T07:55:42Z</time>
      </trkpt>
      <trkpt lat="43.56205" lon="1.30999">
        <ele>167.89</ele>
        <time>2017-07-01T07:55:43Z</time>
      </trkpt>
      <trkpt lat="43.56208" lon="1.31005">
        <ele>167.89</ele>
        <time>2017-07-01T07:55:44Z</time>
      </trkpt>
      <trkpt lat="43.56211" lon="1.31011">
        <ele>167.89</ele>
        <time>2017-07-01T07:55:45Z</time>
      </trkpt>
      <trkpt lat="43.56214" lon="1.31018">
        <ele>167.89</ele>
        <time>2017-07-01T07:55:46Z</time>
      </trkpt>
      <trkpt lat="43.56254" lon="1.31129">
        <ele>167.89</ele>
        <time>2017-07-01T07:56:01Z</time>
      </trkpt>
      <trkpt lat="43.5628" lon="1.31204">
        <ele>167.89</ele>
        <time>2017-07-01T07:56:11Z</time>
      </trkpt>
      <trkpt lat="43.56289" lon="1.31234">
        <ele>167.89</ele>
        <time>2017-07-01T07:56:15Z</time>
      </trkpt>
      <trkpt lat="43.56289" lon="1.31241">
        <ele>167.89</ele>
        <time>2017-07-01T07:56:16Z</time>
      </trkpt>
      <trkpt lat="43.56288" lon="1.31246">
        <ele>167.89</ele>
        <time>2017-07-01T07:56:17Z</time>
      </trkpt>
      <trkpt lat="43.56286" lon="1.3125">
        <ele>167.89</ele>
        <time>2017-07-01T07:56:18Z</time>
      </trkpt>
      <trkpt lat="43.56284" lon="1.31253">
        <ele>167.89</ele>
        <time>2017-07-01T07:56:19Z</time>
      </trkpt>
      <trkpt lat="43.56284" lon="1.31257">
        <ele>167.89</ele>
        <time>2017-07-01T07:56:20Z</time>
      </trkpt>
      <trkpt lat="43.56286" lon="1.31261">
        <ele>167.89</ele>
        <time>2017-07-01T07:56:21Z</time>
      </trkpt>
      <trkpt lat="43.56289" lon="1.31263">
        <ele>167.89</ele>
        <time>2017-07-01T07:56:22Z</time>
      </trkpt>
      <trkpt lat="43.56292" lon="1.31263">
        <ele>167.89</ele>
        <time>2017-07-01T07:56:23Z</time>
      </trkpt>
      <trkpt lat="43.56296" lon="1.31264">
        <ele>167.89</ele>
        <time>2017-07-01T07:56:24Z</time>
      </trkpt>
      <trkpt lat="43.563" lon="1.31266">
        <ele>167.89</ele>
        <time>2017-07-01T07:56:25Z</time>
      </trkpt>
      <trkpt lat="43.56303" lon="1.31268">
        <ele>167.89</ele>
        <time>2017-07-01T07:56:26Z</time>
      </trkpt>
      <trkpt lat="43.56305" lon="1.31272">
        <ele>167.89</ele>
        <time>2017-07-01T07:56:27Z</time>
      </trkpt>
      <trkpt lat="43.56307" lon="1.31278">
        <ele>167.89</ele>
        <time>2017-07-01T07:56:28Z</time>
      </trkpt>
      <trkpt lat="43.56309" lon="1.31284">
        <ele>167.89</ele>
        <time>2017-07-01T07:56:29Z</time>
      </trkpt>
      <trkpt lat="43.56339" lon="1.31386">
        <ele>168.85</ele>
        <time>2017-07-01T07:56:43Z</time>
      </trkpt>
      <trkpt lat="43.5637" lon="1.31529">
        <ele>167.89</ele>
        <time>2017-07-01T07:56:59Z</time>
      </trkpt>
      <trkpt lat="43.56395" lon="1.3164">
        <ele>167.89</ele>
        <time>2017-07-01T07:57:13Z</time>
      </trkpt>
      <trkpt lat="43.56405" lon="1.31685">
        <ele>167.89</ele>
        <time>2017-07-01T07:57:22Z</time>
      </trkpt>
      <trkpt lat="43.56408" lon="1.31698">
        <ele>167.89</ele>
        <time>2017-07-01T07:57:24Z</time>
      </trkpt>
      <trkpt lat="43.56436" lon="1.31805">
        <ele>167.89</ele>
        <time>2017-07-01T07:57:39Z</time>
      </trkpt>
      <trkpt lat="43.56446" lon="1.31843">
        <ele>167.89</ele>
        <time>2017-07-01T07:57:45Z</time>
      </trkpt>
      <trkpt lat="43.56449" lon="1.31854">
        <ele>167.89</ele>
        <time>2017-07-01T07:57:47Z</time>
      </trkpt>
      <trkpt lat="43.56478" lon="1.31952">
        <ele>167.89</ele>
        <time>2017-07-01T07:58:02Z</time>
      </trkpt>
      <trkpt lat="43.56501" lon="1.32058">
        <ele>167.89</ele>
        <time>2017-07-01T07:58:15Z</time>
      </trkpt>
      <trkpt lat="43.5653" lon="1.3217">
        <ele>167.89</ele>
        <time>2017-07-01T07:58:30Z</time>
      </trkpt>
      <trkpt lat="43.56538" lon="1.32182">
        <ele>166.93</ele>
        <time>2017-07-01T07:58:37Z</time>
      </trkpt>
      <trkpt lat="43.56549" lon="1.32194">
        <ele>166.93</ele>
        <time>2017-07-01T07:58:41Z</time>
      </trkpt>
      <trkpt lat="43.56551" lon="1.32194">
        <ele>166.93</ele>
        <time>2017-07-01T07:58:42Z</time>
      </trkpt>
      <trkpt lat="43.56557" lon="1.32196">
        <ele>166.93</ele>
        <time>2017-07-01T07:58:44Z</time>
      </trkpt>
      <trkpt lat="43.56559" lon="1.322">
        <ele>166.93</ele>
        <time>2017-07-01T07:58:45Z</time>
      </trkpt>
      <trkpt lat="43.5656" lon="1.32204">
        <ele>166.93</ele>
        <time>2017-07-01T07:58:46Z</time>
      </trkpt>
      <trkpt lat="43.56593" lon="1.32286">
        <ele>166.93</ele>
        <time>2017-07-01T07:58:59Z</time>
      </trkpt>
      <trkpt lat="43.56596" lon="1.32295">
        <ele>166.93</ele>
        <time>2017-07-01T07:59:00Z</time>
      </trkpt>
      <trkpt lat="43.56598" lon="1.32302">
        <ele>166.93</ele>
        <time>2017-07-01T07:59:01Z</time>
      </trkpt>
      <trkpt lat="43.56606" lon="1.32325">
        <ele>166.93</ele>
        <time>2017-07-01T07:59:04Z</time>
      </trkpt>
      <trkpt lat="43.56614" lon="1.32355">
        <ele>166.93</ele>
        <time>2017-07-01T07:59:08Z</time>
      </trkpt>
      <trkpt lat="43.56637" lon="1.32432">
        <ele>166.93</ele>
        <time>2017-07-01T07:59:18Z</time>
      </trkpt>
      <trkpt lat="43.56639" lon="1.3244">
        <ele>166.93</ele>
        <time>2017-07-01T07:59:19Z</time>
      </trkpt>
      <trkpt lat="43.56642" lon="1.32448">
        <ele>166.93</ele>
        <time>2017-07-01T07:59:20Z</time>
      </trkpt>
      <trkpt lat="43.56657" lon="1.32498">
        <ele>166.93</ele>
        <time>2017-07-01T07:59:27Z</time>
      </trkpt>
      <trkpt lat="43.5666" lon="1.32505">
        <ele>166.93</ele>
        <time>2017-07-01T07:59:28Z</time>
      </trkpt>
      <trkpt lat="43.56663" lon="1.32512">
        <ele>166.93</ele>
        <time>2017-07-01T07:59:29Z</time>
      </trkpt>
      <trkpt lat="43.56666" lon="1.32519">
        <ele>166.93</ele>
        <time>2017-07-01T07:59:30Z</time>
      </trkpt>
      <trkpt lat="43.56668" lon="1.32526">
        <ele>166.93</ele>
        <time>2017-07-01T07:59:31Z</time>
      </trkpt>
      <trkpt lat="43.5667" lon="1.32533">
        <ele>166.93</ele>
        <time>2017-07-01T07:59:32Z</time>
      </trkpt>
      <trkpt lat="43.56724" lon="1.32691">
        <ele>166.93</ele>
        <time>2017-07-01T07:59:51Z</time>
      </trkpt>
      <trkpt lat="43.56758" lon="1.32804">
        <ele>166.93</ele>
        <time>2017-07-01T08:00:06Z</time>
      </trkpt>
      <trkpt lat="43.56777" lon="1.32854">
        <ele>166.93</ele>
        <time>2017-07-01T08:00:13Z</time>
      </trkpt>
      <trkpt lat="43.56783" lon="1.32869">
        <ele>166.93</ele>
        <time>2017-07-01T08:00:15Z</time>
      </trkpt>
      <trkpt lat="43.5683" lon="1.3301">
        <ele>166.93</ele>
        <time>2017-07-01T08:00:32Z</time>
      </trkpt>
      <trkpt lat="43.56884" lon="1.3317">
        <ele>166.93</ele>
        <time>2017-07-01T08:00:51Z</time>
      </trkpt>
      <trkpt lat="43.5691" lon="1.33244">
        <ele>165.96</ele>
        <time>2017-07-01T08:01:00Z</time>
      </trkpt>
      <trkpt lat="43.56917" lon="1.33259">
        <ele>165.96</ele>
        <time>2017-07-01T08:01:02Z</time>
      </trkpt>
      <trkpt lat="43.56919" lon="1.33267">
        <ele>165.96</ele>
        <time>2017-07-01T08:01:03Z</time>
      </trkpt>
      <trkpt lat="43.56927" lon="1.33294">
        <ele>166.93</ele>
        <time>2017-07-01T08:01:07Z</time>
      </trkpt>
      <trkpt lat="43.56928" lon="1.333">
        <ele>166.93</ele>
        <time>2017-07-01T08:01:08Z</time>
      </trkpt>
      <trkpt lat="43.56933" lon="1.33316">
        <ele>166.93</ele>
        <time>2017-07-01T08:01:11Z</time>
      </trkpt>
      <trkpt lat="43.5694" lon="1.33332">
        <ele>166.93</ele>
        <time>2017-07-01T08:01:14Z</time>
      </trkpt>
      <trkpt lat="43.56945" lon="1.33343">
        <ele>166.93</ele>
        <time>2017-07-01T08:01:16Z</time>
      </trkpt>
      <trkpt lat="43.56949" lon="1.33347">
        <ele>166.93</ele>
        <time>2017-07-01T08:01:17Z</time>
      </trkpt>
      <trkpt lat="43.56954" lon="1.33349">
        <ele>166.93</ele>
        <time>2017-07-01T08:01:18Z</time>
      </trkpt>
      <trkpt lat="43.56959" lon="1.33349">
        <ele>166.93</ele>
        <time>2017-07-01T08:01:19Z</time>
      </trkpt>
      <trkpt lat="43.56984" lon="1.33354">
        <ele>166.93</ele>
        <time>2017-07-01T08:01:24Z</time>
      </trkpt>
      <trkpt lat="43.56988" lon="1.33355">
        <ele>166.93</ele>
        <time>2017-07-01T08:01:25Z</time>
      </trkpt>
      <trkpt lat="43.56991" lon="1.33356">
        <ele>166.93</ele>
        <time>2017-07-01T08:01:26Z</time>
      </trkpt>
      <trkpt lat="43.56993" lon="1.33359">
        <ele>166.93</ele>
        <time>2017-07-01T08:01:27Z</time>
      </trkpt>
      <trkpt lat="43.56994" lon="1.33362">
        <ele>166.93</ele>
        <time>2017-07-01T08:01:28Z</time>
      </trkpt>
      <trkpt lat="43.56994" lon="1.33366">
        <ele>166.93</ele>
        <time>2017-07-01T08:01:29Z</time>
      </trkpt>
      <trkpt lat="43.56995" lon="1.33369">
        <ele>166.93</ele>
        <time>2017-07-01T08:01:30Z</time>
      </trkpt>
      <trkpt lat="43.56996" lon="1.33373">
        <ele>166.93</ele>
        <time>2017-07-01T08:01:31Z</time>
      </trkpt>
      <trkpt lat="43.56997" lon="1.33377">
        <ele>166.93</ele>
        <time>2017-07-01T08:01:32Z</time>
      </trkpt>
      <trkpt lat="43.56999" lon="1.33381">
        <ele>166.93</ele>
        <time>2017-07-01T08:01:33Z</time>
      </trkpt>
      <trkpt lat="43.57" lon="1.33386">
        <ele>166.93</ele>
        <time>2017-07-01T08:01:34Z</time>
      </trkpt>
      <trkpt lat="43.5699" lon="1.33411">
        <ele>166.93</ele>
        <time>2017-07-01T08:01:41Z</time>
      </trkpt>
      <trkpt lat="43.56988" lon="1.33415">
        <ele>166.93</ele>
        <time>2017-07-01T08:01:42Z</time>
      </trkpt>
      <trkpt lat="43.56968" lon="1.33432">
        <ele>166.93</ele>
        <time>2017-07-01T08:01:50Z</time>
      </trkpt>
      <trkpt lat="43.56965" lon="1.33437">
        <ele>166.93</ele>
        <time>2017-07-01T08:01:52Z</time>
      </trkpt>
      <trkpt lat="43.56965" lon="1.33441">
        <ele>166.93</ele>
        <time>2017-07-01T08:01:53Z</time>
      </trkpt>
      <trkpt lat="43.56966" lon="1.33446">
        <ele>166.93</ele>
        <time>2017-07-01T08:01:54Z</time>
      </trkpt>
      <trkpt lat="43.56967" lon="1.33451">
        <ele>166.93</ele>
        <time>2017-07-01T08:01:55Z</time>
      </trkpt>
      <trkpt lat="43.5697" lon="1.33456">
        <ele>166.93</ele>
        <time>2017-07-01T08:01:56Z</time>
      </trkpt>
      <trkpt lat="43.56973" lon="1.33462">
        <ele>166.93</ele>
        <time>2017-07-01T08:01:57Z</time>
      </trkpt>
      <trkpt lat="43.57012" lon="1.33543">
        <ele>166.93</ele>
        <time>2017-07-01T08:02:08Z</time>
      </trkpt>
      <trkpt lat="43.57092" lon="1.33709">
        <ele>165.96</ele>
        <time>2017-07-01T08:02:29Z</time>
      </trkpt>
      <trkpt lat="43.57155" lon="1.33839">
        <ele>165.96</ele>
        <time>2017-07-01T08:02:45Z</time>
      </trkpt>
      <trkpt lat="43.5721" lon="1.33951">
        <ele>165.96</ele>
        <time>2017-07-01T08:03:00Z</time>
      </trkpt>
      <trkpt lat="43.57247" lon="1.34033">
        <ele>165.96</ele>
        <time>2017-07-01T08:03:12Z</time>
      </trkpt>
      <trkpt lat="43.57316" lon="1.34175">
        <ele>165</ele>
        <time>2017-07-01T08:03:30Z</time>
      </trkpt>
      <trkpt lat="43.5733" lon="1.34205">
        <ele>165</ele>
        <time>2017-07-01T08:03:34Z</time>
      </trkpt>
      <trkpt lat="43.57384" lon="1.34318">
        <ele>165</ele>
        <time>2017-07-01T08:03:49Z</time>
      </trkpt>
      <trkpt lat="43.57457" lon="1.34473">
        <ele>165</ele>
        <time>2017-07-01T08:04:08Z</time>
      </trkpt>
      <trkpt lat="43.57542" lon="1.34657">
        <ele>165</ele>
        <time>2017-07-01T08:04:30Z</time>
      </trkpt>
      <trkpt lat="43.5758" lon="1.34737">
        <ele>165</ele>
        <time>2017-07-01T08:04:40Z</time>
      </trkpt>
      <trkpt lat="43.57583" lon="1.34745">
        <ele>165</ele>
        <time>2017-07-01T08:04:41Z</time>
      </trkpt>
      <trkpt lat="43.57583" lon="1.34753">
        <ele>165</ele>
        <time>2017-07-01T08:04:42Z</time>
      </trkpt>
      <trkpt lat="43.57582" lon="1.3476">
        <ele>165</ele>
        <time>2017-07-01T08:04:43Z</time>
      </trkpt>
      <trkpt lat="43.57581" lon="1.34767">
        <ele>165</ele>
        <time>2017-07-01T08:04:44Z</time>
      </trkpt>
      <trkpt lat="43.57581" lon="1.34774">
        <ele>165</ele>
        <time>2017-07-01T08:04:45Z</time>
      </trkpt>
      <trkpt lat="43.57582" lon="1.34781">
        <ele>165</ele>
        <time>2017-07-01T08:04:46Z</time>
      </trkpt>
      <trkpt lat="43.57585" lon="1.34787">
        <ele>165</ele>
        <time>2017-07-01T08:04:47Z</time>
      </trkpt>
      <trkpt lat="43.57588" lon="1.34792">
        <ele>165</ele>
        <time>2017-07-01T08:04:48Z</time>
      </trkpt>
      <trkpt lat="43.57592" lon="1.34795">
        <ele>165</ele>
        <time>2017-07-01T08:04:49Z</time>
      </trkpt>
      <trkpt lat="43.57596" lon="1.34797">
        <ele>165</ele>
        <time>2017-07-01T08:04:50Z</time>
      </trkpt>
      <trkpt lat="43.57601" lon="1.34798">
        <ele>165</ele>
        <time>2017-07-01T08:04:51Z</time>
      </trkpt>
      <trkpt lat="43.57606" lon="1.34801">
        <ele>165</ele>
        <time>2017-07-01T08:04:52Z</time>
      </trkpt>
      <trkpt lat="43.5761" lon="1.34805">
        <ele>165</ele>
        <time>2017-07-01T08:04:53Z</time>
      </trkpt>
      <trkpt lat="43.57614" lon="1.3481">
        <ele>165</ele>
        <time>2017-07-01T08:04:54Z</time>
      </trkpt>
      <trkpt lat="43.57617" lon="1.34816">
        <ele>165</ele>
        <time>2017-07-01T08:04:55Z</time>
      </trkpt>
      <trkpt lat="43.5762" lon="1.34823">
        <ele>165</ele>
        <time>2017-07-01T08:04:56Z</time>
      </trkpt>
      <trkpt lat="43.57683" lon="1.34952">
        <ele>164.04</ele>
        <time>2017-07-01T08:05:14Z</time>
      </trkpt>
      <trkpt lat="43.57767" lon="1.35127">
        <ele>164.04</ele>
        <time>2017-07-01T08:05:35Z</time>
      </trkpt>
      <trkpt lat="43.57794" lon="1.3518">
        <ele>163.08</ele>
        <time>2017-07-01T08:05:41Z</time>
      </trkpt>
      <trkpt lat="43.57808" lon="1.352">
        <ele>163.08</ele>
        <time>2017-07-01T08:05:44Z</time>
      </trkpt>
      <trkpt lat="43.57811" lon="1.35207">
        <ele>162.12</ele>
        <time>2017-07-01T08:05:45Z</time>
      </trkpt>
      <trkpt lat="43.57814" lon="1.35214">
        <ele>162.12</ele>
        <time>2017-07-01T08:05:46Z</time>
      </trkpt>
      <trkpt lat="43.57829" lon="1.3526">
        <ele>161.16</ele>
        <time>2017-07-01T08:05:53Z</time>
      </trkpt>
      <trkpt lat="43.57829" lon="1.35266">
        <ele>160.2</ele>
        <time>2017-07-01T08:05:54Z</time>
      </trkpt>
      <trkpt lat="43.57834" lon="1.35298">
        <ele>160.2</ele>
        <time>2017-07-01T08:06:00Z</time>
      </trkpt>
      <trkpt lat="43.5785" lon="1.35336">
        <ele>160.2</ele>
        <time>2017-07-01T08:06:07Z</time>
      </trkpt>
      <trkpt lat="43.5788" lon="1.35429">
        <ele>162.12</ele>
        <time>2017-07-01T08:06:21Z</time>
      </trkpt>
      <trkpt lat="43.57876" lon="1.35558">
        <ele>162.12</ele>
        <time>2017-07-01T08:06:37Z</time>
      </trkpt>
      <trkpt lat="43.5788" lon="1.35679">
        <ele>163.08</ele>
        <time>2017-07-01T08:06:51Z</time>
      </trkpt>
      <trkpt lat="43.57909" lon="1.35855">
        <ele>164.04</ele>
        <time>2017-07-01T08:07:10Z</time>
      </trkpt>
      <trkpt lat="43.57923" lon="1.35915">
        <ele>164.04</ele>
        <time>2017-07-01T08:07:17Z</time>
      </trkpt>
      <trkpt lat="43.57925" lon="1.35923">
        <ele>164.04</ele>
        <time>2017-07-01T08:07:18Z</time>
      </trkpt>
      <trkpt lat="43.57971" lon="1.36066">
        <ele>164.04</ele>
        <time>2017-07-01T08:07:35Z</time>
      </trkpt>
      <trkpt lat="43.58019" lon="1.36185">
        <ele>163.08</ele>
        <time>2017-07-01T08:07:49Z</time>
      </trkpt>
      <trkpt lat="43.58021" lon="1.36193">
        <ele>163.08</ele>
        <time>2017-07-01T08:07:50Z</time>
      </trkpt>
      <trkpt lat="43.58022" lon="1.36202">
        <ele>163.08</ele>
        <time>2017-07-01T08:07:51Z</time>
      </trkpt>
      <trkpt lat="43.58021" lon="1.36212">
        <ele>163.08</ele>
        <time>2017-07-01T08:07:52Z</time>
      </trkpt>
      <trkpt lat="43.58021" lon="1.36221">
        <ele>163.08</ele>
        <time>2017-07-01T08:07:53Z</time>
      </trkpt>
      <trkpt lat="43.58021" lon="1.3623">
        <ele>163.08</ele>
        <time>2017-07-01T08:07:54Z</time>
      </trkpt>
      <trkpt lat="43.58023" lon="1.36239">
        <ele>163.08</ele>
        <time>2017-07-01T08:07:55Z</time>
      </trkpt>
      <trkpt lat="43.58026" lon="1.36247">
        <ele>164.04</ele>
        <time>2017-07-01T08:07:56Z</time>
      </trkpt>
      <trkpt lat="43.58031" lon="1.36254">
        <ele>164.04</ele>
        <time>2017-07-01T08:07:57Z</time>
      </trkpt>
      <trkpt lat="43.58036" lon="1.3626">
        <ele>164.04</ele>
        <time>2017-07-01T08:07:58Z</time>
      </trkpt>
      <trkpt lat="43.5804" lon="1.36267">
        <ele>164.04</ele>
        <time>2017-07-01T08:07:59Z</time>
      </trkpt>
      <trkpt lat="43.58043" lon="1.36276">
        <ele>164.04</ele>
        <time>2017-07-01T08:08:00Z</time>
      </trkpt>
      <trkpt lat="43.58045" lon="1.36285">
        <ele>164.04</ele>
        <time>2017-07-01T08:08:01Z</time>
      </trkpt>
      <trkpt lat="43.58051" lon="1.36323">
        <ele>164.04</ele>
        <time>2017-07-01T08:08:05Z</time>
      </trkpt>
      <trkpt lat="43.58094" lon="1.3651">
        <ele>164.04</ele>
        <time>2017-07-01T08:08:25Z</time>
      </trkpt>
      <trkpt lat="43.58136" lon="1.36669">
        <ele>163.08</ele>
        <time>2017-07-01T08:08:42Z</time>
      </trkpt>
      <trkpt lat="43.58174" lon="1.36815">
        <ele>163.08</ele>
        <time>2017-07-01T08:08:58Z</time>
      </trkpt>
      <trkpt lat="43.58204" lon="1.36932">
        <ele>163.08</ele>
        <time>2017-07-01T08:09:11Z</time>
      </trkpt>
      <trkpt lat="43.58242" lon="1.37093">
        <ele>163.08</ele>
        <time>2017-07-01T08:09:29Z</time>
      </trkpt>
      <trkpt lat="43.58274" lon="1.37247">
        <ele>162.12</ele>
        <time>2017-07-01T08:09:45Z</time>
      </trkpt>
      <trkpt lat="43.58275" lon="1.37257">
        <ele>162.12</ele>
        <time>2017-07-01T08:09:46Z</time>
      </trkpt>
      <trkpt lat="43.58275" lon="1.37287">
        <ele>162.12</ele>
        <time>2017-07-01T08:09:49Z</time>
      </trkpt>
      <trkpt lat="43.58279" lon="1.37435">
        <ele>162.12</ele>
        <time>2017-07-01T08:10:04Z</time>
      </trkpt>
      <trkpt lat="43.58295" lon="1.37532">
        <ele>162.12</ele>
        <time>2017-07-01T08:10:15Z</time>
      </trkpt>
      <trkpt lat="43.58296" lon="1.3757">
        <ele>163.08</ele>
        <time>2017-07-01T08:10:22Z</time>
      </trkpt>
      <trkpt lat="43.58296" lon="1.37592">
        <ele>163.08</ele>
        <time>2017-07-01T08:10:25Z</time>
      </trkpt>
      <trkpt lat="43.58296" lon="1.37608">
        <ele>163.08</ele>
        <time>2017-07-01T08:10:27Z</time>
      </trkpt>
      <trkpt lat="43.58296" lon="1.37617">
        <ele>163.08</ele>
        <time>2017-07-01T08:10:28Z</time>
      </trkpt>
      <trkpt lat="43.58315" lon="1.37755">
        <ele>163.08</ele>
        <time>2017-07-01T08:10:43Z</time>
      </trkpt>
      <trkpt lat="43.58365" lon="1.37909">
        <ele>162.12</ele>
        <time>2017-07-01T08:11:00Z</time>
      </trkpt>
      <trkpt lat="43.58437" lon="1.38135">
        <ele>162.12</ele>
        <time>2017-07-01T08:11:24Z</time>
      </trkpt>
      <trkpt lat="43.58471" lon="1.38286">
        <ele>162.12</ele>
        <time>2017-07-01T08:11:40Z</time>
      </trkpt>
      <trkpt lat="43.5852" lon="1.38502">
        <ele>161.16</ele>
        <time>2017-07-01T08:12:03Z</time>
      </trkpt>
      <trkpt lat="43.58548" lon="1.38652">
        <ele>162.12</ele>
        <time>2017-07-01T08:12:19Z</time>
      </trkpt>
      <trkpt lat="43.58552" lon="1.38689">
        <ele>162.12</ele>
        <time>2017-07-01T08:12:23Z</time>
      </trkpt>
      <trkpt lat="43.58554" lon="1.38697">
        <ele>161.16</ele>
        <time>2017-07-01T08:12:24Z</time>
      </trkpt>
      <trkpt lat="43.58557" lon="1.38706">
        <ele>161.16</ele>
        <time>2017-07-01T08:12:25Z</time>
      </trkpt>
      <trkpt lat="43.58559" lon="1.38715">
        <ele>161.16</ele>
        <time>2017-07-01T08:12:26Z</time>
      </trkpt>
      <trkpt lat="43.5856" lon="1.38724">
        <ele>161.16</ele>
        <time>2017-07-01T08:12:27Z</time>
      </trkpt>
      <trkpt lat="43.58596" lon="1.38912">
        <ele>161.16</ele>
        <time>2017-07-01T08:12:47Z</time>
      </trkpt>
      <trkpt lat="43.58638" lon="1.39077">
        <ele>161.16</ele>
        <time>2017-07-01T08:13:05Z</time>
      </trkpt>
      <trkpt lat="43.5871" lon="1.39298">
        <ele>160.2</ele>
        <time>2017-07-01T08:13:29Z</time>
      </trkpt>
      <trkpt lat="43.58776" lon="1.39458">
        <ele>160.2</ele>
        <time>2017-07-01T08:13:48Z</time>
      </trkpt>
      <trkpt lat="43.58781" lon="1.39463">
        <ele>160.2</ele>
        <time>2017-07-01T08:13:49Z</time>
      </trkpt>
      <trkpt lat="43.58787" lon="1.39466">
        <ele>160.2</ele>
        <time>2017-07-01T08:13:50Z</time>
      </trkpt>
      <trkpt lat="43.58793" lon="1.39469">
        <ele>160.2</ele>
        <time>2017-07-01T08:13:51Z</time>
      </trkpt>
      <trkpt lat="43.58799" lon="1.39473">
        <ele>160.2</ele>
        <time>2017-07-01T08:13:52Z</time>
      </trkpt>
      <trkpt lat="43.58804" lon="1.39479">
        <ele>160.2</ele>
        <time>2017-07-01T08:13:53Z</time>
      </trkpt>
      <trkpt lat="43.58809" lon="1.39484">
        <ele>160.2</ele>
        <time>2017-07-01T08:13:54Z</time>
      </trkpt>
      <trkpt lat="43.58885" lon="1.39561">
        <ele>160.2</ele>
        <time>2017-07-01T08:14:08Z</time>
      </trkpt>
      <trkpt lat="43.58977" lon="1.39657">
        <ele>160.2</ele>
        <time>2017-07-01T08:14:24Z</time>
      </trkpt>
      <trkpt lat="43.59072" lon="1.39755">
        <ele>160.2</ele>
        <time>2017-07-01T08:14:41Z</time>
      </trkpt>
      <trkpt lat="43.59154" lon="1.39833">
        <ele>159.24</ele>
        <time>2017-07-01T08:14:56Z</time>
      </trkpt>
      <trkpt lat="43.59166" lon="1.39841">
        <ele>159.24</ele>
        <time>2017-07-01T08:14:58Z</time>
      </trkpt>
      <trkpt lat="43.59172" lon="1.39844">
        <ele>159.24</ele>
        <time>2017-07-01T08:14:59Z</time>
      </trkpt>
      <trkpt lat="43.59178" lon="1.39845">
        <ele>159.24</ele>
        <time>2017-07-01T08:15:00Z</time>
      </trkpt>
      <trkpt lat="43.59193" lon="1.39849">
        <ele>159.24</ele>
        <time>2017-07-01T08:15:03Z</time>
      </trkpt>
      <trkpt lat="43.59197" lon="1.39852">
        <ele>159.24</ele>
        <time>2017-07-01T08:15:04Z</time>
      </trkpt>
      <trkpt lat="43.59199" lon="1.39857">
        <ele>159.24</ele>
        <time>2017-07-01T08:15:05Z</time>
      </trkpt>
      <trkpt lat="43.59201" lon="1.39863">
        <ele>159.24</ele>
        <time>2017-07-01T08:15:06Z</time>
      </trkpt>
      <trkpt lat="43.59202" lon="1.39869">
        <ele>159.24</ele>
        <time>2017-07-01T08:15:07Z</time>
      </trkpt>
      <trkpt lat="43.59202" lon="1.39876">
        <ele>159.24</ele>
        <time>2017-07-01T08:15:08Z</time>
      </trkpt>
      <trkpt lat="43.59202" lon="1.39884">
        <ele>159.24</ele>
        <time>2017-07-01T08:15:09Z</time>
      </trkpt>
      <trkpt lat="43.59202" lon="1.39908">
        <ele>159.24</ele>
        <time>2017-07-01T08:15:12Z</time>
      </trkpt>
      <trkpt lat="43.59225" lon="1.40052">
        <ele>157.79</ele>
        <time>2017-07-01T08:15:27Z</time>
      </trkpt>
      <trkpt lat="43.59265" lon="1.40255">
        <ele>155.87</ele>
        <time>2017-07-01T08:15:45Z</time>
      </trkpt>
      <trkpt lat="43.5929" lon="1.40392">
        <ele>152.03</ele>
        <time>2017-07-01T08:15:56Z</time>
      </trkpt>
      <trkpt lat="43.59312" lon="1.40512">
        <ele>149.14</ele>
        <time>2017-07-01T08:16:06Z</time>
      </trkpt>
      <trkpt lat="43.59316" lon="1.40536">
        <ele>148.18</ele>
        <time>2017-07-01T08:16:08Z</time>
      </trkpt>
      <trkpt lat="43.59354" lon="1.40726">
        <ele>144.82</ele>
        <time>2017-07-01T08:16:25Z</time>
      </trkpt>
      <trkpt lat="43.59366" lon="1.40827">
        <ele>145.78</ele>
        <time>2017-07-01T08:16:37Z</time>
      </trkpt>
      <trkpt lat="43.59366" lon="1.40856">
        <ele>148.18</ele>
        <time>2017-07-01T08:16:41Z</time>
      </trkpt>
      <trkpt lat="43.59367" lon="1.4087">
        <ele>148.18</ele>
        <time>2017-07-01T08:16:43Z</time>
      </trkpt>
      <trkpt lat="43.59367" lon="1.40876">
        <ele>148.18</ele>
        <time>2017-07-01T08:16:44Z</time>
      </trkpt>
      <trkpt lat="43.59366" lon="1.40881">
        <ele>148.18</ele>
        <time>2017-07-01T08:16:45Z</time>
      </trkpt>
      <trkpt lat="43.59366" lon="1.40886">
        <ele>149.14</ele>
        <time>2017-07-01T08:16:46Z</time>
      </trkpt>
      <trkpt lat="43.59367" lon="1.4089">
        <ele>149.14</ele>
        <time>2017-07-01T08:16:47Z</time>
      </trkpt>
      <trkpt lat="43.59367" lon="1.40894">
        <ele>149.14</ele>
        <time>2017-07-01T08:16:48Z</time>
      </trkpt>
      <trkpt lat="43.59367" lon="1.40898">
        <ele>149.14</ele>
        <time>2017-07-01T08:16:49Z</time>
      </trkpt>
      <trkpt lat="43.59367" lon="1.40902">
        <ele>149.14</ele>
        <time>2017-07-01T08:16:50Z</time>
      </trkpt>
      <trkpt lat="43.59367" lon="1.40906">
        <ele>149.14</ele>
        <time>2017-07-01T08:16:51Z</time>
      </trkpt>
      <trkpt lat="43.59366" lon="1.4091">
        <ele>149.14</ele>
        <time>2017-07-01T08:16:52Z</time>
      </trkpt>
      <trkpt lat="43.59366" lon="1.40914">
        <ele>149.14</ele>
        <time>2017-07-01T08:16:53Z</time>
      </trkpt>
      <trkpt lat="43.59367" lon="1.40923">
        <ele>149.14</ele>
        <time>2017-07-01T08:16:55Z</time>
      </trkpt>
      <trkpt lat="43.59369" lon="1.40926">
        <ele>149.14</ele>
        <time>2017-07-01T08:16:56Z</time>
      </trkpt>
      <trkpt lat="43.59375" lon="1.40933">
        <ele>149.14</ele>
        <time>2017-07-01T08:16:58Z</time>
      </trkpt>
      <trkpt lat="43.59378" lon="1.40936">
        <ele>149.14</ele>
        <time>2017-07-01T08:16:59Z</time>
      </trkpt>
      <trkpt lat="43.59382" lon="1.40939">
        <ele>149.14</ele>
        <time>2017-07-01T08:17:00Z</time>
      </trkpt>
      <trkpt lat="43.59385" lon="1.40944">
        <ele>149.14</ele>
        <time>2017-07-01T08:17:01Z</time>
      </trkpt>
      <trkpt lat="43.59387" lon="1.40949">
        <ele>149.14</ele>
        <time>2017-07-01T08:17:02Z</time>
      </trkpt>
      <trkpt lat="43.59389" lon="1.40956">
        <ele>149.14</ele>
        <time>2017-07-01T08:17:03Z</time>
      </trkpt>
      <trkpt lat="43.59391" lon="1.40963">
        <ele>149.14</ele>
        <time>2017-07-01T08:17:04Z</time>
      </trkpt>
      <trkpt lat="43.59392" lon="1.4097">
        <ele>149.14</ele>
        <time>2017-07-01T08:17:05Z</time>
      </trkpt>
      <trkpt lat="43.59394" lon="1.40979">
        <ele>149.14</ele>
        <time>2017-07-01T08:17:06Z</time>
      </trkpt>
      <trkpt lat="43.59417" lon="1.41102">
        <ele>147.22</ele>
        <time>2017-07-01T08:17:18Z</time>
      </trkpt>
      <trkpt lat="43.59443" lon="1.41228">
        <ele>144.82</ele>
        <time>2017-07-01T08:17:31Z</time>
      </trkpt>
      <trkpt lat="43.59451" lon="1.41255">
        <ele>144.82</ele>
        <time>2017-07-01T08:17:34Z</time>
      </trkpt>
      <trkpt lat="43.59453" lon="1.41272">
        <ele>144.82</ele>
        <time>2017-07-01T08:17:36Z</time>
      </trkpt>
      <trkpt lat="43.59455" lon="1.4128">
        <ele>144.82</ele>
        <time>2017-07-01T08:17:37Z</time>
      </trkpt>
      <trkpt lat="43.59459" lon="1.41288">
        <ele>144.82</ele>
        <time>2017-07-01T08:17:38Z</time>
      </trkpt>
      <trkpt lat="43.59461" lon="1.41297">
        <ele>144.82</ele>
        <time>2017-07-01T08:17:39Z</time>
      </trkpt>
      <trkpt lat="43.59463" lon="1.41306">
        <ele>144.82</ele>
        <time>2017-07-01T08:17:40Z</time>
      </trkpt>
      <trkpt lat="43.59485" lon="1.41437">
        <ele>144.82</ele>
        <time>2017-07-01T08:17:54Z</time>
      </trkpt>
      <trkpt lat="43.59509" lon="1.41539">
        <ele>144.82</ele>
        <time>2017-07-01T08:18:05Z</time>
      </trkpt>
      <trkpt lat="43.59509" lon="1.41548">
        <ele>144.82</ele>
        <time>2017-07-01T08:18:06Z</time>
      </trkpt>
      <trkpt lat="43.59509" lon="1.41566">
        <ele>144.82</ele>
        <time>2017-07-01T08:18:08Z</time>
      </trkpt>
      <trkpt lat="43.59509" lon="1.41574">
        <ele>144.82</ele>
        <time>2017-07-01T08:18:09Z</time>
      </trkpt>
      <trkpt lat="43.59512" lon="1.41582">
        <ele>144.82</ele>
        <time>2017-07-01T08:18:10Z</time>
      </trkpt>
      <trkpt lat="43.59519" lon="1.41598">
        <ele>144.82</ele>
        <time>2017-07-01T08:18:12Z</time>
      </trkpt>
      <trkpt lat="43.59521" lon="1.41607">
        <ele>144.82</ele>
        <time>2017-07-01T08:18:13Z</time>
      </trkpt>
      <trkpt lat="43.59531" lon="1.41669">
        <ele>144.82</ele>
        <time>2017-07-01T08:18:23Z</time>
      </trkpt>
      <trkpt lat="43.59531" lon="1.41675">
        <ele>144.82</ele>
        <time>2017-07-01T08:18:24Z</time>
      </trkpt>
      <trkpt lat="43.59532" lon="1.41681">
        <ele>144.82</ele>
        <time>2017-07-01T08:18:25Z</time>
      </trkpt>
      <trkpt lat="43.59547" lon="1.41778">
        <ele>144.82</ele>
        <time>2017-07-01T08:18:37Z</time>
      </trkpt>
      <trkpt lat="43.59557" lon="1.41823">
        <ele>144.82</ele>
        <time>2017-07-01T08:18:42Z</time>
      </trkpt>
      <trkpt lat="43.59558" lon="1.41832">
        <ele>144.82</ele>
        <time>2017-07-01T08:18:43Z</time>
      </trkpt>
      <trkpt lat="43.59576" lon="1.41928">
        <ele>144.82</ele>
        <time>2017-07-01T08:18:55Z</time>
      </trkpt>
      <trkpt lat="43.59571" lon="1.41933">
        <ele>144.82</ele>
        <time>2017-07-01T08:19:04Z</time>
      </trkpt>
      <trkpt lat="43.5957" lon="1.41933">
        <ele>144.82</ele>
        <time>2017-07-01T08:19:06Z</time>
      </trkpt>
      <trkpt lat="43.59568" lon="1.41938">
        <ele>144.82</ele>
        <time>2017-07-01T08:19:13Z</time>
      </trkpt>
      <trkpt lat="43.59568" lon="1.41941">
        <ele>144.82</ele>
        <time>2017-07-01T08:19:14Z</time>
      </trkpt>
      <trkpt lat="43.59568" lon="1.41944">
        <ele>144.82</ele>
        <time>2017-07-01T08:19:15Z</time>
      </trkpt>
      <trkpt lat="43.5957" lon="1.4196">
        <ele>144.82</ele>
        <time>2017-07-01T08:19:22Z</time>
      </trkpt>
      <trkpt lat="43.59583" lon="1.41991">
        <ele>144.82</ele>
        <time>2017-07-01T08:19:30Z</time>
      </trkpt>
      <trkpt lat="43.59584" lon="1.41997">
        <ele>144.82</ele>
        <time>2017-07-01T08:19:31Z</time>
      </trkpt>
      <trkpt lat="43.59601" lon="1.42076">
        <ele>144.82</ele>
        <time>2017-07-01T08:19:43Z</time>
      </trkpt>
      <trkpt lat="43.59622" lon="1.4217">
        <ele>144.82</ele>
        <time>2017-07-01T08:19:57Z</time>
      </trkpt>
      <trkpt lat="43.59625" lon="1.42176">
        <ele>144.82</ele>
        <time>2017-07-01T08:19:58Z</time>
      </trkpt>
      <trkpt lat="43.5963" lon="1.42187">
        <ele>144.82</ele>
        <time>2017-07-01T08:20:00Z</time>
      </trkpt>
      <trkpt lat="43.59631" lon="1.42193">
        <ele>144.82</ele>
        <time>2017-07-01T08:20:01Z</time>
      </trkpt>
      <trkpt lat="43.59632" lon="1.422">
        <ele>144.82</ele>
        <time>2017-07-01T08:20:02Z</time>
      </trkpt>
      <trkpt lat="43.59633" lon="1.42215">
        <ele>144.82</ele>
        <time>2017-07-01T08:20:04Z</time>
      </trkpt>
      <trkpt lat="43.59634" lon="1.42222">
        <ele>144.82</ele>
        <time>2017-07-01T08:20:05Z</time>
      </trkpt>
      <trkpt lat="43.59639" lon="1.42279">
        <ele>144.82</ele>
        <time>2017-07-01T08:20:15Z</time>
      </trkpt>
      <trkpt lat="43.59638" lon="1.42282">
        <ele>144.82</ele>
        <time>2017-07-01T08:20:16Z</time>
      </trkpt>
      <trkpt lat="43.59636" lon="1.42284">
        <ele>144.82</ele>
        <time>2017-07-01T08:20:17Z</time>
      </trkpt>
      <trkpt lat="43.59633" lon="1.42285">
        <ele>144.82</ele>
        <time>2017-07-01T08:20:18Z</time>
      </trkpt>
      <trkpt lat="43.59631" lon="1.42286">
        <ele>144.82</ele>
        <time>2017-07-01T08:20:19Z</time>
      </trkpt>
      <trkpt lat="43.59628" lon="1.42288">
        <ele>144.82</ele>
        <time>2017-07-01T08:20:20Z</time>
      </trkpt>
      <trkpt lat="43.59628" lon="1.42291">
        <ele>144.82</ele>
        <time>2017-07-01T08:20:21Z</time>
      </trkpt>
      <trkpt lat="43.59628" lon="1.42294">
        <ele>144.82</ele>
        <time>2017-07-01T08:20:22Z</time>
      </trkpt>
      <trkpt lat="43.5963" lon="1.42297">
        <ele>144.82</ele>
        <time>2017-07-01T08:20:23Z</time>
      </trkpt>
      <trkpt lat="43.59632" lon="1.42301">
        <ele>144.82</ele>
        <time>2017-07-01T08:20:24Z</time>
      </trkpt>
      <trkpt lat="43.59634" lon="1.42305">
        <ele>144.82</ele>
        <time>2017-07-01T08:20:25Z</time>
      </trkpt>
      <trkpt lat="43.59646" lon="1.4233">
        <ele>144.82</ele>
        <time>2017-07-01T08:20:30Z</time>
      </trkpt>
      <trkpt lat="43.59647" lon="1.42335">
        <ele>144.82</ele>
        <time>2017-07-01T08:20:31Z</time>
      </trkpt>
      <trkpt lat="43.59649" lon="1.42342">
        <ele>144.82</ele>
        <time>2017-07-01T08:20:32Z</time>
      </trkpt>
      <trkpt lat="43.59666" lon="1.42421">
        <ele>144.82</ele>
        <time>2017-07-01T08:20:44Z</time>
      </trkpt>
      <trkpt lat="43.59675" lon="1.42462">
        <ele>144.82</ele>
        <time>2017-07-01T08:20:52Z</time>
      </trkpt>
      <trkpt lat="43.59676" lon="1.42469">
        <ele>144.82</ele>
        <time>2017-07-01T08:20:53Z</time>
      </trkpt>
      <trkpt lat="43.59694" lon="1.42566">
        <ele>144.82</ele>
        <time>2017-07-01T08:21:05Z</time>
      </trkpt>
      <trkpt lat="43.597" lon="1.426">
        <ele>144.82</ele>
        <time>2017-07-01T08:21:09Z</time>
      </trkpt>
      <trkpt lat="43.59704" lon="1.4264">
        <ele>143.85</ele>
        <time>2017-07-01T08:21:14Z</time>
      </trkpt>
      <trkpt lat="43.59705" lon="1.42649">
        <ele>143.85</ele>
        <time>2017-07-01T08:21:15Z</time>
      </trkpt>
      <trkpt lat="43.59707" lon="1.42657">
        <ele>143.85</ele>
        <time>2017-07-01T08:21:16Z</time>
      </trkpt>
      <trkpt lat="43.59717" lon="1.42704">
        <ele>143.85</ele>
        <time>2017-07-01T08:21:23Z</time>
      </trkpt>
      <trkpt lat="43.59719" lon="1.4271">
        <ele>143.85</ele>
        <time>2017-07-01T08:21:24Z</time>
      </trkpt>
      <trkpt lat="43.59721" lon="1.42717">
        <ele>143.85</ele>
        <time>2017-07-01T08:21:25Z</time>
      </trkpt>
      <trkpt lat="43.59745" lon="1.42823">
        <ele>143.85</ele>
        <time>2017-07-01T08:21:36Z</time>
      </trkpt>
      <trkpt lat="43.59763" lon="1.42934">
        <ele>142.89</ele>
        <time>2017-07-01T08:21:48Z</time>
      </trkpt>
      <trkpt lat="43.59786" lon="1.43078">
        <ele>142.89</ele>
        <time>2017-07-01T08:22:03Z</time>
      </trkpt>
      <trkpt lat="43.59806" lon="1.43194">
        <ele>142.89</ele>
        <time>2017-07-01T08:22:17Z</time>
      </trkpt>
      <trkpt lat="43.59808" lon="1.432">
        <ele>142.89</ele>
        <time>2017-07-01T08:22:18Z</time>
      </trkpt>
      <trkpt lat="43.59812" lon="1.43203">
        <ele>142.89</ele>
        <time>2017-07-01T08:22:19Z</time>
      </trkpt>
      <trkpt lat="43.59816" lon="1.43205">
        <ele>142.89</ele>
        <time>2017-07-01T08:22:20Z</time>
      </trkpt>
      <trkpt lat="43.59822" lon="1.43206">
        <ele>142.89</ele>
        <time>2017-07-01T08:22:21Z</time>
      </trkpt>
      <trkpt lat="43.59827" lon="1.43205">
        <ele>142.89</ele>
        <time>2017-07-01T08:22:22Z</time>
      </trkpt>
      <trkpt lat="43.59833" lon="1.43205">
        <ele>142.89</ele>
        <time>2017-07-01T08:22:23Z</time>
      </trkpt>
      <trkpt lat="43.59838" lon="1.43207">
        <ele>142.89</ele>
        <time>2017-07-01T08:22:24Z</time>
      </trkpt>
      <trkpt lat="43.59843" lon="1.43209">
        <ele>142.89</ele>
        <time>2017-07-01T08:22:25Z</time>
      </trkpt>
      <trkpt lat="43.59848" lon="1.43213">
        <ele>142.89</ele>
        <time>2017-07-01T08:22:26Z</time>
      </trkpt>
      <trkpt lat="43.59852" lon="1.43217">
        <ele>142.89</ele>
        <time>2017-07-01T08:22:27Z</time>
      </trkpt>
      <trkpt lat="43.59879" lon="1.4324">
        <ele>142.89</ele>
        <time>2017-07-01T08:22:37Z</time>
      </trkpt>
      <trkpt lat="43.59888" lon="1.43272">
        <ele>142.89</ele>
        <time>2017-07-01T08:22:47Z</time>
      </trkpt>
      <trkpt lat="43.59887" lon="1.43284">
        <ele>141.93</ele>
        <time>2017-07-01T08:22:49Z</time>
      </trkpt>
      <trkpt lat="43.59884" lon="1.43319">
        <ele>141.93</ele>
        <time>2017-07-01T08:22:55Z</time>
      </trkpt>
      <trkpt lat="43.59886" lon="1.43326">
        <ele>141.93</ele>
        <time>2017-07-01T08:22:56Z</time>
      </trkpt>
      <trkpt lat="43.59883" lon="1.43359">
        <ele>141.93</ele>
        <time>2017-07-01T08:23:01Z</time>
      </trkpt>
      <trkpt lat="43.59881" lon="1.43365">
        <ele>141.93</ele>
        <time>2017-07-01T08:23:02Z</time>
      </trkpt>
      <trkpt lat="43.59864" lon="1.43427">
        <ele>141.93</ele>
        <time>2017-07-01T08:23:15Z</time>
      </trkpt>
      <trkpt lat="43.5986" lon="1.43465">
        <ele>142.89</ele>
        <time>2017-07-01T08:23:24Z</time>
      </trkpt>
      <trkpt lat="43.59879" lon="1.43575">
        <ele>142.89</ele>
        <time>2017-07-01T08:23:39Z</time>
      </trkpt>
      <trkpt lat="43.59881" lon="1.4359">
        <ele>142.89</ele>
        <time>2017-07-01T08:23:41Z</time>
      </trkpt>
      <trkpt lat="43.59891" lon="1.43665">
        <ele>142.89</ele>
        <time>2017-07-01T08:23:53Z</time>
      </trkpt>
      <trkpt lat="43.59902" lon="1.43733">
        <ele>143.85</ele>
        <time>2017-07-01T08:24:05Z</time>
      </trkpt>
      <trkpt lat="43.59914" lon="1.43808">
        <ele>147.22</ele>
        <time>2017-07-01T08:24:18Z</time>
      </trkpt>
      <trkpt lat="43.5993" lon="1.43909">
        <ele>150.1</ele>
        <time>2017-07-01T08:24:37Z</time>
      </trkpt>
      <trkpt lat="43.59947" lon="1.44">
        <ele>152.03</ele>
        <time>2017-07-01T08:24:51Z</time>
      </trkpt>
      <trkpt lat="43.5996" lon="1.44065">
        <ele>152.03</ele>
        <time>2017-07-01T08:25:02Z</time>
      </trkpt>
      <trkpt lat="43.59974" lon="1.44127">
        <ele>151.06</ele>
        <time>2017-07-01T08:25:11Z</time>
      </trkpt>
      <trkpt lat="43.59975" lon="1.44135">
        <ele>151.06</ele>
        <time>2017-07-01T08:25:12Z</time>
      </trkpt>
      <trkpt lat="43.6" lon="1.44228">
        <ele>151.06</ele>
        <time>2017-07-01T08:25:24Z</time>
      </trkpt>
      <trkpt lat="43.60006" lon="1.44242">
        <ele>151.06</ele>
        <time>2017-07-01T08:25:26Z</time>
      </trkpt>
      <trkpt lat="43.60035" lon="1.4434">
        <ele>151.06</ele>
        <time>2017-07-01T08:25:39Z</time>
      </trkpt>
      <trkpt lat="43.60042" lon="1.44354">
        <ele>151.06</ele>
        <time>2017-07-01T08:25:41Z</time>
      </trkpt>
      <trkpt lat="43.60043" lon="1.4438">
        <ele>152.03</ele>
        <time>2017-07-01T08:25:45Z</time>
      </trkpt>
      <trkpt lat="43.60056" lon="1.44509">
        <ele>152.03</ele>
        <time>2017-07-01T08:26:01Z</time>
      </trkpt>
      <trkpt lat="43.60061" lon="1.44568">
        <ele>152.03</ele>
        <time>2017-07-01T08:26:10Z</time>
      </trkpt>
      <trkpt lat="43.60062" lon="1.44584">
        <ele>152.03</ele>
        <time>2017-07-01T08:26:13Z</time>
      </trkpt>
      <trkpt lat="43.60063" lon="1.44703">
        <ele>152.03</ele>
        <time>2017-07-01T08:26:28Z</time>
      </trkpt>
      <trkpt lat="43.60063" lon="1.44727">
        <ele>151.06</ele>
        <time>2017-07-01T08:26:32Z</time>
      </trkpt>
      <trkpt lat="43.60064" lon="1.44814">
        <ele>151.06</ele>
        <time>2017-07-01T08:26:46Z</time>
      </trkpt>
      <trkpt lat="43.6007" lon="1.44896">
        <ele>151.06</ele>
        <time>2017-07-01T08:26:57Z</time>
      </trkpt>
      <trkpt lat="43.6007" lon="1.45039">
        <ele>150.1</ele>
        <time>2017-07-01T08:27:12Z</time>
      </trkpt>
      <trkpt lat="43.60072" lon="1.45076">
        <ele>150.1</ele>
        <time>2017-07-01T08:27:16Z</time>
      </trkpt>
      <trkpt lat="43.60071" lon="1.45096">
        <ele>150.1</ele>
        <time>2017-07-01T08:27:18Z</time>
      </trkpt>
      <trkpt lat="43.6007" lon="1.45105">
        <ele>150.1</ele>
        <time>2017-07-01T08:27:19Z</time>
      </trkpt>
      <trkpt lat="43.60049" lon="1.45177">
        <ele>151.06</ele>
        <time>2017-07-01T08:27:31Z</time>
      </trkpt>
      <trkpt lat="43.60048" lon="1.45179">
        <ele>151.06</ele>
        <time>2017-07-01T08:27:35Z</time>
      </trkpt>
      <trkpt lat="43.60043" lon="1.45194">
        <ele>152.03</ele>
        <time>2017-07-01T08:27:47Z</time>
      </trkpt>
      <trkpt lat="43.60032" lon="1.45259">
        <ele>151.06</ele>
        <time>2017-07-01T08:27:59Z</time>
      </trkpt>
      <trkpt lat="43.60013" lon="1.45352">
        <ele>152.03</ele>
        <time>2017-07-01T08:28:12Z</time>
      </trkpt>
      <trkpt lat="43.6001" lon="1.45358">
        <ele>152.03</ele>
        <time>2017-07-01T08:28:13Z</time>
      </trkpt>
      <trkpt lat="43.59995" lon="1.45388">
        <ele>152.99</ele>
        <time>2017-07-01T08:28:18Z</time>
      </trkpt>
      <trkpt lat="43.5994" lon="1.45486">
        <ele>152.99</ele>
        <time>2017-07-01T08:28:33Z</time>
      </trkpt>
      <trkpt lat="43.5991" lon="1.45542">
        <ele>152.99</ele>
        <time>2017-07-01T08:28:42Z</time>
      </trkpt>
      <trkpt lat="43.59907" lon="1.45549">
        <ele>152.99</ele>
        <time>2017-07-01T08:28:43Z</time>
      </trkpt>
      <trkpt lat="43.59904" lon="1.45555">
        <ele>152.99</ele>
        <time>2017-07-01T08:28:44Z</time>
      </trkpt>
      <trkpt lat="43.59884" lon="1.45576">
        <ele>153.95</ele>
        <time>2017-07-01T08:28:48Z</time>
      </trkpt>
      <trkpt lat="43.59861" lon="1.45633">
        <ele>155.87</ele>
        <time>2017-07-01T08:28:57Z</time>
      </trkpt>
      <trkpt lat="43.5986" lon="1.45641">
        <ele>156.83</ele>
        <time>2017-07-01T08:28:58Z</time>
      </trkpt>
      <trkpt lat="43.59861" lon="1.4565">
        <ele>156.83</ele>
        <time>2017-07-01T08:28:59Z</time>
      </trkpt>
      <trkpt lat="43.59865" lon="1.45656">
        <ele>156.83</ele>
        <time>2017-07-01T08:29:00Z</time>
      </trkpt>
      <trkpt lat="43.59869" lon="1.4566">
        <ele>156.83</ele>
        <time>2017-07-01T08:29:01Z</time>
      </trkpt>
      <trkpt lat="43.59875" lon="1.45663">
        <ele>156.83</ele>
        <time>2017-07-01T08:29:02Z</time>
      </trkpt>
      <trkpt lat="43.5988" lon="1.45663">
        <ele>156.83</ele>
        <time>2017-07-01T08:29:03Z</time>
      </trkpt>
      <trkpt lat="43.59886" lon="1.45663">
        <ele>156.83</ele>
        <time>2017-07-01T08:29:04Z</time>
      </trkpt>
      <trkpt lat="43.59892" lon="1.45662">
        <ele>156.83</ele>
        <time>2017-07-01T08:29:05Z</time>
      </trkpt>
      <trkpt lat="43.59898" lon="1.45662">
        <ele>156.83</ele>
        <time>2017-07-01T08:29:06Z</time>
      </trkpt>
      <trkpt lat="43.59904" lon="1.45662">
        <ele>156.83</ele>
        <time>2017-07-01T08:29:07Z</time>
      </trkpt>
      <trkpt lat="43.5991" lon="1.45664">
        <ele>156.83</ele>
        <time>2017-07-01T08:29:08Z</time>
      </trkpt>
      <trkpt lat="43.60006" lon="1.4567">
        <ele>155.87</ele>
        <time>2017-07-01T08:29:23Z</time>
      </trkpt>
      <trkpt lat="43.60064" lon="1.45675">
        <ele>154.91</ele>
        <time>2017-07-01T08:29:33Z</time>
      </trkpt>
      <trkpt lat="43.6009" lon="1.45675">
        <ele>154.91</ele>
        <time>2017-07-01T08:29:38Z</time>
      </trkpt>
      <trkpt lat="43.60095" lon="1.45675">
        <ele>154.91</ele>
        <time>2017-07-01T08:29:39Z</time>
      </trkpt>
      <trkpt lat="43.60099" lon="1.45677">
        <ele>154.91</ele>
        <time>2017-07-01T08:29:40Z</time>
      </trkpt>
      <trkpt lat="43.60102" lon="1.45681">
        <ele>154.91</ele>
        <time>2017-07-01T08:29:41Z</time>
      </trkpt>
      <trkpt lat="43.60104" lon="1.45687">
        <ele>154.91</ele>
        <time>2017-07-01T08:29:42Z</time>
      </trkpt>
      <trkpt lat="43.60106" lon="1.45694">
        <ele>154.91</ele>
        <time>2017-07-01T08:29:43Z</time>
      </trkpt>
      <trkpt lat="43.60108" lon="1.457">
        <ele>154.91</ele>
        <time>2017-07-01T08:29:44Z</time>
      </trkpt>
      <trkpt lat="43.60111" lon="1.45706">
        <ele>154.91</ele>
        <time>2017-07-01T08:29:45Z</time>
      </trkpt>
      <trkpt lat="43.60164" lon="1.45802">
        <ele>156.83</ele>
        <time>2017-07-01T08:30:01Z</time>
      </trkpt>
      <trkpt lat="43.60174" lon="1.45818">
        <ele>156.83</ele>
        <time>2017-07-01T08:30:04Z</time>
      </trkpt>
      <trkpt lat="43.60176" lon="1.45824">
        <ele>156.83</ele>
        <time>2017-07-01T08:30:05Z</time>
      </trkpt>
      <trkpt lat="43.60178" lon="1.45829">
        <ele>157.79</ele>
        <time>2017-07-01T08:30:06Z</time>
      </trkpt>
      <trkpt lat="43.60178" lon="1.45834">
        <ele>157.79</ele>
        <time>2017-07-01T08:30:07Z</time>
      </trkpt>
      <trkpt lat="43.60179" lon="1.4584">
        <ele>157.79</ele>
        <time>2017-07-01T08:30:08Z</time>
      </trkpt>
      <trkpt lat="43.60168" lon="1.45907">
        <ele>161.16</ele>
        <time>2017-07-01T08:30:20Z</time>
      </trkpt>
      <trkpt lat="43.60153" lon="1.45971">
        <ele>164.04</ele>
        <time>2017-07-01T08:30:33Z</time>
      </trkpt>
      <trkpt lat="43.6014" lon="1.46028">
        <ele>166.93</ele>
        <time>2017-07-01T08:30:45Z</time>
      </trkpt>
      <trkpt lat="43.60128" lon="1.46087">
        <ele>170.77</ele>
        <time>2017-07-01T08:30:57Z</time>
      </trkpt>
      <trkpt lat="43.60113" lon="1.46161">
        <ele>174.14</ele>
        <time>2017-07-01T08:31:12Z</time>
      </trkpt>
      <trkpt lat="43.601" lon="1.46243">
        <ele>177.02</ele>
        <time>2017-07-01T08:31:28Z</time>
      </trkpt>
      <trkpt lat="43.60082" lon="1.46332">
        <ele>178.94</ele>
        <time>2017-07-01T08:31:44Z</time>
      </trkpt>
      <trkpt lat="43.60057" lon="1.46422">
        <ele>180.87</ele>
        <time>2017-07-01T08:32:00Z</time>
      </trkpt>
      <trkpt lat="43.60005" lon="1.46519">
        <ele>181.83</ele>
        <time>2017-07-01T08:32:18Z</time>
      </trkpt>
      <trkpt lat="43.59995" lon="1.46541">
        <ele>182.79</ele>
        <time>2017-07-01T08:32:22Z</time>
      </trkpt>
      <trkpt lat="43.59992" lon="1.46547">
        <ele>182.79</ele>
        <time>2017-07-01T08:32:23Z</time>
      </trkpt>
      <trkpt lat="43.59987" lon="1.46559">
        <ele>182.79</ele>
        <time>2017-07-01T08:32:25Z</time>
      </trkpt>
      <trkpt lat="43.59978" lon="1.46582">
        <ele>182.79</ele>
        <time>2017-07-01T08:32:29Z</time>
      </trkpt>
      <trkpt lat="43.59976" lon="1.46587">
        <ele>182.79</ele>
        <time>2017-07-01T08:32:30Z</time>
      </trkpt>
      <trkpt lat="43.59972" lon="1.4659">
        <ele>182.79</ele>
        <time>2017-07-01T08:32:31Z</time>
      </trkpt>
      <trkpt lat="43.59968" lon="1.46591">
        <ele>184.23</ele>
        <time>2017-07-01T08:32:32Z</time>
      </trkpt>
      <trkpt lat="43.59959" lon="1.46591">
        <ele>184.23</ele>
        <time>2017-07-01T08:32:34Z</time>
      </trkpt>
      <trkpt lat="43.59953" lon="1.4659">
        <ele>184.23</ele>
        <time>2017-07-01T08:32:35Z</time>
      </trkpt>
      <trkpt lat="43.59947" lon="1.46591">
        <ele>184.23</ele>
        <time>2017-07-01T08:32:36Z</time>
      </trkpt>
      <trkpt lat="43.59931" lon="1.46593">
        <ele>184.23</ele>
        <time>2017-07-01T08:32:39Z</time>
      </trkpt>
      <trkpt lat="43.5992" lon="1.46594">
        <ele>184.23</ele>
        <time>2017-07-01T08:32:41Z</time>
      </trkpt>
      <trkpt lat="43.59868" lon="1.46604">
        <ele>185.19</ele>
        <time>2017-07-01T08:32:51Z</time>
      </trkpt>
      <trkpt lat="43.59858" lon="1.46608">
        <ele>185.19</ele>
        <time>2017-07-01T08:32:53Z</time>
      </trkpt>
      <trkpt lat="43.59775" lon="1.46619">
        <ele>185.19</ele>
        <time>2017-07-01T08:33:08Z</time>
      </trkpt>
      <trkpt lat="43.59708" lon="1.46633">
        <ele>184.23</ele>
        <time>2017-07-01T08:33:20Z</time>
      </trkpt>
      <trkpt lat="43.59703" lon="1.46636">
        <ele>184.23</ele>
        <time>2017-07-01T08:33:21Z</time>
      </trkpt>
      <trkpt lat="43.59613" lon="1.46699">
        <ele>182.79</ele>
        <time>2017-07-01T08:33:39Z</time>
      </trkpt>
      <trkpt lat="43.59609" lon="1.46703">
        <ele>182.79</ele>
        <time>2017-07-01T08:33:40Z</time>
      </trkpt>
      <trkpt lat="43.59535" lon="1.46772">
        <ele>181.83</ele>
        <time>2017-07-01T08:33:55Z</time>
      </trkpt>
      <trkpt lat="43.59526" lon="1.46783">
        <ele>181.83</ele>
        <time>2017-07-01T08:33:58Z</time>
      </trkpt>
      <trkpt lat="43.59526" lon="1.46786">
        <ele>181.83</ele>
        <time>2017-07-01T08:33:59Z</time>
      </trkpt>
      <trkpt lat="43.59527" lon="1.46791">
        <ele>181.83</ele>
        <time>2017-07-01T08:34:00Z</time>
      </trkpt>
      <trkpt lat="43.59528" lon="1.46797">
        <ele>181.83</ele>
        <time>2017-07-01T08:34:01Z</time>
      </trkpt>
      <trkpt lat="43.5953" lon="1.46801">
        <ele>181.83</ele>
        <time>2017-07-01T08:34:02Z</time>
      </trkpt>
      <trkpt lat="43.59532" lon="1.46806">
        <ele>181.83</ele>
        <time>2017-07-01T08:34:03Z</time>
      </trkpt>
      <trkpt lat="43.59544" lon="1.46846">
        <ele>181.83</ele>
        <time>2017-07-01T08:34:12Z</time>
      </trkpt>
      <trkpt lat="43.59541" lon="1.46849">
        <ele>181.83</ele>
        <time>2017-07-01T08:34:13Z</time>
      </trkpt>
      <trkpt lat="43.59538" lon="1.4685">
        <ele>181.83</ele>
        <time>2017-07-01T08:34:14Z</time>
      </trkpt>
      <trkpt lat="43.59533" lon="1.4685">
        <ele>181.83</ele>
        <time>2017-07-01T08:34:15Z</time>
      </trkpt>
      <trkpt lat="43.59529" lon="1.46849">
        <ele>181.83</ele>
        <time>2017-07-01T08:34:16Z</time>
      </trkpt>
      <trkpt lat="43.59524" lon="1.46848">
        <ele>182.79</ele>
        <time>2017-07-01T08:34:17Z</time>
      </trkpt>
      <trkpt lat="43.5952" lon="1.46848">
        <ele>182.79</ele>
        <time>2017-07-01T08:34:18Z</time>
      </trkpt>
      <trkpt lat="43.59515" lon="1.46848">
        <ele>182.79</ele>
        <time>2017-07-01T08:34:19Z</time>
      </trkpt>
      <trkpt lat="43.5951" lon="1.46848">
        <ele>182.79</ele>
        <time>2017-07-01T08:34:20Z</time>
      </trkpt>
      <trkpt lat="43.5943" lon="1.46849">
        <ele>182.79</ele>
        <time>2017-07-01T08:34:36Z</time>
      </trkpt>
      <trkpt lat="43.59428" lon="1.46854">
        <ele>181.83</ele>
        <time>2017-07-01T08:34:37Z</time>
      </trkpt>
      <trkpt lat="43.59426" lon="1.4686">
        <ele>181.83</ele>
        <time>2017-07-01T08:34:38Z</time>
      </trkpt>
      <trkpt lat="43.59425" lon="1.46867">
        <ele>181.83</ele>
        <time>2017-07-01T08:34:39Z</time>
      </trkpt>
      <trkpt lat="43.59426" lon="1.46874">
        <ele>181.83</ele>
        <time>2017-07-01T08:34:40Z</time>
      </trkpt>
      <trkpt lat="43.5942" lon="1.46907">
        <ele>181.83</ele>
        <time>2017-07-01T08:34:45Z</time>
      </trkpt>
      <trkpt lat="43.59418" lon="1.46913">
        <ele>181.83</ele>
        <time>2017-07-01T08:34:46Z</time>
      </trkpt>
      <trkpt lat="43.59414" lon="1.46933">
        <ele>181.83</ele>
        <time>2017-07-01T08:34:49Z</time>
      </trkpt>
      <trkpt lat="43.59413" lon="1.4694">
        <ele>181.83</ele>
        <time>2017-07-01T08:34:50Z</time>
      </trkpt>
      <trkpt lat="43.5941" lon="1.46962">
        <ele>181.83</ele>
        <time>2017-07-01T08:34:53Z</time>
      </trkpt>
      <trkpt lat="43.59407" lon="1.46983">
        <ele>181.83</ele>
        <time>2017-07-01T08:34:56Z</time>
      </trkpt>
      <trkpt lat="43.59406" lon="1.46989">
        <ele>181.83</ele>
        <time>2017-07-01T08:34:57Z</time>
      </trkpt>
      <trkpt lat="43.59405" lon="1.46996">
        <ele>181.83</ele>
        <time>2017-07-01T08:34:58Z</time>
      </trkpt>
      <trkpt lat="43.59399" lon="1.47036">
        <ele>182.79</ele>
        <time>2017-07-01T08:35:04Z</time>
      </trkpt>
      <trkpt lat="43.59381" lon="1.47151">
        <ele>184.23</ele>
        <time>2017-07-01T08:35:20Z</time>
      </trkpt>
      <trkpt lat="43.59375" lon="1.47208">
        <ele>185.19</ele>
        <time>2017-07-01T08:35:28Z</time>
      </trkpt>
      <trkpt lat="43.59375" lon="1.47215">
        <ele>185.19</ele>
        <time>2017-07-01T08:35:29Z</time>
      </trkpt>
      <trkpt lat="43.59373" lon="1.47221">
        <ele>185.19</ele>
        <time>2017-07-01T08:35:30Z</time>
      </trkpt>
      <trkpt lat="43.59363" lon="1.47269">
        <ele>186.15</ele>
        <time>2017-07-01T08:35:41Z</time>
      </trkpt>
      <trkpt lat="43.59363" lon="1.47269">
        <ele>186.15</ele>
        <time>2017-07-01T08:35:43Z</time>
      </trkpt>
      <trkpt lat="43.59358" lon="1.47276">
        <ele>187.11</ele>
        <time>2017-07-01T08:35:49Z</time>
      </trkpt>
      <trkpt lat="43.59359" lon="1.4728">
        <ele>187.11</ele>
        <time>2017-07-01T08:35:50Z</time>
      </trkpt>
      <trkpt lat="43.59359" lon="1.47284">
        <ele>187.11</ele>
        <time>2017-07-01T08:35:51Z</time>
      </trkpt>
      <trkpt lat="43.59359" lon="1.47288">
        <ele>187.11</ele>
        <time>2017-07-01T08:35:52Z</time>
      </trkpt>
      <trkpt lat="43.59358" lon="1.47292">
        <ele>187.11</ele>
        <time>2017-07-01T08:35:53Z</time>
      </trkpt>
      <trkpt lat="43.59357" lon="1.47298">
        <ele>187.11</ele>
        <time>2017-07-01T08:35:54Z</time>
      </trkpt>
      <trkpt lat="43.59355" lon="1.47303">
        <ele>187.11</ele>
        <time>2017-07-01T08:35:55Z</time>
      </trkpt>
      <trkpt lat="43.59354" lon="1.47309">
        <ele>187.11</ele>
        <time>2017-07-01T08:35:56Z</time>
      </trkpt>
      <trkpt lat="43.59352" lon="1.47316">
        <ele>187.11</ele>
        <time>2017-07-01T08:35:57Z</time>
      </trkpt>
      <trkpt lat="43.59325" lon="1.47419">
        <ele>188.08</ele>
        <time>2017-07-01T08:36:14Z</time>
      </trkpt>
      <trkpt lat="43.59304" lon="1.47471">
        <ele>190</ele>
        <time>2017-07-01T08:36:25Z</time>
      </trkpt>
      <trkpt lat="43.59301" lon="1.47472">
        <ele>190</ele>
        <time>2017-07-01T08:36:26Z</time>
      </trkpt>
      <trkpt lat="43.59295" lon="1.47462">
        <ele>190.96</ele>
        <time>2017-07-01T08:36:29Z</time>
      </trkpt>
      <trkpt lat="43.59273" lon="1.47416">
        <ele>190.96</ele>
        <time>2017-07-01T08:36:42Z</time>
      </trkpt>
      <trkpt lat="43.59231" lon="1.47392">
        <ele>190</ele>
        <time>2017-07-01T08:36:53Z</time>
      </trkpt>
      <trkpt lat="43.59179" lon="1.47359">
        <ele>188.08</ele>
        <time>2017-07-01T08:37:04Z</time>
      </trkpt>
      <trkpt lat="43.59161" lon="1.4735">
        <ele>186.15</ele>
        <time>2017-07-01T08:37:12Z</time>
      </trkpt>
      <trkpt lat="43.59159" lon="1.47353">
        <ele>186.15</ele>
        <time>2017-07-01T08:37:13Z</time>
      </trkpt>
      <trkpt lat="43.59157" lon="1.47356">
        <ele>186.15</ele>
        <time>2017-07-01T08:37:14Z</time>
      </trkpt>
      <trkpt lat="43.59155" lon="1.47361">
        <ele>186.15</ele>
        <time>2017-07-01T08:37:15Z</time>
      </trkpt>
      <trkpt lat="43.59154" lon="1.47366">
        <ele>186.15</ele>
        <time>2017-07-01T08:37:16Z</time>
      </trkpt>
      <trkpt lat="43.59153" lon="1.47371">
        <ele>186.15</ele>
        <time>2017-07-01T08:37:17Z</time>
      </trkpt>
      <trkpt lat="43.59135" lon="1.47426">
        <ele>186.15</ele>
        <time>2017-07-01T08:37:27Z</time>
      </trkpt>
      <trkpt lat="43.59109" lon="1.47512">
        <ele>187.11</ele>
        <time>2017-07-01T08:37:42Z</time>
      </trkpt>
      <trkpt lat="43.59086" lon="1.47581">
        <ele>190</ele>
        <time>2017-07-01T08:37:56Z</time>
      </trkpt>
      <trkpt lat="43.59082" lon="1.47583">
        <ele>190</ele>
        <time>2017-07-01T08:37:57Z</time>
      </trkpt>
      <trkpt lat="43.59077" lon="1.47582">
        <ele>190</ele>
        <time>2017-07-01T08:37:58Z</time>
      </trkpt>
      <trkpt lat="43.59073" lon="1.47579">
        <ele>190</ele>
        <time>2017-07-01T08:37:59Z</time>
      </trkpt>
      <trkpt lat="43.59069" lon="1.47576">
        <ele>190</ele>
        <time>2017-07-01T08:38:00Z</time>
      </trkpt>
      <trkpt lat="43.59025" lon="1.47545">
        <ele>190</ele>
        <time>2017-07-01T08:38:10Z</time>
      </trkpt>
      <trkpt lat="43.59023" lon="1.47548">
        <ele>190</ele>
        <time>2017-07-01T08:38:11Z</time>
      </trkpt>
      <trkpt lat="43.59022" lon="1.47551">
        <ele>189.04</ele>
        <time>2017-07-01T08:38:12Z</time>
      </trkpt>
      <trkpt lat="43.5902" lon="1.47554">
        <ele>189.04</ele>
        <time>2017-07-01T08:38:13Z</time>
      </trkpt>
      <trkpt lat="43.59019" lon="1.47558">
        <ele>189.04</ele>
        <time>2017-07-01T08:38:14Z</time>
      </trkpt>
      <trkpt lat="43.59018" lon="1.47563">
        <ele>189.04</ele>
        <time>2017-07-01T08:38:15Z</time>
      </trkpt>
      <trkpt lat="43.59017" lon="1.47568">
        <ele>188.08</ele>
        <time>2017-07-01T08:38:16Z</time>
      </trkpt>
      <trkpt lat="43.59016" lon="1.47573">
        <ele>188.08</ele>
        <time>2017-07-01T08:38:17Z</time>
      </trkpt>
      <trkpt lat="43.59015" lon="1.47578">
        <ele>188.08</ele>
        <time>2017-07-01T08:38:18Z</time>
      </trkpt>
      <trkpt lat="43.58987" lon="1.47653">
        <ele>190</ele>
        <time>2017-07-01T08:38:36Z</time>
      </trkpt>
      <trkpt lat="43.58969" lon="1.47688">
        <ele>191.92</ele>
        <time>2017-07-01T08:38:48Z</time>
      </trkpt>
      <trkpt lat="43.58968" lon="1.47686">
        <ele>192.88</ele>
        <time>2017-07-01T08:38:52Z</time>
      </trkpt>
    </trkseg>
  </trk>
</gpx>